<?xml version='1.0' encoding='UTF-8'?><gpx version="1.1" creator="JPX - https://github.com/jenetics/jpx" xmlns="http://www.topografix.com/GPX/1/1"><trk><trkseg><trkpt lat="39.06432" lon="-0.7707167"><ele>474.0</ele><time>2026-04-30T15:41:30.386Z</time></trkpt><trkpt lat="39.0643267" lon="-0.7705667"><ele>474.0</ele><time>2026-04-30T15:41:32.386Z</time></trkpt><trkpt lat="39.0643417" lon="-0.7704567"><ele>474.0</ele><time>2026-04-30T15:41:33.387Z</time></trkpt><trkpt lat="39.0643633" lon="-0.770325"><ele>474.0</ele><time>2026-04-30T15:41:34.386Z</time></trkpt><trkpt lat="39.0643867" lon="-0.7701783"><ele>474.0</ele><time>2026-04-30T15:41:35.387Z</time></trkpt><trkpt lat="39.0644083" lon="-0.7700317"><ele>473.4</ele><time>2026-04-30T15:41:36.389Z</time></trkpt><trkpt lat="39.0644267" lon="-0.76989"><ele>472.79999999999995</ele><time>2026-04-30T15:41:37.386Z</time></trkpt><trkpt lat="39.0644383" lon="-0.7697533"><ele>472.20000000000005</ele><time>2026-04-30T15:41:38.388Z</time></trkpt><trkpt lat="39.0644483" lon="-0.7696217"><ele>471.6</ele><time>2026-04-30T15:41:39.387Z</time></trkpt><trkpt lat="39.0644567" lon="-0.7694883"><ele>471.0</ele><time>2026-04-30T15:41:40.386Z</time></trkpt><trkpt lat="39.06446" lon="-0.76934"><ele>469.75</ele><time>2026-04-30T15:41:41.388Z</time></trkpt><trkpt lat="39.0644617" lon="-0.7691917"><ele>468.5</ele><time>2026-04-30T15:41:42.391Z</time></trkpt><trkpt lat="39.0644633" lon="-0.7690383"><ele>467.25</ele><time>2026-04-30T15:41:43.386Z</time></trkpt><trkpt lat="39.0644683" lon="-0.768885"><ele>466.0</ele><time>2026-04-30T15:41:44.388Z</time></trkpt><trkpt lat="39.0644733" lon="-0.7687383"><ele>466.0</ele><time>2026-04-30T15:41:45.389Z</time></trkpt><trkpt lat="39.06448" lon="-0.7686017"><ele>466.0</ele><time>2026-04-30T15:41:46.386Z</time></trkpt><trkpt lat="39.0644867" lon="-0.768475"><ele>466.0</ele><time>2026-04-30T15:41:47.386Z</time></trkpt><trkpt lat="39.0645" lon="-0.768355"><ele>466.0</ele><time>2026-04-30T15:41:48.388Z</time></trkpt><trkpt lat="39.06451" lon="-0.7682417"><ele>466.0</ele><time>2026-04-30T15:41:49.385Z</time></trkpt><trkpt lat="39.0645233" lon="-0.7681367"><ele>465.83333333333337</ele><time>2026-04-30T15:41:50.386Z</time></trkpt><trkpt lat="39.064535" lon="-0.7680433"><ele>465.6666666666667</ele><time>2026-04-30T15:41:51.386Z</time></trkpt><trkpt lat="39.06455" lon="-0.7679267"><ele>465.5</ele><time>2026-04-30T15:41:53.39Z</time></trkpt><trkpt lat="39.064505" lon="-0.7678667"><ele>465.33333333333337</ele><time>2026-04-30T15:41:56.39Z</time></trkpt><trkpt lat="39.0644167" lon="-0.767855"><ele>465.1666666666667</ele><time>2026-04-30T15:41:58.384Z</time></trkpt><trkpt lat="39.064355" lon="-0.7678283"><ele>465.0</ele><time>2026-04-30T15:41:59.389Z</time></trkpt><trkpt lat="39.0642833" lon="-0.7677967"><ele>465.0</ele><time>2026-04-30T15:42:00.389Z</time></trkpt><trkpt lat="39.0641933" lon="-0.76777"><ele>465.0</ele><time>2026-04-30T15:42:01.388Z</time></trkpt><trkpt lat="39.0640917" lon="-0.7677467"><ele>465.0</ele><time>2026-04-30T15:42:02.384Z</time></trkpt><trkpt lat="39.0639967" lon="-0.7677333"><ele>465.0</ele><time>2026-04-30T15:42:03.385Z</time></trkpt><trkpt lat="39.0638983" lon="-0.7677283"><ele>465.0</ele><time>2026-04-30T15:42:04.385Z</time></trkpt><trkpt lat="39.0638117" lon="-0.7677367"><ele>464.5</ele><time>2026-04-30T15:42:05.387Z</time></trkpt><trkpt lat="39.0637217" lon="-0.7677617"><ele>464.0</ele><time>2026-04-30T15:42:06.385Z</time></trkpt><trkpt lat="39.0636317" lon="-0.7677983"><ele>463.5</ele><time>2026-04-30T15:42:07.386Z</time></trkpt><trkpt lat="39.0635433" lon="-0.7678433"><ele>463.0</ele><time>2026-04-30T15:42:08.384Z</time></trkpt><trkpt lat="39.0634617" lon="-0.7678917"><ele>462.5</ele><time>2026-04-30T15:42:09.384Z</time></trkpt><trkpt lat="39.0633933" lon="-0.76794"><ele>462.0</ele><time>2026-04-30T15:42:10.385Z</time></trkpt><trkpt lat="39.063325" lon="-0.767975"><ele>462.3333333333333</ele><time>2026-04-30T15:42:11.386Z</time></trkpt><trkpt lat="39.06326" lon="-0.7679833"><ele>462.66666666666663</ele><time>2026-04-30T15:42:12.389Z</time></trkpt><trkpt lat="39.063195" lon="-0.76798"><ele>463.0</ele><time>2026-04-30T15:42:13.384Z</time></trkpt><trkpt lat="39.0631267" lon="-0.7679483"><ele>463.3333333333333</ele><time>2026-04-30T15:42:14.385Z</time></trkpt><trkpt lat="39.063055" lon="-0.7678967"><ele>463.66666666666663</ele><time>2026-04-30T15:42:15.386Z</time></trkpt><trkpt lat="39.0629683" lon="-0.7678517"><ele>464.0</ele><time>2026-04-30T15:42:16.383Z</time></trkpt><trkpt lat="39.062875" lon="-0.7678133"><ele>463.99999999999994</ele><time>2026-04-30T15:42:17.39Z</time></trkpt><trkpt lat="39.062795" lon="-0.7677617"><ele>464.0</ele><time>2026-04-30T15:42:18.386Z</time></trkpt><trkpt lat="39.0627217" lon="-0.76772"><ele>464.0</ele><time>2026-04-30T15:42:19.387Z</time></trkpt><trkpt lat="39.06265" lon="-0.76769"><ele>464.0</ele><time>2026-04-30T15:42:20.386Z</time></trkpt><trkpt lat="39.0625783" lon="-0.7676817"><ele>463.99999999999994</ele><time>2026-04-30T15:42:21.387Z</time></trkpt><trkpt lat="39.0624933" lon="-0.7676967"><ele>464.0</ele><time>2026-04-30T15:42:22.385Z</time></trkpt><trkpt lat="39.062405" lon="-0.7677083"><ele>463.4</ele><time>2026-04-30T15:42:23.386Z</time></trkpt><trkpt lat="39.062315" lon="-0.7676933"><ele>462.79999999999995</ele><time>2026-04-30T15:42:24.385Z</time></trkpt><trkpt lat="39.0622217" lon="-0.76768"><ele>462.20000000000005</ele><time>2026-04-30T15:42:25.384Z</time></trkpt><trkpt lat="39.0621233" lon="-0.76768"><ele>461.6</ele><time>2026-04-30T15:42:26.386Z</time></trkpt><trkpt lat="39.0620267" lon="-0.7676833"><ele>461.0</ele><time>2026-04-30T15:42:27.388Z</time></trkpt><trkpt lat="39.06193" lon="-0.7676883"><ele>461.3333333333333</ele><time>2026-04-30T15:42:28.384Z</time></trkpt><trkpt lat="39.0618467" lon="-0.7677"><ele>461.66666666666663</ele><time>2026-04-30T15:42:29.387Z</time></trkpt><trkpt lat="39.061765" lon="-0.76772"><ele>462.0</ele><time>2026-04-30T15:42:30.385Z</time></trkpt><trkpt lat="39.061685" lon="-0.7677517"><ele>462.33333333333337</ele><time>2026-04-30T15:42:31.388Z</time></trkpt><trkpt lat="39.0616133" lon="-0.76779"><ele>462.6666666666667</ele><time>2026-04-30T15:42:32.385Z</time></trkpt><trkpt lat="39.0615467" lon="-0.7678217"><ele>463.0</ele><time>2026-04-30T15:42:33.391Z</time></trkpt><trkpt lat="39.0614783" lon="-0.7678367"><ele>463.1666666666667</ele><time>2026-04-30T15:42:34.386Z</time></trkpt><trkpt lat="39.0614033" lon="-0.76784"><ele>463.33333333333337</ele><time>2026-04-30T15:42:35.385Z</time></trkpt><trkpt lat="39.0613167" lon="-0.7678333"><ele>463.5</ele><time>2026-04-30T15:42:36.384Z</time></trkpt><trkpt lat="39.0612233" lon="-0.767825"><ele>463.66666666666663</ele><time>2026-04-30T15:42:37.389Z</time></trkpt><trkpt lat="39.0611367" lon="-0.76781"><ele>463.8333333333333</ele><time>2026-04-30T15:42:38.385Z</time></trkpt><trkpt lat="39.06106" lon="-0.7677983"><ele>464.0</ele><time>2026-04-30T15:42:39.384Z</time></trkpt><trkpt lat="39.0609533" lon="-0.76778"><ele>464.0</ele><time>2026-04-30T15:42:41.384Z</time></trkpt><trkpt lat="39.060885" lon="-0.7677167"><ele>464.0</ele><time>2026-04-30T15:42:43.385Z</time></trkpt><trkpt lat="39.0608383" lon="-0.76757"><ele>464.0</ele><time>2026-04-30T15:42:45.388Z</time></trkpt><trkpt lat="39.0608267" lon="-0.7674683"><ele>464.0</ele><time>2026-04-30T15:42:46.384Z</time></trkpt><trkpt lat="39.0608117" lon="-0.7673483"><ele>464.0</ele><time>2026-04-30T15:42:47.384Z</time></trkpt><trkpt lat="39.0607933" lon="-0.7672033"><ele>462.5</ele><time>2026-04-30T15:42:48.384Z</time></trkpt><trkpt lat="39.0607733" lon="-0.7670517"><ele>461.0</ele><time>2026-04-30T15:42:49.382Z</time></trkpt><trkpt lat="39.06075" lon="-0.7668933"><ele>459.5</ele><time>2026-04-30T15:42:50.387Z</time></trkpt><trkpt lat="39.0607233" lon="-0.7667217"><ele>458.0</ele><time>2026-04-30T15:42:51.385Z</time></trkpt><trkpt lat="39.0606933" lon="-0.7665567"><ele>456.75</ele><time>2026-04-30T15:42:52.385Z</time></trkpt><trkpt lat="39.0606667" lon="-0.7663933"><ele>455.5</ele><time>2026-04-30T15:42:53.385Z</time></trkpt><trkpt lat="39.060645" lon="-0.7662417"><ele>454.25</ele><time>2026-04-30T15:42:54.386Z</time></trkpt><trkpt lat="39.06061" lon="-0.7660967"><ele>453.0</ele><time>2026-04-30T15:42:55.391Z</time></trkpt><trkpt lat="39.060555" lon="-0.7659683"><ele>452.5</ele><time>2026-04-30T15:42:56.387Z</time></trkpt><trkpt lat="39.0604767" lon="-0.7658467"><ele>452.0</ele><time>2026-04-30T15:42:57.385Z</time></trkpt><trkpt lat="39.0603883" lon="-0.7657517"><ele>451.5</ele><time>2026-04-30T15:42:58.385Z</time></trkpt><trkpt lat="39.0603017" lon="-0.76564"><ele>451.0</ele><time>2026-04-30T15:42:59.386Z</time></trkpt><trkpt lat="39.0602183" lon="-0.7655233"><ele>451.0</ele><time>2026-04-30T15:43:00.383Z</time></trkpt><trkpt lat="39.06014" lon="-0.7653833"><ele>451.0</ele><time>2026-04-30T15:43:01.383Z</time></trkpt><trkpt lat="39.0600733" lon="-0.7652383"><ele>451.0</ele><time>2026-04-30T15:43:02.386Z</time></trkpt><trkpt lat="39.060015" lon="-0.7650833"><ele>451.0</ele><time>2026-04-30T15:43:03.384Z</time></trkpt><trkpt lat="39.05997" lon="-0.7649117"><ele>450.5</ele><time>2026-04-30T15:43:04.393Z</time></trkpt><trkpt lat="39.0599333" lon="-0.7647333"><ele>450.0</ele><time>2026-04-30T15:43:05.386Z</time></trkpt><trkpt lat="39.0599083" lon="-0.7645433"><ele>449.5</ele><time>2026-04-30T15:43:06.384Z</time></trkpt><trkpt lat="39.059895" lon="-0.7643467"><ele>449.0</ele><time>2026-04-30T15:43:07.388Z</time></trkpt><trkpt lat="39.059875" lon="-0.7641567"><ele>448.5</ele><time>2026-04-30T15:43:08.39Z</time></trkpt><trkpt lat="39.0598683" lon="-0.763975"><ele>448.0</ele><time>2026-04-30T15:43:09.39Z</time></trkpt><trkpt lat="39.0598783" lon="-0.7637933"><ele>447.5</ele><time>2026-04-30T15:43:10.387Z</time></trkpt><trkpt lat="39.0598933" lon="-0.7636183"><ele>447.0</ele><time>2026-04-30T15:43:11.388Z</time></trkpt><trkpt lat="39.0598917" lon="-0.763445"><ele>446.25</ele><time>2026-04-30T15:43:12.387Z</time></trkpt><trkpt lat="39.0598783" lon="-0.763265"><ele>445.5</ele><time>2026-04-30T15:43:13.388Z</time></trkpt><trkpt lat="39.059855" lon="-0.7630783"><ele>444.75</ele><time>2026-04-30T15:43:14.392Z</time></trkpt><trkpt lat="39.0598217" lon="-0.7628783"><ele>444.0</ele><time>2026-04-30T15:43:15.388Z</time></trkpt><trkpt lat="39.05979" lon="-0.76267"><ele>442.33333333333337</ele><time>2026-04-30T15:43:16.387Z</time></trkpt><trkpt lat="39.0597583" lon="-0.7624533"><ele>440.6666666666667</ele><time>2026-04-30T15:43:17.386Z</time></trkpt><trkpt lat="39.0597233" lon="-0.76223"><ele>439.0</ele><time>2026-04-30T15:43:18.39Z</time></trkpt><trkpt lat="39.0596867" lon="-0.7620083"><ele>438.33333333333337</ele><time>2026-04-30T15:43:19.386Z</time></trkpt><trkpt lat="39.0596467" lon="-0.76179"><ele>437.66666666666663</ele><time>2026-04-30T15:43:20.387Z</time></trkpt><trkpt lat="39.05961" lon="-0.7615817"><ele>437.0</ele><time>2026-04-30T15:43:21.39Z</time></trkpt><trkpt lat="39.0595717" lon="-0.7613817"><ele>437.0</ele><time>2026-04-30T15:43:22.385Z</time></trkpt><trkpt lat="39.0595367" lon="-0.7611783"><ele>437.0</ele><time>2026-04-30T15:43:23.392Z</time></trkpt><trkpt lat="39.0595033" lon="-0.7609783"><ele>437.0</ele><time>2026-04-30T15:43:24.391Z</time></trkpt><trkpt lat="39.0594717" lon="-0.7607767"><ele>437.0</ele><time>2026-04-30T15:43:25.388Z</time></trkpt><trkpt lat="39.05944" lon="-0.76057"><ele>437.0</ele><time>2026-04-30T15:43:26.392Z</time></trkpt><trkpt lat="39.0594117" lon="-0.7603617"><ele>437.0</ele><time>2026-04-30T15:43:27.389Z</time></trkpt><trkpt lat="39.0593833" lon="-0.760155"><ele>437.0</ele><time>2026-04-30T15:43:28.388Z</time></trkpt><trkpt lat="39.0593533" lon="-0.7599567"><ele>437.0</ele><time>2026-04-30T15:43:29.391Z</time></trkpt><trkpt lat="39.059325" lon="-0.759765"><ele>437.0</ele><time>2026-04-30T15:43:30.388Z</time></trkpt><trkpt lat="39.0592967" lon="-0.7595767"><ele>437.0</ele><time>2026-04-30T15:43:31.388Z</time></trkpt><trkpt lat="39.059265" lon="-0.75939"><ele>437.0</ele><time>2026-04-30T15:43:32.391Z</time></trkpt><trkpt lat="39.0592317" lon="-0.759205"><ele>437.0</ele><time>2026-04-30T15:43:33.383Z</time></trkpt><trkpt lat="39.0591933" lon="-0.7590167"><ele>437.0</ele><time>2026-04-30T15:43:34.391Z</time></trkpt><trkpt lat="39.0591583" lon="-0.7588267"><ele>436.25</ele><time>2026-04-30T15:43:35.386Z</time></trkpt><trkpt lat="39.059125" lon="-0.7586483"><ele>435.5</ele><time>2026-04-30T15:43:36.39Z</time></trkpt><trkpt lat="39.059085" lon="-0.75848"><ele>434.75</ele><time>2026-04-30T15:43:37.388Z</time></trkpt><trkpt lat="39.059045" lon="-0.7583133"><ele>434.0</ele><time>2026-04-30T15:43:38.389Z</time></trkpt><trkpt lat="39.0589933" lon="-0.7581583"><ele>432.0</ele><time>2026-04-30T15:43:39.384Z</time></trkpt><trkpt lat="39.058945" lon="-0.7580167"><ele>430.0</ele><time>2026-04-30T15:43:40.387Z</time></trkpt><trkpt lat="39.0588917" lon="-0.7578817"><ele>428.0</ele><time>2026-04-30T15:43:41.385Z</time></trkpt><trkpt lat="39.0588483" lon="-0.7577417"><ele>426.0</ele><time>2026-04-30T15:43:42.391Z</time></trkpt><trkpt lat="39.0588167" lon="-0.7575967"><ele>425.25</ele><time>2026-04-30T15:43:43.388Z</time></trkpt><trkpt lat="39.0588017" lon="-0.7574483"><ele>424.5</ele><time>2026-04-30T15:43:44.397Z</time></trkpt><trkpt lat="39.0587983" lon="-0.7572867"><ele>423.75</ele><time>2026-04-30T15:43:45.389Z</time></trkpt><trkpt lat="39.0588017" lon="-0.7571083"><ele>423.0</ele><time>2026-04-30T15:43:46.387Z</time></trkpt><trkpt lat="39.0588067" lon="-0.7569167"><ele>421.66666666666663</ele><time>2026-04-30T15:43:47.387Z</time></trkpt><trkpt lat="39.058815" lon="-0.7567183"><ele>420.3333333333333</ele><time>2026-04-30T15:43:48.388Z</time></trkpt><trkpt lat="39.0588233" lon="-0.75651"><ele>419.0</ele><time>2026-04-30T15:43:49.386Z</time></trkpt><trkpt lat="39.05883" lon="-0.7562883"><ele>419.0</ele><time>2026-04-30T15:43:50.39Z</time></trkpt><trkpt lat="39.0588367" lon="-0.7560683"><ele>419.0</ele><time>2026-04-30T15:43:51.389Z</time></trkpt><trkpt lat="39.0588417" lon="-0.755855"><ele>419.0</ele><time>2026-04-30T15:43:52.385Z</time></trkpt><trkpt lat="39.0588483" lon="-0.75565"><ele>418.0</ele><time>2026-04-30T15:43:53.386Z</time></trkpt><trkpt lat="39.0588517" lon="-0.755445"><ele>417.0</ele><time>2026-04-30T15:43:54.393Z</time></trkpt><trkpt lat="39.0588517" lon="-0.7552383"><ele>416.0</ele><time>2026-04-30T15:43:55.388Z</time></trkpt><trkpt lat="39.05885" lon="-0.75503"><ele>415.3333333333333</ele><time>2026-04-30T15:43:56.389Z</time></trkpt><trkpt lat="39.0588471" lon="-0.7548226"><ele>414.66666666666663</ele><time>2026-04-30T15:43:57.389Z</time></trkpt><trkpt lat="39.0588453" lon="-0.7546203"><ele>414.0</ele><time>2026-04-30T15:43:58.388Z</time></trkpt><trkpt lat="39.0588472" lon="-0.7544208"><ele>413.5</ele><time>2026-04-30T15:43:59.39Z</time></trkpt><trkpt lat="39.0588531" lon="-0.7542295"><ele>413.0</ele><time>2026-04-30T15:44:00.392Z</time></trkpt><trkpt lat="39.0588627" lon="-0.7540469"><ele>412.5</ele><time>2026-04-30T15:44:01.388Z</time></trkpt><trkpt lat="39.0588795" lon="-0.7538724"><ele>412.0</ele><time>2026-04-30T15:44:02.387Z</time></trkpt><trkpt lat="39.0589025" lon="-0.753711"><ele>412.0</ele><time>2026-04-30T15:44:03.383Z</time></trkpt><trkpt lat="39.0589372" lon="-0.7535555"><ele>412.0</ele><time>2026-04-30T15:44:04.386Z</time></trkpt><trkpt lat="39.0589829" lon="-0.753405"><ele>412.0</ele><time>2026-04-30T15:44:05.393Z</time></trkpt><trkpt lat="39.0590406" lon="-0.7532586"><ele>412.0</ele><time>2026-04-30T15:44:06.386Z</time></trkpt><trkpt lat="39.0591101" lon="-0.7531068"><ele>411.6666666666667</ele><time>2026-04-30T15:44:07.385Z</time></trkpt><trkpt lat="39.0591905" lon="-0.7529469"><ele>411.33333333333337</ele><time>2026-04-30T15:44:08.39Z</time></trkpt><trkpt lat="39.0592732" lon="-0.7527768"><ele>411.0</ele><time>2026-04-30T15:44:09.387Z</time></trkpt><trkpt lat="39.0593585" lon="-0.7526018"><ele>410.0</ele><time>2026-04-30T15:44:10.389Z</time></trkpt><trkpt lat="39.0594409" lon="-0.7524251"><ele>409.0</ele><time>2026-04-30T15:44:11.386Z</time></trkpt><trkpt lat="39.0595176" lon="-0.7522478"><ele>408.0</ele><time>2026-04-30T15:44:12.39Z</time></trkpt><trkpt lat="39.0595894" lon="-0.7520833"><ele>408.0</ele><time>2026-04-30T15:44:13.385Z</time></trkpt><trkpt lat="39.0596582" lon="-0.7519276"><ele>408.0</ele><time>2026-04-30T15:44:14.389Z</time></trkpt><trkpt lat="39.0597217" lon="-0.751784"><ele>408.0</ele><time>2026-04-30T15:44:15.383Z</time></trkpt><trkpt lat="39.0597847" lon="-0.7516472"><ele>408.0</ele><time>2026-04-30T15:44:16.387Z</time></trkpt><trkpt lat="39.0598457" lon="-0.7515151"><ele>407.75</ele><time>2026-04-30T15:44:17.383Z</time></trkpt><trkpt lat="39.0599004" lon="-0.751377"><ele>407.5</ele><time>2026-04-30T15:44:18.389Z</time></trkpt><trkpt lat="39.0599432" lon="-0.7512229"><ele>407.25</ele><time>2026-04-30T15:44:19.385Z</time></trkpt><trkpt lat="39.0599821" lon="-0.7510647"><ele>407.0</ele><time>2026-04-30T15:44:20.391Z</time></trkpt><trkpt lat="39.0600145" lon="-0.7509179"><ele>406.40000000000003</ele><time>2026-04-30T15:44:21.389Z</time></trkpt><trkpt lat="39.0600353" lon="-0.7507817"><ele>405.8</ele><time>2026-04-30T15:44:22.387Z</time></trkpt><trkpt lat="39.0600332" lon="-0.7506521"><ele>405.2</ele><time>2026-04-30T15:44:23.397Z</time></trkpt><trkpt lat="39.0600217" lon="-0.7505177"><ele>404.6</ele><time>2026-04-30T15:44:24.389Z</time></trkpt><trkpt lat="39.0600256" lon="-0.7503678"><ele>404.0</ele><time>2026-04-30T15:44:25.385Z</time></trkpt><trkpt lat="39.0600464" lon="-0.7502032"><ele>404.0</ele><time>2026-04-30T15:44:26.389Z</time></trkpt><trkpt lat="39.0600813" lon="-0.7500204"><ele>404.0</ele><time>2026-04-30T15:44:27.394Z</time></trkpt><trkpt lat="39.0601271" lon="-0.7498226"><ele>404.0</ele><time>2026-04-30T15:44:28.389Z</time></trkpt><trkpt lat="39.0601813" lon="-0.7496213"><ele>404.0</ele><time>2026-04-30T15:44:29.391Z</time></trkpt><trkpt lat="39.0602333" lon="-0.7494333"><ele>404.0</ele><time>2026-04-30T15:44:30.384Z</time></trkpt><trkpt lat="39.0602933" lon="-0.7492583"><ele>404.0</ele><time>2026-04-30T15:44:31.39Z</time></trkpt><trkpt lat="39.06036" lon="-0.74909"><ele>403.75</ele><time>2026-04-30T15:44:32.384Z</time></trkpt><trkpt lat="39.0604317" lon="-0.7489333"><ele>403.5</ele><time>2026-04-30T15:44:33.385Z</time></trkpt><trkpt lat="39.060505" lon="-0.74879"><ele>403.25</ele><time>2026-04-30T15:44:34.387Z</time></trkpt><trkpt lat="39.0605683" lon="-0.7486617"><ele>403.0</ele><time>2026-04-30T15:44:35.388Z</time></trkpt><trkpt lat="39.0606183" lon="-0.7485367"><ele>402.5</ele><time>2026-04-30T15:44:36.387Z</time></trkpt><trkpt lat="39.0606433" lon="-0.74841"><ele>402.0</ele><time>2026-04-30T15:44:37.396Z</time></trkpt><trkpt lat="39.0606483" lon="-0.7482683"><ele>401.5</ele><time>2026-04-30T15:44:38.388Z</time></trkpt><trkpt lat="39.0606283" lon="-0.748115"><ele>401.0</ele><time>2026-04-30T15:44:39.387Z</time></trkpt><trkpt lat="39.0605883" lon="-0.7479433"><ele>401.0</ele><time>2026-04-30T15:44:40.384Z</time></trkpt><trkpt lat="39.060535" lon="-0.74776"><ele>401.0</ele><time>2026-04-30T15:44:41.387Z</time></trkpt><trkpt lat="39.0604733" lon="-0.7475683"><ele>401.0</ele><time>2026-04-30T15:44:42.383Z</time></trkpt><trkpt lat="39.0604117" lon="-0.74737"><ele>400.5</ele><time>2026-04-30T15:44:43.385Z</time></trkpt><trkpt lat="39.060355" lon="-0.74718"><ele>400.0</ele><time>2026-04-30T15:44:44.387Z</time></trkpt><trkpt lat="39.0603017" lon="-0.7469967"><ele>399.5</ele><time>2026-04-30T15:44:45.384Z</time></trkpt><trkpt lat="39.0602533" lon="-0.7468283"><ele>399.0</ele><time>2026-04-30T15:44:46.391Z</time></trkpt><trkpt lat="39.06021" lon="-0.7466683"><ele>398.5</ele><time>2026-04-30T15:44:47.389Z</time></trkpt><trkpt lat="39.06018" lon="-0.746515"><ele>398.0</ele><time>2026-04-30T15:44:48.386Z</time></trkpt><trkpt lat="39.0601617" lon="-0.7463517"><ele>397.5</ele><time>2026-04-30T15:44:49.389Z</time></trkpt><trkpt lat="39.060155" lon="-0.7461883"><ele>397.0</ele><time>2026-04-30T15:44:50.387Z</time></trkpt><trkpt lat="39.0601617" lon="-0.746035"><ele>396.6</ele><time>2026-04-30T15:44:51.385Z</time></trkpt><trkpt lat="39.0601817" lon="-0.7458917"><ele>396.20000000000005</ele><time>2026-04-30T15:44:52.387Z</time></trkpt><trkpt lat="39.06021" lon="-0.74576"><ele>395.8</ele><time>2026-04-30T15:44:53.387Z</time></trkpt><trkpt lat="39.0602533" lon="-0.7456317"><ele>395.4</ele><time>2026-04-30T15:44:54.384Z</time></trkpt><trkpt lat="39.0602917" lon="-0.745505"><ele>395.0</ele><time>2026-04-30T15:44:55.384Z</time></trkpt><trkpt lat="39.0603133" lon="-0.7453717"><ele>395.0</ele><time>2026-04-30T15:44:56.386Z</time></trkpt><trkpt lat="39.0603283" lon="-0.7452217"><ele>395.0</ele><time>2026-04-30T15:44:57.384Z</time></trkpt><trkpt lat="39.0603383" lon="-0.74506"><ele>395.0</ele><time>2026-04-30T15:44:58.384Z</time></trkpt><trkpt lat="39.060345" lon="-0.74489"><ele>395.0</ele><time>2026-04-30T15:44:59.395Z</time></trkpt><trkpt lat="39.0603533" lon="-0.7447083"><ele>395.0</ele><time>2026-04-30T15:45:00.388Z</time></trkpt><trkpt lat="39.0603667" lon="-0.7445233"><ele>395.0</ele><time>2026-04-30T15:45:01.385Z</time></trkpt><trkpt lat="39.060385" lon="-0.7443417"><ele>395.0</ele><time>2026-04-30T15:45:02.385Z</time></trkpt><trkpt lat="39.060405" lon="-0.7441683"><ele>395.0</ele><time>2026-04-30T15:45:03.384Z</time></trkpt><trkpt lat="39.0604217" lon="-0.7440083"><ele>394.6</ele><time>2026-04-30T15:45:04.383Z</time></trkpt><trkpt lat="39.0604333" lon="-0.743865"><ele>394.2</ele><time>2026-04-30T15:45:05.39Z</time></trkpt><trkpt lat="39.0604317" lon="-0.7437267"><ele>393.79999999999995</ele><time>2026-04-30T15:45:06.385Z</time></trkpt><trkpt lat="39.060415" lon="-0.743595"><ele>393.4</ele><time>2026-04-30T15:45:07.386Z</time></trkpt><trkpt lat="39.060385" lon="-0.7434617"><ele>393.0</ele><time>2026-04-30T15:45:08.394Z</time></trkpt><trkpt lat="39.060345" lon="-0.7433317"><ele>392.5</ele><time>2026-04-30T15:45:09.388Z</time></trkpt><trkpt lat="39.0603" lon="-0.7432017"><ele>392.0</ele><time>2026-04-30T15:45:10.386Z</time></trkpt><trkpt lat="39.0602533" lon="-0.7430667"><ele>391.5</ele><time>2026-04-30T15:45:11.386Z</time></trkpt><trkpt lat="39.0602067" lon="-0.7429267"><ele>391.0</ele><time>2026-04-30T15:45:12.388Z</time></trkpt><trkpt lat="39.06016" lon="-0.742785"><ele>390.5</ele><time>2026-04-30T15:45:13.388Z</time></trkpt><trkpt lat="39.0601067" lon="-0.7426433"><ele>390.0</ele><time>2026-04-30T15:45:14.397Z</time></trkpt><trkpt lat="39.0600617" lon="-0.7424933"><ele>389.5</ele><time>2026-04-30T15:45:15.387Z</time></trkpt><trkpt lat="39.0600233" lon="-0.7423317"><ele>389.0</ele><time>2026-04-30T15:45:16.384Z</time></trkpt><trkpt lat="39.0600017" lon="-0.7421583"><ele>389.0</ele><time>2026-04-30T15:45:17.389Z</time></trkpt><trkpt lat="39.0599933" lon="-0.7419717"><ele>389.0</ele><time>2026-04-30T15:45:18.39Z</time></trkpt><trkpt lat="39.059995" lon="-0.7417867"><ele>389.0</ele><time>2026-04-30T15:45:19.387Z</time></trkpt><trkpt lat="39.0600083" lon="-0.741595"><ele>389.0</ele><time>2026-04-30T15:45:20.385Z</time></trkpt><trkpt lat="39.0600217" lon="-0.7413967"><ele>388.5</ele><time>2026-04-30T15:45:21.387Z</time></trkpt><trkpt lat="39.06003" lon="-0.7411983"><ele>388.0</ele><time>2026-04-30T15:45:22.389Z</time></trkpt><trkpt lat="39.06004" lon="-0.7410117"><ele>387.5</ele><time>2026-04-30T15:45:23.388Z</time></trkpt><trkpt lat="39.060055" lon="-0.7408317"><ele>387.0</ele><time>2026-04-30T15:45:24.386Z</time></trkpt><trkpt lat="39.06008" lon="-0.7406567"><ele>385.75</ele><time>2026-04-30T15:45:25.396Z</time></trkpt><trkpt lat="39.0601167" lon="-0.740485"><ele>384.5</ele><time>2026-04-30T15:45:26.384Z</time></trkpt><trkpt lat="39.060165" lon="-0.7403167"><ele>383.25</ele><time>2026-04-30T15:45:27.387Z</time></trkpt><trkpt lat="39.0602233" lon="-0.7401517"><ele>382.0</ele><time>2026-04-30T15:45:28.392Z</time></trkpt><trkpt lat="39.0602833" lon="-0.7399917"><ele>381.5</ele><time>2026-04-30T15:45:29.386Z</time></trkpt><trkpt lat="39.0603283" lon="-0.7398383"><ele>381.0</ele><time>2026-04-30T15:45:30.384Z</time></trkpt><trkpt lat="39.060355" lon="-0.7396933"><ele>380.5</ele><time>2026-04-30T15:45:31.39Z</time></trkpt><trkpt lat="39.0603717" lon="-0.739545"><ele>380.0</ele><time>2026-04-30T15:45:32.389Z</time></trkpt><trkpt lat="39.0603767" lon="-0.7393883"><ele>379.75</ele><time>2026-04-30T15:45:33.389Z</time></trkpt><trkpt lat="39.0603717" lon="-0.7392217"><ele>379.5</ele><time>2026-04-30T15:45:34.385Z</time></trkpt><trkpt lat="39.06036" lon="-0.73904"><ele>379.25</ele><time>2026-04-30T15:45:35.386Z</time></trkpt><trkpt lat="39.0603383" lon="-0.73885"><ele>379.0</ele><time>2026-04-30T15:45:36.396Z</time></trkpt><trkpt lat="39.06031" lon="-0.73865"><ele>378.3333333333333</ele><time>2026-04-30T15:45:37.384Z</time></trkpt><trkpt lat="39.060275" lon="-0.7384417"><ele>377.6666666666667</ele><time>2026-04-30T15:45:38.385Z</time></trkpt><trkpt lat="39.0602356" lon="-0.7382213"><ele>377.0</ele><time>2026-04-30T15:45:39.385Z</time></trkpt><trkpt lat="39.060196" lon="-0.738004"><ele>377.0</ele><time>2026-04-30T15:45:40.386Z</time></trkpt><trkpt lat="39.0601561" lon="-0.737802"><ele>377.0</ele><time>2026-04-30T15:45:41.386Z</time></trkpt><trkpt lat="39.0601148" lon="-0.7376148"><ele>377.0</ele><time>2026-04-30T15:45:42.385Z</time></trkpt><trkpt lat="39.0600738" lon="-0.7374437"><ele>376.75</ele><time>2026-04-30T15:45:43.395Z</time></trkpt><trkpt lat="39.0600393" lon="-0.7372825"><ele>376.5</ele><time>2026-04-30T15:45:44.39Z</time></trkpt><trkpt lat="39.0600162" lon="-0.7371107"><ele>376.25</ele><time>2026-04-30T15:45:45.387Z</time></trkpt><trkpt lat="39.0600052" lon="-0.7369218"><ele>376.0</ele><time>2026-04-30T15:45:46.385Z</time></trkpt><trkpt lat="39.0600037" lon="-0.73672"><ele>375.66666666666663</ele><time>2026-04-30T15:45:47.389Z</time></trkpt><trkpt lat="39.0600123" lon="-0.7365102"><ele>375.3333333333333</ele><time>2026-04-30T15:45:48.386Z</time></trkpt><trkpt lat="39.0600336" lon="-0.7362903"><ele>375.0</ele><time>2026-04-30T15:45:49.387Z</time></trkpt><trkpt lat="39.0600644" lon="-0.7360686"><ele>374.3333333333333</ele><time>2026-04-30T15:45:50.389Z</time></trkpt><trkpt lat="39.0600989" lon="-0.7358519"><ele>373.66666666666663</ele><time>2026-04-30T15:45:51.388Z</time></trkpt><trkpt lat="39.0601359" lon="-0.7356433"><ele>373.0</ele><time>2026-04-30T15:45:52.389Z</time></trkpt><trkpt lat="39.0601709" lon="-0.735446"><ele>373.0</ele><time>2026-04-30T15:45:53.388Z</time></trkpt><trkpt lat="39.0602055" lon="-0.7352569"><ele>373.0</ele><time>2026-04-30T15:45:54.384Z</time></trkpt><trkpt lat="39.0602408" lon="-0.7350792"><ele>373.0</ele><time>2026-04-30T15:45:55.388Z</time></trkpt><trkpt lat="39.0602674" lon="-0.73491"><ele>373.0</ele><time>2026-04-30T15:45:56.388Z</time></trkpt><trkpt lat="39.0602802" lon="-0.7347385"><ele>372.75</ele><time>2026-04-30T15:45:57.385Z</time></trkpt><trkpt lat="39.0602812" lon="-0.7345641"><ele>372.5</ele><time>2026-04-30T15:45:58.386Z</time></trkpt><trkpt lat="39.0602686" lon="-0.7343935"><ele>372.25</ele><time>2026-04-30T15:45:59.385Z</time></trkpt><trkpt lat="39.0602391" lon="-0.734224"><ele>372.0</ele><time>2026-04-30T15:46:00.385Z</time></trkpt><trkpt lat="39.0601932" lon="-0.7340509"><ele>371.0</ele><time>2026-04-30T15:46:01.385Z</time></trkpt><trkpt lat="39.0601389" lon="-0.7338805"><ele>370.0</ele><time>2026-04-30T15:46:02.388Z</time></trkpt><trkpt lat="39.0600944" lon="-0.733712"><ele>369.0</ele><time>2026-04-30T15:46:03.385Z</time></trkpt><trkpt lat="39.0600642" lon="-0.7335338"><ele>368.0</ele><time>2026-04-30T15:46:04.39Z</time></trkpt><trkpt lat="39.060045" lon="-0.733348"><ele>367.33333333333337</ele><time>2026-04-30T15:46:05.384Z</time></trkpt><trkpt lat="39.0600422" lon="-0.7331554"><ele>366.6666666666667</ele><time>2026-04-30T15:46:06.386Z</time></trkpt><trkpt lat="39.0600623" lon="-0.7329531"><ele>366.0</ele><time>2026-04-30T15:46:07.387Z</time></trkpt><trkpt lat="39.0601062" lon="-0.7327549"><ele>365.5</ele><time>2026-04-30T15:46:08.387Z</time></trkpt><trkpt lat="39.0601603" lon="-0.7325714"><ele>365.0</ele><time>2026-04-30T15:46:09.387Z</time></trkpt><trkpt lat="39.0602154" lon="-0.7323974"><ele>364.5</ele><time>2026-04-30T15:46:10.393Z</time></trkpt><trkpt lat="39.0602733" lon="-0.7322267"><ele>364.0</ele><time>2026-04-30T15:46:11.384Z</time></trkpt><trkpt lat="39.060335" lon="-0.7320483"><ele>363.3333333333333</ele><time>2026-04-30T15:46:12.392Z</time></trkpt><trkpt lat="39.0604067" lon="-0.73187"><ele>362.6666666666667</ele><time>2026-04-30T15:46:13.39Z</time></trkpt><trkpt lat="39.0604883" lon="-0.7317"><ele>362.0</ele><time>2026-04-30T15:46:14.39Z</time></trkpt><trkpt lat="39.060575" lon="-0.7315333"><ele>362.0</ele><time>2026-04-30T15:46:15.388Z</time></trkpt><trkpt lat="39.06066" lon="-0.731375"><ele>362.0</ele><time>2026-04-30T15:46:16.386Z</time></trkpt><trkpt lat="39.0607333" lon="-0.7312117"><ele>362.0</ele><time>2026-04-30T15:46:17.396Z</time></trkpt><trkpt lat="39.0607867" lon="-0.7310383"><ele>362.0</ele><time>2026-04-30T15:46:18.387Z</time></trkpt><trkpt lat="39.0608233" lon="-0.7308483"><ele>362.0</ele><time>2026-04-30T15:46:19.386Z</time></trkpt><trkpt lat="39.06085" lon="-0.7306417"><ele>362.0</ele><time>2026-04-30T15:46:20.388Z</time></trkpt><trkpt lat="39.06088" lon="-0.7304217"><ele>362.0</ele><time>2026-04-30T15:46:21.39Z</time></trkpt><trkpt lat="39.0609083" lon="-0.7302017"><ele>361.6666666666667</ele><time>2026-04-30T15:46:22.387Z</time></trkpt><trkpt lat="39.0609333" lon="-0.7299917"><ele>361.3333333333333</ele><time>2026-04-30T15:46:23.397Z</time></trkpt><trkpt lat="39.0609617" lon="-0.729795"><ele>361.0</ele><time>2026-04-30T15:46:24.388Z</time></trkpt><trkpt lat="39.0609933" lon="-0.7296117"><ele>361.0</ele><time>2026-04-30T15:46:25.386Z</time></trkpt><trkpt lat="39.06104" lon="-0.72944"><ele>361.0</ele><time>2026-04-30T15:46:26.383Z</time></trkpt><trkpt lat="39.0611067" lon="-0.72928"><ele>361.0</ele><time>2026-04-30T15:46:27.387Z</time></trkpt><trkpt lat="39.0611783" lon="-0.7291233"><ele>361.0</ele><time>2026-04-30T15:46:28.387Z</time></trkpt><trkpt lat="39.0612317" lon="-0.7289517"><ele>360.3333333333333</ele><time>2026-04-30T15:46:29.386Z</time></trkpt><trkpt lat="39.061265" lon="-0.7287617"><ele>359.6666666666667</ele><time>2026-04-30T15:46:30.392Z</time></trkpt><trkpt lat="39.0612833" lon="-0.728555"><ele>359.0</ele><time>2026-04-30T15:46:31.388Z</time></trkpt><trkpt lat="39.0612867" lon="-0.7283467"><ele>358.5</ele><time>2026-04-30T15:46:32.386Z</time></trkpt><trkpt lat="39.0612783" lon="-0.7281483"><ele>358.0</ele><time>2026-04-30T15:46:33.389Z</time></trkpt><trkpt lat="39.061265" lon="-0.7279617"><ele>357.5</ele><time>2026-04-30T15:46:34.385Z</time></trkpt><trkpt lat="39.061245" lon="-0.7277767"><ele>357.0</ele><time>2026-04-30T15:46:35.397Z</time></trkpt><trkpt lat="39.0612283" lon="-0.7275917"><ele>356.6666666666667</ele><time>2026-04-30T15:46:36.385Z</time></trkpt><trkpt lat="39.06123" lon="-0.727395"><ele>356.33333333333337</ele><time>2026-04-30T15:46:37.388Z</time></trkpt><trkpt lat="39.061255" lon="-0.7271833"><ele>356.0</ele><time>2026-04-30T15:46:38.388Z</time></trkpt><trkpt lat="39.0612933" lon="-0.7269617"><ele>355.33333333333337</ele><time>2026-04-30T15:46:39.384Z</time></trkpt><trkpt lat="39.061345" lon="-0.7267283"><ele>354.6666666666667</ele><time>2026-04-30T15:46:40.393Z</time></trkpt><trkpt lat="39.0614033" lon="-0.7264967"><ele>354.0</ele><time>2026-04-30T15:46:41.39Z</time></trkpt><trkpt lat="39.0614617" lon="-0.7262717"><ele>354.0</ele><time>2026-04-30T15:46:42.385Z</time></trkpt><trkpt lat="39.0615217" lon="-0.7260617"><ele>354.0</ele><time>2026-04-30T15:46:43.39Z</time></trkpt><trkpt lat="39.0615867" lon="-0.7258617"><ele>354.0</ele><time>2026-04-30T15:46:44.391Z</time></trkpt><trkpt lat="39.0616533" lon="-0.7256633"><ele>352.6666666666667</ele><time>2026-04-30T15:46:45.397Z</time></trkpt><trkpt lat="39.061725" lon="-0.7254617"><ele>351.33333333333337</ele><time>2026-04-30T15:46:46.388Z</time></trkpt><trkpt lat="39.0617933" lon="-0.7252633"><ele>350.0</ele><time>2026-04-30T15:46:47.388Z</time></trkpt><trkpt lat="39.0618517" lon="-0.7250683"><ele>350.0</ele><time>2026-04-30T15:46:48.387Z</time></trkpt><trkpt lat="39.0619017" lon="-0.7248733"><ele>350.0</ele><time>2026-04-30T15:46:49.387Z</time></trkpt><trkpt lat="39.0619483" lon="-0.72467"><ele>350.0</ele><time>2026-04-30T15:46:50.39Z</time></trkpt><trkpt lat="39.0619917" lon="-0.7244617"><ele>349.33333333333337</ele><time>2026-04-30T15:46:51.39Z</time></trkpt><trkpt lat="39.062035" lon="-0.7242483"><ele>348.6666666666667</ele><time>2026-04-30T15:46:52.392Z</time></trkpt><trkpt lat="39.0620667" lon="-0.7240283"><ele>348.0</ele><time>2026-04-30T15:46:53.387Z</time></trkpt><trkpt lat="39.06208" lon="-0.7238033"><ele>348.0</ele><time>2026-04-30T15:46:54.388Z</time></trkpt><trkpt lat="39.0620833" lon="-0.7235733"><ele>348.0</ele><time>2026-04-30T15:46:55.389Z</time></trkpt><trkpt lat="39.06209" lon="-0.72334"><ele>348.0</ele><time>2026-04-30T15:46:56.388Z</time></trkpt><trkpt lat="39.0621067" lon="-0.7231033"><ele>347.0</ele><time>2026-04-30T15:46:57.387Z</time></trkpt><trkpt lat="39.062135" lon="-0.72287"><ele>346.0</ele><time>2026-04-30T15:46:58.391Z</time></trkpt><trkpt lat="39.0621783" lon="-0.7226333"><ele>345.0</ele><time>2026-04-30T15:46:59.388Z</time></trkpt><trkpt lat="39.0622317" lon="-0.7224017"><ele>344.3333333333333</ele><time>2026-04-30T15:47:00.39Z</time></trkpt><trkpt lat="39.0622883" lon="-0.7221667"><ele>343.66666666666663</ele><time>2026-04-30T15:47:01.385Z</time></trkpt><trkpt lat="39.0623433" lon="-0.72193"><ele>343.0</ele><time>2026-04-30T15:47:02.391Z</time></trkpt><trkpt lat="39.062395" lon="-0.7216967"><ele>342.3333333333333</ele><time>2026-04-30T15:47:03.385Z</time></trkpt><trkpt lat="39.0624383" lon="-0.7214717"><ele>341.6666666666667</ele><time>2026-04-30T15:47:04.39Z</time></trkpt><trkpt lat="39.0624783" lon="-0.7212567"><ele>341.0</ele><time>2026-04-30T15:47:05.388Z</time></trkpt><trkpt lat="39.06252" lon="-0.721045"><ele>340.6666666666667</ele><time>2026-04-30T15:47:06.387Z</time></trkpt><trkpt lat="39.0625683" lon="-0.72084"><ele>340.3333333333333</ele><time>2026-04-30T15:47:07.395Z</time></trkpt><trkpt lat="39.0626283" lon="-0.720635"><ele>340.0</ele><time>2026-04-30T15:47:08.388Z</time></trkpt><trkpt lat="39.0626967" lon="-0.72043"><ele>339.0</ele><time>2026-04-30T15:47:09.386Z</time></trkpt><trkpt lat="39.0627683" lon="-0.7202167"><ele>338.0</ele><time>2026-04-30T15:47:10.387Z</time></trkpt><trkpt lat="39.0628233" lon="-0.72"><ele>337.0</ele><time>2026-04-30T15:47:11.384Z</time></trkpt><trkpt lat="39.06287" lon="-0.7197767"><ele>337.0</ele><time>2026-04-30T15:47:12.395Z</time></trkpt><trkpt lat="39.062905" lon="-0.71955"><ele>337.0</ele><time>2026-04-30T15:47:13.387Z</time></trkpt><trkpt lat="39.0629283" lon="-0.7193167"><ele>337.0</ele><time>2026-04-30T15:47:14.386Z</time></trkpt><trkpt lat="39.062945" lon="-0.71908"><ele>336.66666666666663</ele><time>2026-04-30T15:47:15.385Z</time></trkpt><trkpt lat="39.062965" lon="-0.7188417"><ele>336.3333333333333</ele><time>2026-04-30T15:47:16.389Z</time></trkpt><trkpt lat="39.06299" lon="-0.7186017"><ele>336.0</ele><time>2026-04-30T15:47:17.386Z</time></trkpt><trkpt lat="39.0630217" lon="-0.7183583"><ele>335.0</ele><time>2026-04-30T15:47:18.397Z</time></trkpt><trkpt lat="39.06306" lon="-0.7181167"><ele>334.0</ele><time>2026-04-30T15:47:19.391Z</time></trkpt><trkpt lat="39.0631017" lon="-0.717875"><ele>333.0</ele><time>2026-04-30T15:47:20.388Z</time></trkpt><trkpt lat="39.0631383" lon="-0.7176433"><ele>332.6666666666667</ele><time>2026-04-30T15:47:21.388Z</time></trkpt><trkpt lat="39.0631683" lon="-0.7174133"><ele>332.33333333333337</ele><time>2026-04-30T15:47:22.385Z</time></trkpt><trkpt lat="39.0631867" lon="-0.7171817"><ele>332.0</ele><time>2026-04-30T15:47:23.389Z</time></trkpt><trkpt lat="39.0631917" lon="-0.716945"><ele>332.0</ele><time>2026-04-30T15:47:24.39Z</time></trkpt><trkpt lat="39.0631967" lon="-0.7167083"><ele>332.0</ele><time>2026-04-30T15:47:25.387Z</time></trkpt><trkpt lat="39.0632033" lon="-0.7164667"><ele>332.0</ele><time>2026-04-30T15:47:26.387Z</time></trkpt><trkpt lat="39.0632133" lon="-0.71622"><ele>331.0</ele><time>2026-04-30T15:47:27.386Z</time></trkpt><trkpt lat="39.06322" lon="-0.7159733"><ele>330.0</ele><time>2026-04-30T15:47:28.385Z</time></trkpt><trkpt lat="39.0632217" lon="-0.7157267"><ele>329.0</ele><time>2026-04-30T15:47:29.391Z</time></trkpt><trkpt lat="39.0632217" lon="-0.715475"><ele>328.0</ele><time>2026-04-30T15:47:30.387Z</time></trkpt><trkpt lat="39.063225" lon="-0.715225"><ele>327.0</ele><time>2026-04-30T15:47:31.386Z</time></trkpt><trkpt lat="39.0632333" lon="-0.7149717"><ele>326.0</ele><time>2026-04-30T15:47:32.388Z</time></trkpt><trkpt lat="39.0632483" lon="-0.71472"><ele>326.0</ele><time>2026-04-30T15:47:33.387Z</time></trkpt><trkpt lat="39.0632733" lon="-0.7144683"><ele>326.0</ele><time>2026-04-30T15:47:34.395Z</time></trkpt><trkpt lat="39.0633067" lon="-0.71421"><ele>326.0</ele><time>2026-04-30T15:47:35.389Z</time></trkpt><trkpt lat="39.0633467" lon="-0.7139583"><ele>325.6666666666667</ele><time>2026-04-30T15:47:36.386Z</time></trkpt><trkpt lat="39.0633867" lon="-0.7137167"><ele>325.3333333333333</ele><time>2026-04-30T15:47:37.386Z</time></trkpt><trkpt lat="39.0634267" lon="-0.7134817"><ele>325.0</ele><time>2026-04-30T15:47:38.387Z</time></trkpt><trkpt lat="39.0634733" lon="-0.7132483"><ele>325.0</ele><time>2026-04-30T15:47:39.393Z</time></trkpt><trkpt lat="39.0635233" lon="-0.7130183"><ele>325.0</ele><time>2026-04-30T15:47:40.385Z</time></trkpt><trkpt lat="39.0635833" lon="-0.712785"><ele>325.0</ele><time>2026-04-30T15:47:41.385Z</time></trkpt><trkpt lat="39.0636567" lon="-0.71255"><ele>324.3333333333333</ele><time>2026-04-30T15:47:42.39Z</time></trkpt><trkpt lat="39.0637367" lon="-0.7123183"><ele>323.6666666666667</ele><time>2026-04-30T15:47:43.389Z</time></trkpt><trkpt lat="39.063815" lon="-0.7120833"><ele>323.0</ele><time>2026-04-30T15:47:44.396Z</time></trkpt><trkpt lat="39.0638867" lon="-0.7118517"><ele>321.33333333333337</ele><time>2026-04-30T15:47:45.386Z</time></trkpt><trkpt lat="39.0639483" lon="-0.7116317"><ele>319.6666666666667</ele><time>2026-04-30T15:47:46.387Z</time></trkpt><trkpt lat="39.0640067" lon="-0.7114217"><ele>318.0</ele><time>2026-04-30T15:47:47.389Z</time></trkpt><trkpt lat="39.0640617" lon="-0.7112183"><ele>318.0</ele><time>2026-04-30T15:47:48.389Z</time></trkpt><trkpt lat="39.0641167" lon="-0.7110233"><ele>318.0</ele><time>2026-04-30T15:47:49.388Z</time></trkpt><trkpt lat="39.0641667" lon="-0.7108367"><ele>318.0</ele><time>2026-04-30T15:47:50.389Z</time></trkpt><trkpt lat="39.0642" lon="-0.710655"><ele>318.0</ele><time>2026-04-30T15:47:51.393Z</time></trkpt><trkpt lat="39.0642067" lon="-0.7104667"><ele>318.0</ele><time>2026-04-30T15:47:52.388Z</time></trkpt><trkpt lat="39.0641883" lon="-0.7102733"><ele>318.0</ele><time>2026-04-30T15:47:53.391Z</time></trkpt><trkpt lat="39.0641617" lon="-0.7100783"><ele>316.0</ele><time>2026-04-30T15:47:54.388Z</time></trkpt><trkpt lat="39.0641233" lon="-0.70987"><ele>314.0</ele><time>2026-04-30T15:47:55.384Z</time></trkpt><trkpt lat="39.0640683" lon="-0.7096567"><ele>312.0</ele><time>2026-04-30T15:47:56.389Z</time></trkpt><trkpt lat="39.0639983" lon="-0.7094383"><ele>309.3333333333333</ele><time>2026-04-30T15:47:57.386Z</time></trkpt><trkpt lat="39.0639317" lon="-0.70921"><ele>306.66666666666663</ele><time>2026-04-30T15:47:58.39Z</time></trkpt><trkpt lat="39.063895" lon="-0.70898"><ele>304.0</ele><time>2026-04-30T15:47:59.388Z</time></trkpt><trkpt lat="39.0638783" lon="-0.7087583"><ele>302.3333333333333</ele><time>2026-04-30T15:48:00.386Z</time></trkpt><trkpt lat="39.06387" lon="-0.7085383"><ele>300.6666666666667</ele><time>2026-04-30T15:48:01.39Z</time></trkpt><trkpt lat="39.0638567" lon="-0.7083167"><ele>299.0</ele><time>2026-04-30T15:48:02.389Z</time></trkpt><trkpt lat="39.0638417" lon="-0.7080917"><ele>299.0</ele><time>2026-04-30T15:48:03.389Z</time></trkpt><trkpt lat="39.0638233" lon="-0.7078683"><ele>299.0</ele><time>2026-04-30T15:48:04.388Z</time></trkpt><trkpt lat="39.063805" lon="-0.707655"><ele>299.0</ele><time>2026-04-30T15:48:05.385Z</time></trkpt><trkpt lat="39.063785" lon="-0.7074483"><ele>298.6666666666667</ele><time>2026-04-30T15:48:06.393Z</time></trkpt><trkpt lat="39.0637517" lon="-0.7072467"><ele>298.3333333333333</ele><time>2026-04-30T15:48:07.389Z</time></trkpt><trkpt lat="39.0637017" lon="-0.7070517"><ele>298.0</ele><time>2026-04-30T15:48:08.389Z</time></trkpt><trkpt lat="39.0636383" lon="-0.7068633"><ele>296.3333333333333</ele><time>2026-04-30T15:48:09.387Z</time></trkpt><trkpt lat="39.0635683" lon="-0.7066783"><ele>294.6666666666667</ele><time>2026-04-30T15:48:10.388Z</time></trkpt><trkpt lat="39.063505" lon="-0.7065"><ele>293.0</ele><time>2026-04-30T15:48:11.387Z</time></trkpt><trkpt lat="39.0634533" lon="-0.7063217"><ele>293.0</ele><time>2026-04-30T15:48:12.389Z</time></trkpt><trkpt lat="39.06343" lon="-0.7061333"><ele>293.0</ele><time>2026-04-30T15:48:13.388Z</time></trkpt><trkpt lat="39.0634433" lon="-0.7059217"><ele>293.0</ele><time>2026-04-30T15:48:14.389Z</time></trkpt><trkpt lat="39.0634883" lon="-0.705695"><ele>292.0</ele><time>2026-04-30T15:48:15.385Z</time></trkpt><trkpt lat="39.06354" lon="-0.7054583"><ele>291.0</ele><time>2026-04-30T15:48:16.396Z</time></trkpt><trkpt lat="39.06358" lon="-0.7052183"><ele>290.0</ele><time>2026-04-30T15:48:17.391Z</time></trkpt><trkpt lat="39.06361" lon="-0.7049867"><ele>289.6666666666667</ele><time>2026-04-30T15:48:18.388Z</time></trkpt><trkpt lat="39.06363" lon="-0.7047633"><ele>289.3333333333333</ele><time>2026-04-30T15:48:19.387Z</time></trkpt><trkpt lat="39.0636483" lon="-0.70455"><ele>289.0</ele><time>2026-04-30T15:48:20.388Z</time></trkpt><trkpt lat="39.06367" lon="-0.7043483"><ele>288.25</ele><time>2026-04-30T15:48:21.388Z</time></trkpt><trkpt lat="39.0637" lon="-0.7041617"><ele>287.5</ele><time>2026-04-30T15:48:22.388Z</time></trkpt><trkpt lat="39.063745" lon="-0.7039917"><ele>286.75</ele><time>2026-04-30T15:48:23.391Z</time></trkpt><trkpt lat="39.0638117" lon="-0.7038317"><ele>286.0</ele><time>2026-04-30T15:48:24.385Z</time></trkpt><trkpt lat="39.06391" lon="-0.703675"><ele>285.66666666666663</ele><time>2026-04-30T15:48:25.388Z</time></trkpt><trkpt lat="39.0640333" lon="-0.7035117"><ele>285.3333333333333</ele><time>2026-04-30T15:48:26.388Z</time></trkpt><trkpt lat="39.0641583" lon="-0.7033433"><ele>285.0</ele><time>2026-04-30T15:48:27.394Z</time></trkpt><trkpt lat="39.064275" lon="-0.7031867"><ele>285.0</ele><time>2026-04-30T15:48:28.385Z</time></trkpt><trkpt lat="39.0643783" lon="-0.70305"><ele>285.0</ele><time>2026-04-30T15:48:29.39Z</time></trkpt><trkpt lat="39.0644883" lon="-0.7029583"><ele>285.0</ele><time>2026-04-30T15:48:30.389Z</time></trkpt><trkpt lat="39.0646117" lon="-0.7028833"><ele>285.0</ele><time>2026-04-30T15:48:31.383Z</time></trkpt><trkpt lat="39.0647233" lon="-0.7027933"><ele>286.25</ele><time>2026-04-30T15:48:32.39Z</time></trkpt><trkpt lat="39.0648033" lon="-0.70267"><ele>287.5</ele><time>2026-04-30T15:48:33.394Z</time></trkpt><trkpt lat="39.064845" lon="-0.7025183"><ele>288.75</ele><time>2026-04-30T15:48:34.389Z</time></trkpt><trkpt lat="39.06486" lon="-0.7023417"><ele>290.0</ele><time>2026-04-30T15:48:35.387Z</time></trkpt><trkpt lat="39.0648667" lon="-0.7021533"><ele>290.0</ele><time>2026-04-30T15:48:36.387Z</time></trkpt><trkpt lat="39.0648717" lon="-0.7019533"><ele>290.0</ele><time>2026-04-30T15:48:37.386Z</time></trkpt><trkpt lat="39.06489" lon="-0.7017483"><ele>290.0</ele><time>2026-04-30T15:48:38.393Z</time></trkpt><trkpt lat="39.064925" lon="-0.701545"><ele>289.6666666666667</ele><time>2026-04-30T15:48:39.388Z</time></trkpt><trkpt lat="39.0649733" lon="-0.70135"><ele>289.3333333333333</ele><time>2026-04-30T15:48:40.387Z</time></trkpt><trkpt lat="39.06503" lon="-0.7011617"><ele>289.0</ele><time>2026-04-30T15:48:41.386Z</time></trkpt><trkpt lat="39.0651033" lon="-0.70098"><ele>290.66666666666663</ele><time>2026-04-30T15:48:42.391Z</time></trkpt><trkpt lat="39.0651917" lon="-0.700795"><ele>292.3333333333333</ele><time>2026-04-30T15:48:43.389Z</time></trkpt><trkpt lat="39.06529" lon="-0.70061"><ele>294.0</ele><time>2026-04-30T15:48:44.391Z</time></trkpt><trkpt lat="39.0653867" lon="-0.7004233"><ele>295.0</ele><time>2026-04-30T15:48:45.387Z</time></trkpt><trkpt lat="39.0654783" lon="-0.70024"><ele>296.0</ele><time>2026-04-30T15:48:46.386Z</time></trkpt><trkpt lat="39.06557" lon="-0.7000533"><ele>297.0</ele><time>2026-04-30T15:48:47.387Z</time></trkpt><trkpt lat="39.0656583" lon="-0.6998633"><ele>297.0</ele><time>2026-04-30T15:48:48.392Z</time></trkpt><trkpt lat="39.0657417" lon="-0.6996733"><ele>297.0</ele><time>2026-04-30T15:48:49.389Z</time></trkpt><trkpt lat="39.0658217" lon="-0.6994833"><ele>297.0</ele><time>2026-04-30T15:48:50.388Z</time></trkpt><trkpt lat="39.06589" lon="-0.6992967"><ele>295.75</ele><time>2026-04-30T15:48:51.388Z</time></trkpt><trkpt lat="39.06595" lon="-0.699115"><ele>294.5</ele><time>2026-04-30T15:48:52.39Z</time></trkpt><trkpt lat="39.0660083" lon="-0.6989433"><ele>293.25</ele><time>2026-04-30T15:48:53.387Z</time></trkpt><trkpt lat="39.0660667" lon="-0.6987867"><ele>292.0</ele><time>2026-04-30T15:48:54.387Z</time></trkpt><trkpt lat="39.066145" lon="-0.698645"><ele>291.75</ele><time>2026-04-30T15:48:55.39Z</time></trkpt><trkpt lat="39.06625" lon="-0.698525"><ele>291.5</ele><time>2026-04-30T15:48:56.389Z</time></trkpt><trkpt lat="39.0663783" lon="-0.69843"><ele>291.25</ele><time>2026-04-30T15:48:57.39Z</time></trkpt><trkpt lat="39.066515" lon="-0.6983567"><ele>291.0</ele><time>2026-04-30T15:48:58.385Z</time></trkpt><trkpt lat="39.0666467" lon="-0.6982817"><ele>291.0</ele><time>2026-04-30T15:48:59.385Z</time></trkpt><trkpt lat="39.0667583" lon="-0.6981833"><ele>291.0</ele><time>2026-04-30T15:49:00.392Z</time></trkpt><trkpt lat="39.066855" lon="-0.6980483"><ele>291.0</ele><time>2026-04-30T15:49:01.388Z</time></trkpt><trkpt lat="39.066935" lon="-0.69788"><ele>291.0</ele><time>2026-04-30T15:49:02.391Z</time></trkpt><trkpt lat="39.067015" lon="-0.6976917"><ele>289.6666666666667</ele><time>2026-04-30T15:49:03.387Z</time></trkpt><trkpt lat="39.0670983" lon="-0.6975"><ele>288.33333333333337</ele><time>2026-04-30T15:49:04.385Z</time></trkpt><trkpt lat="39.0671817" lon="-0.69732"><ele>287.0</ele><time>2026-04-30T15:49:05.391Z</time></trkpt><trkpt lat="39.0672583" lon="-0.6971483"><ele>287.0</ele><time>2026-04-30T15:49:06.385Z</time></trkpt><trkpt lat="39.0673233" lon="-0.6969817"><ele>287.0</ele><time>2026-04-30T15:49:07.388Z</time></trkpt><trkpt lat="39.0673783" lon="-0.696815"><ele>287.0</ele><time>2026-04-30T15:49:08.389Z</time></trkpt><trkpt lat="39.06742" lon="-0.6966483"><ele>287.0</ele><time>2026-04-30T15:49:09.39Z</time></trkpt><trkpt lat="39.067455" lon="-0.6964833"><ele>286.2</ele><time>2026-04-30T15:49:10.386Z</time></trkpt><trkpt lat="39.06749" lon="-0.6963267"><ele>285.4</ele><time>2026-04-30T15:49:11.387Z</time></trkpt><trkpt lat="39.067515" lon="-0.6961867"><ele>284.6</ele><time>2026-04-30T15:49:12.391Z</time></trkpt><trkpt lat="39.0675383" lon="-0.6960583"><ele>283.8</ele><time>2026-04-30T15:49:13.389Z</time></trkpt><trkpt lat="39.0675717" lon="-0.6959467"><ele>283.0</ele><time>2026-04-30T15:49:14.388Z</time></trkpt><trkpt lat="39.0676283" lon="-0.695865"><ele>282.2</ele><time>2026-04-30T15:49:15.386Z</time></trkpt><trkpt lat="39.0677" lon="-0.6958117"><ele>281.4</ele><time>2026-04-30T15:49:16.392Z</time></trkpt><trkpt lat="39.06779" lon="-0.69579"><ele>280.59999999999997</ele><time>2026-04-30T15:49:17.389Z</time></trkpt><trkpt lat="39.0679033" lon="-0.6958017"><ele>279.8</ele><time>2026-04-30T15:49:18.385Z</time></trkpt><trkpt lat="39.06802" lon="-0.695795"><ele>279.0</ele><time>2026-04-30T15:49:19.386Z</time></trkpt><trkpt lat="39.0681367" lon="-0.6957517"><ele>279.0</ele><time>2026-04-30T15:49:20.389Z</time></trkpt><trkpt lat="39.06825" lon="-0.69566"><ele>279.0</ele><time>2026-04-30T15:49:21.386Z</time></trkpt><trkpt lat="39.0683467" lon="-0.6955283"><ele>279.0</ele><time>2026-04-30T15:49:22.389Z</time></trkpt><trkpt lat="39.0684333" lon="-0.6953883"><ele>279.0</ele><time>2026-04-30T15:49:23.387Z</time></trkpt><trkpt lat="39.0685" lon="-0.69525"><ele>277.75</ele><time>2026-04-30T15:49:24.387Z</time></trkpt><trkpt lat="39.06856" lon="-0.69511"><ele>276.5</ele><time>2026-04-30T15:49:25.385Z</time></trkpt><trkpt lat="39.0686283" lon="-0.6949733"><ele>275.25</ele><time>2026-04-30T15:49:26.393Z</time></trkpt><trkpt lat="39.0687217" lon="-0.694845"><ele>274.0</ele><time>2026-04-30T15:49:27.388Z</time></trkpt><trkpt lat="39.0688333" lon="-0.694715"><ele>274.0</ele><time>2026-04-30T15:49:28.387Z</time></trkpt><trkpt lat="39.0689533" lon="-0.6945783"><ele>274.0</ele><time>2026-04-30T15:49:29.386Z</time></trkpt><trkpt lat="39.06908" lon="-0.6944367"><ele>274.0</ele><time>2026-04-30T15:49:30.385Z</time></trkpt><trkpt lat="39.06921" lon="-0.6942883"><ele>273.66666666666663</ele><time>2026-04-30T15:49:31.391Z</time></trkpt><trkpt lat="39.0693383" lon="-0.6941467"><ele>273.3333333333333</ele><time>2026-04-30T15:49:32.39Z</time></trkpt><trkpt lat="39.069465" lon="-0.6940233"><ele>273.0</ele><time>2026-04-30T15:49:33.387Z</time></trkpt><trkpt lat="39.0695933" lon="-0.6939233"><ele>273.0</ele><time>2026-04-30T15:49:34.386Z</time></trkpt><trkpt lat="39.0697217" lon="-0.6938517"><ele>273.0</ele><time>2026-04-30T15:49:35.387Z</time></trkpt><trkpt lat="39.0698433" lon="-0.69379"><ele>273.0</ele><time>2026-04-30T15:49:36.385Z</time></trkpt><trkpt lat="39.069955" lon="-0.693715"><ele>273.0</ele><time>2026-04-30T15:49:37.388Z</time></trkpt><trkpt lat="39.0700517" lon="-0.6936033"><ele>273.0</ele><time>2026-04-30T15:49:38.384Z</time></trkpt><trkpt lat="39.070125" lon="-0.693455"><ele>273.0</ele><time>2026-04-30T15:49:39.387Z</time></trkpt><trkpt lat="39.0701733" lon="-0.6932767"><ele>273.0</ele><time>2026-04-30T15:49:40.39Z</time></trkpt><trkpt lat="39.0702133" lon="-0.6930783"><ele>273.0</ele><time>2026-04-30T15:49:41.387Z</time></trkpt><trkpt lat="39.0702567" lon="-0.692865"><ele>272.3333333333333</ele><time>2026-04-30T15:49:42.392Z</time></trkpt><trkpt lat="39.0703117" lon="-0.6926483"><ele>271.66666666666663</ele><time>2026-04-30T15:49:43.389Z</time></trkpt><trkpt lat="39.0703717" lon="-0.6924417"><ele>271.0</ele><time>2026-04-30T15:49:44.388Z</time></trkpt><trkpt lat="39.0704267" lon="-0.692245"><ele>271.0</ele><time>2026-04-30T15:49:45.385Z</time></trkpt><trkpt lat="39.0704783" lon="-0.692055"><ele>271.0</ele><time>2026-04-30T15:49:46.392Z</time></trkpt><trkpt lat="39.070525" lon="-0.691865"><ele>271.0</ele><time>2026-04-30T15:49:47.392Z</time></trkpt><trkpt lat="39.0705617" lon="-0.6916683"><ele>270.66666666666663</ele><time>2026-04-30T15:49:48.387Z</time></trkpt><trkpt lat="39.0705683" lon="-0.6914767"><ele>270.3333333333333</ele><time>2026-04-30T15:49:49.385Z</time></trkpt><trkpt lat="39.07055" lon="-0.691285"><ele>270.0</ele><time>2026-04-30T15:49:50.389Z</time></trkpt><trkpt lat="39.0705217" lon="-0.6910933"><ele>269.6666666666667</ele><time>2026-04-30T15:49:51.39Z</time></trkpt><trkpt lat="39.07049" lon="-0.6909"><ele>269.33333333333337</ele><time>2026-04-30T15:49:52.385Z</time></trkpt><trkpt lat="39.0704567" lon="-0.690705"><ele>269.0</ele><time>2026-04-30T15:49:53.388Z</time></trkpt><trkpt lat="39.0704217" lon="-0.690515"><ele>269.0</ele><time>2026-04-30T15:49:54.385Z</time></trkpt><trkpt lat="39.0703917" lon="-0.69032"><ele>269.0</ele><time>2026-04-30T15:49:55.385Z</time></trkpt><trkpt lat="39.0703683" lon="-0.6901183"><ele>269.0</ele><time>2026-04-30T15:49:56.387Z</time></trkpt><trkpt lat="39.0703467" lon="-0.6899133"><ele>268.6666666666667</ele><time>2026-04-30T15:49:57.389Z</time></trkpt><trkpt lat="39.0703283" lon="-0.6897083"><ele>268.3333333333333</ele><time>2026-04-30T15:49:58.385Z</time></trkpt><trkpt lat="39.0703133" lon="-0.6895017"><ele>268.0</ele><time>2026-04-30T15:49:59.388Z</time></trkpt><trkpt lat="39.0702983" lon="-0.6892967"><ele>268.0</ele><time>2026-04-30T15:50:00.393Z</time></trkpt><trkpt lat="39.0702783" lon="-0.68909"><ele>268.0</ele><time>2026-04-30T15:50:01.385Z</time></trkpt><trkpt lat="39.070255" lon="-0.6888833"><ele>268.0</ele><time>2026-04-30T15:50:02.386Z</time></trkpt><trkpt lat="39.0702283" lon="-0.6886767"><ele>268.66666666666663</ele><time>2026-04-30T15:50:03.387Z</time></trkpt><trkpt lat="39.0701983" lon="-0.6884767"><ele>269.3333333333333</ele><time>2026-04-30T15:50:04.385Z</time></trkpt><trkpt lat="39.0701617" lon="-0.688275"><ele>270.0</ele><time>2026-04-30T15:50:05.387Z</time></trkpt><trkpt lat="39.0701267" lon="-0.6880683"><ele>270.0</ele><time>2026-04-30T15:50:06.388Z</time></trkpt><trkpt lat="39.0701067" lon="-0.6878633"><ele>270.0</ele><time>2026-04-30T15:50:07.388Z</time></trkpt><trkpt lat="39.0700967" lon="-0.6876633"><ele>270.0</ele><time>2026-04-30T15:50:08.388Z</time></trkpt><trkpt lat="39.0700767" lon="-0.6874717"><ele>270.25</ele><time>2026-04-30T15:50:09.391Z</time></trkpt><trkpt lat="39.0700383" lon="-0.6872883"><ele>270.5</ele><time>2026-04-30T15:50:10.386Z</time></trkpt><trkpt lat="39.0699817" lon="-0.6871117"><ele>270.75</ele><time>2026-04-30T15:50:11.387Z</time></trkpt><trkpt lat="39.0699183" lon="-0.686945"><ele>271.0</ele><time>2026-04-30T15:50:12.391Z</time></trkpt><trkpt lat="39.0698567" lon="-0.6867867"><ele>270.25</ele><time>2026-04-30T15:50:13.389Z</time></trkpt><trkpt lat="39.069785" lon="-0.6866383"><ele>269.5</ele><time>2026-04-30T15:50:14.395Z</time></trkpt><trkpt lat="39.069705" lon="-0.6864967"><ele>268.75</ele><time>2026-04-30T15:50:15.389Z</time></trkpt><trkpt lat="39.0696167" lon="-0.6863617"><ele>268.0</ele><time>2026-04-30T15:50:16.387Z</time></trkpt><trkpt lat="39.06952" lon="-0.686225"><ele>268.0</ele><time>2026-04-30T15:50:17.388Z</time></trkpt><trkpt lat="39.0694233" lon="-0.6860867"><ele>268.0</ele><time>2026-04-30T15:50:18.387Z</time></trkpt><trkpt lat="39.0693283" lon="-0.6859367"><ele>268.0</ele><time>2026-04-30T15:50:19.395Z</time></trkpt><trkpt lat="39.0692367" lon="-0.6857833"><ele>268.0</ele><time>2026-04-30T15:50:20.389Z</time></trkpt><trkpt lat="39.069155" lon="-0.6856317"><ele>268.0</ele><time>2026-04-30T15:50:21.389Z</time></trkpt><trkpt lat="39.0690917" lon="-0.685475"><ele>268.0</ele><time>2026-04-30T15:50:22.387Z</time></trkpt><trkpt lat="39.06906" lon="-0.685305"><ele>268.0</ele><time>2026-04-30T15:50:23.389Z</time></trkpt><trkpt lat="39.069055" lon="-0.6851133"><ele>268.0</ele><time>2026-04-30T15:50:24.395Z</time></trkpt><trkpt lat="39.0690533" lon="-0.6849167"><ele>268.0</ele><time>2026-04-30T15:50:25.386Z</time></trkpt><trkpt lat="39.06905" lon="-0.6847083"><ele>268.0</ele><time>2026-04-30T15:50:26.389Z</time></trkpt><trkpt lat="39.0690517" lon="-0.6844933"><ele>268.0</ele><time>2026-04-30T15:50:27.385Z</time></trkpt><trkpt lat="39.06906" lon="-0.6842767"><ele>268.0</ele><time>2026-04-30T15:50:28.389Z</time></trkpt><trkpt lat="39.0690717" lon="-0.6840633"><ele>268.0</ele><time>2026-04-30T15:50:29.389Z</time></trkpt><trkpt lat="39.06908" lon="-0.68386"><ele>268.0</ele><time>2026-04-30T15:50:30.389Z</time></trkpt><trkpt lat="39.06908" lon="-0.6836683"><ele>267.3333333333333</ele><time>2026-04-30T15:50:31.389Z</time></trkpt><trkpt lat="39.0690633" lon="-0.6834817"><ele>266.6666666666667</ele><time>2026-04-30T15:50:32.384Z</time></trkpt><trkpt lat="39.06903" lon="-0.6832867"><ele>266.0</ele><time>2026-04-30T15:50:33.386Z</time></trkpt><trkpt lat="39.068985" lon="-0.683085"><ele>266.0</ele><time>2026-04-30T15:50:34.391Z</time></trkpt><trkpt lat="39.068935" lon="-0.682875"><ele>266.0</ele><time>2026-04-30T15:50:35.39Z</time></trkpt><trkpt lat="39.0688883" lon="-0.68266"><ele>266.0</ele><time>2026-04-30T15:50:36.386Z</time></trkpt><trkpt lat="39.06884" lon="-0.6824467"><ele>266.0</ele><time>2026-04-30T15:50:37.385Z</time></trkpt><trkpt lat="39.0687867" lon="-0.68224"><ele>266.0</ele><time>2026-04-30T15:50:38.389Z</time></trkpt><trkpt lat="39.0687217" lon="-0.6820483"><ele>266.0</ele><time>2026-04-30T15:50:39.383Z</time></trkpt><trkpt lat="39.0686383" lon="-0.681865"><ele>266.0</ele><time>2026-04-30T15:50:40.388Z</time></trkpt><trkpt lat="39.06854" lon="-0.6816783"><ele>266.0</ele><time>2026-04-30T15:50:41.385Z</time></trkpt><trkpt lat="39.0684317" lon="-0.681495"><ele>266.0</ele><time>2026-04-30T15:50:42.388Z</time></trkpt><trkpt lat="39.0683217" lon="-0.6813167"><ele>265.33333333333337</ele><time>2026-04-30T15:50:43.386Z</time></trkpt><trkpt lat="39.0682133" lon="-0.6811433"><ele>264.6666666666667</ele><time>2026-04-30T15:50:44.391Z</time></trkpt><trkpt lat="39.0681067" lon="-0.680975"><ele>264.0</ele><time>2026-04-30T15:50:45.388Z</time></trkpt><trkpt lat="39.0680033" lon="-0.6808167"><ele>264.0</ele><time>2026-04-30T15:50:46.387Z</time></trkpt><trkpt lat="39.0679133" lon="-0.68067"><ele>264.0</ele><time>2026-04-30T15:50:47.385Z</time></trkpt><trkpt lat="39.067835" lon="-0.68053"><ele>264.0</ele><time>2026-04-30T15:50:48.385Z</time></trkpt><trkpt lat="39.0677583" lon="-0.680405"><ele>264.0</ele><time>2026-04-30T15:50:49.394Z</time></trkpt><trkpt lat="39.0676833" lon="-0.680305"><ele>263.6666666666667</ele><time>2026-04-30T15:50:50.385Z</time></trkpt><trkpt lat="39.0676083" lon="-0.6802267"><ele>263.3333333333333</ele><time>2026-04-30T15:50:51.384Z</time></trkpt><trkpt lat="39.0675383" lon="-0.680165"><ele>263.0</ele><time>2026-04-30T15:50:52.386Z</time></trkpt><trkpt lat="39.06748" lon="-0.680115"><ele>262.66666666666663</ele><time>2026-04-30T15:50:53.384Z</time></trkpt><trkpt lat="39.06742" lon="-0.6800583"><ele>262.3333333333333</ele><time>2026-04-30T15:50:55.384Z</time></trkpt><trkpt lat="39.06736" lon="-0.6799583"><ele>262.0</ele><time>2026-04-30T15:50:59.39Z</time></trkpt><trkpt lat="39.0673267" lon="-0.679885"><ele>262.0</ele><time>2026-04-30T15:51:00.387Z</time></trkpt><trkpt lat="39.0672783" lon="-0.67977"><ele>262.0</ele><time>2026-04-30T15:51:01.385Z</time></trkpt><trkpt lat="39.06722" lon="-0.679655"><ele>262.0</ele><time>2026-04-30T15:51:02.387Z</time></trkpt><trkpt lat="39.0671383" lon="-0.6795367"><ele>262.0</ele><time>2026-04-30T15:51:03.387Z</time></trkpt><trkpt lat="39.0670433" lon="-0.67942"><ele>264.75</ele><time>2026-04-30T15:51:04.385Z</time></trkpt><trkpt lat="39.066945" lon="-0.67931"><ele>267.5</ele><time>2026-04-30T15:51:05.386Z</time></trkpt><trkpt lat="39.0668483" lon="-0.6792083"><ele>270.25</ele><time>2026-04-30T15:51:06.383Z</time></trkpt><trkpt lat="39.06676" lon="-0.67911"><ele>273.0</ele><time>2026-04-30T15:51:07.384Z</time></trkpt><trkpt lat="39.066685" lon="-0.679015"><ele>273.0</ele><time>2026-04-30T15:51:08.385Z</time></trkpt><trkpt lat="39.06663" lon="-0.6789083"><ele>273.0</ele><time>2026-04-30T15:51:09.384Z</time></trkpt><trkpt lat="39.0665883" lon="-0.6787817"><ele>273.0</ele><time>2026-04-30T15:51:10.386Z</time></trkpt><trkpt lat="39.06655" lon="-0.6786467"><ele>273.0</ele><time>2026-04-30T15:51:11.387Z</time></trkpt><trkpt lat="39.066515" lon="-0.6785067"><ele>273.0</ele><time>2026-04-30T15:51:12.385Z</time></trkpt><trkpt lat="39.06648" lon="-0.6783667"><ele>271.4</ele><time>2026-04-30T15:51:13.387Z</time></trkpt><trkpt lat="39.0664533" lon="-0.6782317"><ele>269.8</ele><time>2026-04-30T15:51:14.386Z</time></trkpt><trkpt lat="39.0664333" lon="-0.6781067"><ele>268.2</ele><time>2026-04-30T15:51:15.387Z</time></trkpt><trkpt lat="39.0664083" lon="-0.6779867"><ele>266.6</ele><time>2026-04-30T15:51:16.387Z</time></trkpt><trkpt lat="39.0663733" lon="-0.6778733"><ele>265.0</ele><time>2026-04-30T15:51:17.386Z</time></trkpt><trkpt lat="39.0663217" lon="-0.6777617"><ele>265.0</ele><time>2026-04-30T15:51:18.389Z</time></trkpt><trkpt lat="39.0662467" lon="-0.6776633"><ele>265.0</ele><time>2026-04-30T15:51:19.385Z</time></trkpt><trkpt lat="39.066165" lon="-0.6775617"><ele>265.0</ele><time>2026-04-30T15:51:20.389Z</time></trkpt><trkpt lat="39.0660817" lon="-0.67747"><ele>265.0</ele><time>2026-04-30T15:51:21.387Z</time></trkpt><trkpt lat="39.0660083" lon="-0.6773733"><ele>265.0</ele><time>2026-04-30T15:51:22.383Z</time></trkpt><trkpt lat="39.0659633" lon="-0.6772683"><ele>265.0</ele><time>2026-04-30T15:51:23.385Z</time></trkpt><trkpt lat="39.0659367" lon="-0.6771683"><ele>265.0</ele><time>2026-04-30T15:51:24.394Z</time></trkpt><trkpt lat="39.06591" lon="-0.6770633"><ele>265.0</ele><time>2026-04-30T15:51:25.389Z</time></trkpt><trkpt lat="39.065865" lon="-0.6769517"><ele>265.0</ele><time>2026-04-30T15:51:26.384Z</time></trkpt><trkpt lat="39.065805" lon="-0.6768283"><ele>265.0</ele><time>2026-04-30T15:51:27.387Z</time></trkpt><trkpt lat="39.06574" lon="-0.6767"><ele>265.25</ele><time>2026-04-30T15:51:28.386Z</time></trkpt><trkpt lat="39.065665" lon="-0.676575"><ele>265.5</ele><time>2026-04-30T15:51:29.387Z</time></trkpt><trkpt lat="39.0655817" lon="-0.67645"><ele>265.75</ele><time>2026-04-30T15:51:30.388Z</time></trkpt><trkpt lat="39.0654883" lon="-0.676325"><ele>266.0</ele><time>2026-04-30T15:51:31.384Z</time></trkpt><trkpt lat="39.06539" lon="-0.6762017"><ele>264.25</ele><time>2026-04-30T15:51:32.385Z</time></trkpt><trkpt lat="39.065295" lon="-0.6760767"><ele>262.5</ele><time>2026-04-30T15:51:33.39Z</time></trkpt><trkpt lat="39.0651933" lon="-0.6759683"><ele>260.75</ele><time>2026-04-30T15:51:34.388Z</time></trkpt><trkpt lat="39.0650867" lon="-0.6758783"><ele>259.0</ele><time>2026-04-30T15:51:35.388Z</time></trkpt><trkpt lat="39.0649783" lon="-0.6758033"><ele>260.0</ele><time>2026-04-30T15:51:36.388Z</time></trkpt><trkpt lat="39.0648733" lon="-0.6757383"><ele>261.0</ele><time>2026-04-30T15:51:37.387Z</time></trkpt><trkpt lat="39.0647783" lon="-0.67568"><ele>262.0</ele><time>2026-04-30T15:51:38.389Z</time></trkpt><trkpt lat="39.0646933" lon="-0.675635"><ele>263.0</ele><time>2026-04-30T15:51:39.385Z</time></trkpt><trkpt lat="39.0646117" lon="-0.6755933"><ele>264.0</ele><time>2026-04-30T15:51:40.389Z</time></trkpt><trkpt lat="39.0645333" lon="-0.6755517"><ele>264.0</ele><time>2026-04-30T15:51:41.389Z</time></trkpt><trkpt lat="39.06446" lon="-0.6755133"><ele>264.0</ele><time>2026-04-30T15:51:42.385Z</time></trkpt><trkpt lat="39.0643917" lon="-0.67548"><ele>264.0</ele><time>2026-04-30T15:51:43.388Z</time></trkpt><trkpt lat="39.0643267" lon="-0.675455"><ele>264.0</ele><time>2026-04-30T15:51:44.39Z</time></trkpt><trkpt lat="39.0642583" lon="-0.6754367"><ele>264.0</ele><time>2026-04-30T15:51:46.389Z</time></trkpt><trkpt lat="39.0643483" lon="-0.675385"><ele>264.0</ele><time>2026-04-30T15:52:00.388Z</time></trkpt><trkpt lat="39.0644217" lon="-0.6753717"><ele>264.0</ele><time>2026-04-30T15:52:01.387Z</time></trkpt><trkpt lat="39.064505" lon="-0.6753467"><ele>264.0</ele><time>2026-04-30T15:52:02.386Z</time></trkpt><trkpt lat="39.0645817" lon="-0.6752983"><ele>264.0</ele><time>2026-04-30T15:52:03.388Z</time></trkpt><trkpt lat="39.06466" lon="-0.6752183"><ele>264.0</ele><time>2026-04-30T15:52:04.389Z</time></trkpt><trkpt lat="39.0647417" lon="-0.6750967"><ele>264.0</ele><time>2026-04-30T15:52:05.387Z</time></trkpt><trkpt lat="39.0648367" lon="-0.6749733"><ele>260.0</ele><time>2026-04-30T15:52:06.389Z</time></trkpt><trkpt lat="39.0649383" lon="-0.6748433"><ele>256.0</ele><time>2026-04-30T15:52:07.391Z</time></trkpt><trkpt lat="39.0650467" lon="-0.6747133"><ele>252.0</ele><time>2026-04-30T15:52:08.389Z</time></trkpt><trkpt lat="39.0651417" lon="-0.6745883"><ele>248.0</ele><time>2026-04-30T15:52:09.389Z</time></trkpt><trkpt lat="39.065225" lon="-0.6744667"><ele>246.5</ele><time>2026-04-30T15:52:10.392Z</time></trkpt><trkpt lat="39.0652883" lon="-0.6743383"><ele>245.0</ele><time>2026-04-30T15:52:11.388Z</time></trkpt><trkpt lat="39.0653167" lon="-0.6741983"><ele>243.5</ele><time>2026-04-30T15:52:12.392Z</time></trkpt><trkpt lat="39.0653283" lon="-0.67404"><ele>242.0</ele><time>2026-04-30T15:52:13.39Z</time></trkpt><trkpt lat="39.0653467" lon="-0.6738817"><ele>242.0</ele><time>2026-04-30T15:52:14.393Z</time></trkpt><trkpt lat="39.06539" lon="-0.673735"><ele>242.0</ele><time>2026-04-30T15:52:15.387Z</time></trkpt><trkpt lat="39.06546" lon="-0.67358"><ele>242.0</ele><time>2026-04-30T15:52:16.388Z</time></trkpt><trkpt lat="39.06554" lon="-0.6734167"><ele>242.0</ele><time>2026-04-30T15:52:17.392Z</time></trkpt><trkpt lat="39.0656183" lon="-0.6732567"><ele>241.5</ele><time>2026-04-30T15:52:18.387Z</time></trkpt><trkpt lat="39.0656933" lon="-0.6731033"><ele>241.0</ele><time>2026-04-30T15:52:19.388Z</time></trkpt><trkpt lat="39.0657583" lon="-0.6729567"><ele>240.5</ele><time>2026-04-30T15:52:20.385Z</time></trkpt><trkpt lat="39.06582" lon="-0.672815"><ele>240.0</ele><time>2026-04-30T15:52:21.388Z</time></trkpt><trkpt lat="39.06588" lon="-0.6726917"><ele>241.4</ele><time>2026-04-30T15:52:22.388Z</time></trkpt><trkpt lat="39.0659483" lon="-0.6725933"><ele>242.8</ele><time>2026-04-30T15:52:23.389Z</time></trkpt><trkpt lat="39.0660333" lon="-0.6725217"><ele>244.2</ele><time>2026-04-30T15:52:24.389Z</time></trkpt><trkpt lat="39.0661367" lon="-0.6724633"><ele>245.6</ele><time>2026-04-30T15:52:25.395Z</time></trkpt><trkpt lat="39.066245" lon="-0.6723883"><ele>247.0</ele><time>2026-04-30T15:52:26.391Z</time></trkpt><trkpt lat="39.066335" lon="-0.6722733"><ele>247.0</ele><time>2026-04-30T15:52:27.392Z</time></trkpt><trkpt lat="39.066415" lon="-0.6721267"><ele>247.0</ele><time>2026-04-30T15:52:28.389Z</time></trkpt><trkpt lat="39.06651" lon="-0.6719833"><ele>247.0</ele><time>2026-04-30T15:52:29.387Z</time></trkpt><trkpt lat="39.066615" lon="-0.671855"><ele>247.0</ele><time>2026-04-30T15:52:30.395Z</time></trkpt><trkpt lat="39.06671" lon="-0.6717383"><ele>249.5</ele><time>2026-04-30T15:52:31.387Z</time></trkpt><trkpt lat="39.066795" lon="-0.6716383"><ele>252.0</ele><time>2026-04-30T15:52:32.393Z</time></trkpt><trkpt lat="39.0668817" lon="-0.6715567"><ele>254.5</ele><time>2026-04-30T15:52:33.392Z</time></trkpt><trkpt lat="39.066985" lon="-0.6714983"><ele>257.0</ele><time>2026-04-30T15:52:34.386Z</time></trkpt><trkpt lat="39.0670983" lon="-0.6714567"><ele>257.0</ele><time>2026-04-30T15:52:35.392Z</time></trkpt><trkpt lat="39.067215" lon="-0.6714217"><ele>257.0</ele><time>2026-04-30T15:52:36.385Z</time></trkpt><trkpt lat="39.0673167" lon="-0.67139"><ele>257.0</ele><time>2026-04-30T15:52:37.388Z</time></trkpt><trkpt lat="39.0674217" lon="-0.6713633"><ele>257.0</ele><time>2026-04-30T15:52:38.385Z</time></trkpt><trkpt lat="39.0675317" lon="-0.671355"><ele>257.0</ele><time>2026-04-30T15:52:39.387Z</time></trkpt><trkpt lat="39.067655" lon="-0.6713583"><ele>259.6666666666667</ele><time>2026-04-30T15:52:40.385Z</time></trkpt><trkpt lat="39.0677983" lon="-0.67139"><ele>262.3333333333333</ele><time>2026-04-30T15:52:41.394Z</time></trkpt><trkpt lat="39.067955" lon="-0.671425"><ele>265.0</ele><time>2026-04-30T15:52:42.387Z</time></trkpt><trkpt lat="39.0681167" lon="-0.67144"><ele>264.3333333333333</ele><time>2026-04-30T15:52:43.385Z</time></trkpt><trkpt lat="39.06828" lon="-0.671435"><ele>263.6666666666667</ele><time>2026-04-30T15:52:44.389Z</time></trkpt><trkpt lat="39.068435" lon="-0.671435"><ele>263.0</ele><time>2026-04-30T15:52:45.383Z</time></trkpt><trkpt lat="39.068575" lon="-0.67143"><ele>263.0</ele><time>2026-04-30T15:52:46.384Z</time></trkpt><trkpt lat="39.0686983" lon="-0.671415"><ele>263.0</ele><time>2026-04-30T15:52:47.389Z</time></trkpt><trkpt lat="39.0688033" lon="-0.671365"><ele>263.0</ele><time>2026-04-30T15:52:48.385Z</time></trkpt><trkpt lat="39.0689017" lon="-0.671275"><ele>263.0</ele><time>2026-04-30T15:52:49.388Z</time></trkpt><trkpt lat="39.0690017" lon="-0.6711683"><ele>262.0</ele><time>2026-04-30T15:52:50.385Z</time></trkpt><trkpt lat="39.0690933" lon="-0.6710583"><ele>261.0</ele><time>2026-04-30T15:52:51.388Z</time></trkpt><trkpt lat="39.0691817" lon="-0.6709567"><ele>260.0</ele><time>2026-04-30T15:52:52.39Z</time></trkpt><trkpt lat="39.069265" lon="-0.6708667"><ele>259.0</ele><time>2026-04-30T15:52:53.387Z</time></trkpt><trkpt lat="39.0693433" lon="-0.6708017"><ele>258.0</ele><time>2026-04-30T15:52:54.384Z</time></trkpt><trkpt lat="39.06943" lon="-0.6707617"><ele>258.0</ele><time>2026-04-30T15:52:55.388Z</time></trkpt><trkpt lat="39.0695267" lon="-0.67074"><ele>258.0</ele><time>2026-04-30T15:52:56.395Z</time></trkpt><trkpt lat="39.0696333" lon="-0.6707183"><ele>258.0</ele><time>2026-04-30T15:52:57.388Z</time></trkpt><trkpt lat="39.0697567" lon="-0.67069"><ele>258.0</ele><time>2026-04-30T15:52:58.388Z</time></trkpt><trkpt lat="39.0698867" lon="-0.67066"><ele>258.25</ele><time>2026-04-30T15:52:59.392Z</time></trkpt><trkpt lat="39.0700217" lon="-0.67062"><ele>258.5</ele><time>2026-04-30T15:53:00.385Z</time></trkpt><trkpt lat="39.07016" lon="-0.6705667"><ele>258.75</ele><time>2026-04-30T15:53:01.386Z</time></trkpt><trkpt lat="39.0702883" lon="-0.6705033"><ele>259.0</ele><time>2026-04-30T15:53:02.387Z</time></trkpt><trkpt lat="39.0704017" lon="-0.67043"><ele>259.0</ele><time>2026-04-30T15:53:03.385Z</time></trkpt><trkpt lat="39.0705117" lon="-0.67035"><ele>259.0</ele><time>2026-04-30T15:53:04.391Z</time></trkpt><trkpt lat="39.0706233" lon="-0.6702567"><ele>259.0</ele><time>2026-04-30T15:53:05.387Z</time></trkpt><trkpt lat="39.070745" lon="-0.6701683"><ele>259.0</ele><time>2026-04-30T15:53:06.384Z</time></trkpt><trkpt lat="39.0708783" lon="-0.6700967"><ele>260.3333333333333</ele><time>2026-04-30T15:53:07.39Z</time></trkpt><trkpt lat="39.0710217" lon="-0.6700383"><ele>261.6666666666667</ele><time>2026-04-30T15:53:08.385Z</time></trkpt><trkpt lat="39.071165" lon="-0.6699783"><ele>263.0</ele><time>2026-04-30T15:53:09.387Z</time></trkpt><trkpt lat="39.0713067" lon="-0.66991"><ele>263.0</ele><time>2026-04-30T15:53:10.385Z</time></trkpt><trkpt lat="39.0714383" lon="-0.6698383"><ele>263.0</ele><time>2026-04-30T15:53:11.385Z</time></trkpt><trkpt lat="39.0715683" lon="-0.66975"><ele>263.0</ele><time>2026-04-30T15:53:12.389Z</time></trkpt><trkpt lat="39.071695" lon="-0.6696517"><ele>263.0</ele><time>2026-04-30T15:53:13.385Z</time></trkpt><trkpt lat="39.0718267" lon="-0.66954"><ele>264.33333333333337</ele><time>2026-04-30T15:53:14.389Z</time></trkpt><trkpt lat="39.0719533" lon="-0.669425"><ele>265.6666666666667</ele><time>2026-04-30T15:53:15.388Z</time></trkpt><trkpt lat="39.0720783" lon="-0.6693067"><ele>267.0</ele><time>2026-04-30T15:53:16.388Z</time></trkpt><trkpt lat="39.072205" lon="-0.66919"><ele>267.0</ele><time>2026-04-30T15:53:17.394Z</time></trkpt><trkpt lat="39.0723233" lon="-0.66908"><ele>267.0</ele><time>2026-04-30T15:53:18.388Z</time></trkpt><trkpt lat="39.072445" lon="-0.6689733"><ele>267.0</ele><time>2026-04-30T15:53:19.385Z</time></trkpt><trkpt lat="39.07257" lon="-0.66887"><ele>267.0</ele><time>2026-04-30T15:53:20.39Z</time></trkpt><trkpt lat="39.0726983" lon="-0.66876"><ele>268.0</ele><time>2026-04-30T15:53:21.39Z</time></trkpt><trkpt lat="39.07282" lon="-0.6686383"><ele>269.0</ele><time>2026-04-30T15:53:22.394Z</time></trkpt><trkpt lat="39.0729367" lon="-0.6685017"><ele>270.0</ele><time>2026-04-30T15:53:23.387Z</time></trkpt><trkpt lat="39.0730483" lon="-0.6683583"><ele>270.3333333333333</ele><time>2026-04-30T15:53:24.385Z</time></trkpt><trkpt lat="39.0731583" lon="-0.6682017"><ele>270.66666666666663</ele><time>2026-04-30T15:53:25.386Z</time></trkpt><trkpt lat="39.0732717" lon="-0.66804"><ele>271.0</ele><time>2026-04-30T15:53:26.387Z</time></trkpt><trkpt lat="39.073395" lon="-0.6678767"><ele>272.0</ele><time>2026-04-30T15:53:27.387Z</time></trkpt><trkpt lat="39.0735283" lon="-0.6677217"><ele>273.0</ele><time>2026-04-30T15:53:28.385Z</time></trkpt><trkpt lat="39.073675" lon="-0.667575"><ele>274.0</ele><time>2026-04-30T15:53:29.387Z</time></trkpt><trkpt lat="39.0738267" lon="-0.667435"><ele>274.0</ele><time>2026-04-30T15:53:30.387Z</time></trkpt><trkpt lat="39.0739817" lon="-0.6673017"><ele>274.0</ele><time>2026-04-30T15:53:31.392Z</time></trkpt><trkpt lat="39.0741367" lon="-0.6671717"><ele>274.0</ele><time>2026-04-30T15:53:32.389Z</time></trkpt><trkpt lat="39.0742883" lon="-0.6670433"><ele>274.3333333333333</ele><time>2026-04-30T15:53:33.389Z</time></trkpt><trkpt lat="39.0744333" lon="-0.66692"><ele>274.6666666666667</ele><time>2026-04-30T15:53:34.388Z</time></trkpt><trkpt lat="39.0745683" lon="-0.6668117"><ele>275.0</ele><time>2026-04-30T15:53:35.388Z</time></trkpt><trkpt lat="39.07469" lon="-0.6667117"><ele>275.0</ele><time>2026-04-30T15:53:36.389Z</time></trkpt><trkpt lat="39.0748" lon="-0.66663"><ele>275.0</ele><time>2026-04-30T15:53:37.388Z</time></trkpt><trkpt lat="39.0749117" lon="-0.66657"><ele>275.0</ele><time>2026-04-30T15:53:38.392Z</time></trkpt><trkpt lat="39.07503" lon="-0.6665317"><ele>275.0</ele><time>2026-04-30T15:53:39.385Z</time></trkpt><trkpt lat="39.0751583" lon="-0.6664783"><ele>276.75</ele><time>2026-04-30T15:53:40.392Z</time></trkpt><trkpt lat="39.07528" lon="-0.6663917"><ele>278.5</ele><time>2026-04-30T15:53:41.388Z</time></trkpt><trkpt lat="39.0753833" lon="-0.666275"><ele>280.25</ele><time>2026-04-30T15:53:42.387Z</time></trkpt><trkpt lat="39.0754783" lon="-0.66616"><ele>282.0</ele><time>2026-04-30T15:53:43.388Z</time></trkpt><trkpt lat="39.075575" lon="-0.6660717"><ele>282.0</ele><time>2026-04-30T15:53:44.389Z</time></trkpt><trkpt lat="39.0756833" lon="-0.6660083"><ele>282.0</ele><time>2026-04-30T15:53:45.389Z</time></trkpt><trkpt lat="39.0757967" lon="-0.66596"><ele>282.0</ele><time>2026-04-30T15:53:46.389Z</time></trkpt><trkpt lat="39.075915" lon="-0.665915"><ele>282.0</ele><time>2026-04-30T15:53:47.386Z</time></trkpt><trkpt lat="39.0760267" lon="-0.66587"><ele>282.0</ele><time>2026-04-30T15:53:48.39Z</time></trkpt><trkpt lat="39.0761317" lon="-0.6658117"><ele>282.0</ele><time>2026-04-30T15:53:49.384Z</time></trkpt><trkpt lat="39.0762217" lon="-0.6657367"><ele>282.0</ele><time>2026-04-30T15:53:50.39Z</time></trkpt><trkpt lat="39.07629" lon="-0.6656417"><ele>282.0</ele><time>2026-04-30T15:53:51.388Z</time></trkpt><trkpt lat="39.0763483" lon="-0.6655417"><ele>282.0</ele><time>2026-04-30T15:53:52.387Z</time></trkpt><trkpt lat="39.0764117" lon="-0.6654533"><ele>282.0</ele><time>2026-04-30T15:53:53.387Z</time></trkpt><trkpt lat="39.0764933" lon="-0.66539"><ele>282.0</ele><time>2026-04-30T15:53:54.387Z</time></trkpt><trkpt lat="39.0765967" lon="-0.66535"><ele>282.0</ele><time>2026-04-30T15:53:55.393Z</time></trkpt><trkpt lat="39.076715" lon="-0.6653267"><ele>282.0</ele><time>2026-04-30T15:53:56.388Z</time></trkpt><trkpt lat="39.0768433" lon="-0.6653317"><ele>280.5</ele><time>2026-04-30T15:53:57.384Z</time></trkpt><trkpt lat="39.0769817" lon="-0.6653667"><ele>279.0</ele><time>2026-04-30T15:53:58.388Z</time></trkpt><trkpt lat="39.0771183" lon="-0.6654133"><ele>277.5</ele><time>2026-04-30T15:53:59.389Z</time></trkpt><trkpt lat="39.0772517" lon="-0.665455"><ele>276.0</ele><time>2026-04-30T15:54:00.388Z</time></trkpt><trkpt lat="39.0773817" lon="-0.665475"><ele>274.75</ele><time>2026-04-30T15:54:01.386Z</time></trkpt><trkpt lat="39.077515" lon="-0.6654567"><ele>273.5</ele><time>2026-04-30T15:54:02.391Z</time></trkpt><trkpt lat="39.0776533" lon="-0.665415"><ele>272.25</ele><time>2026-04-30T15:54:03.388Z</time></trkpt><trkpt lat="39.0777983" lon="-0.66537"><ele>271.0</ele><time>2026-04-30T15:54:04.387Z</time></trkpt><trkpt lat="39.0779533" lon="-0.6653267"><ele>271.0</ele><time>2026-04-30T15:54:05.385Z</time></trkpt><trkpt lat="39.07811" lon="-0.6652833"><ele>271.0</ele><time>2026-04-30T15:54:06.387Z</time></trkpt><trkpt lat="39.07827" lon="-0.6652383"><ele>271.0</ele><time>2026-04-30T15:54:07.391Z</time></trkpt><trkpt lat="39.0784317" lon="-0.6651983"><ele>269.0</ele><time>2026-04-30T15:54:08.39Z</time></trkpt><trkpt lat="39.0785967" lon="-0.6651617"><ele>267.0</ele><time>2026-04-30T15:54:09.394Z</time></trkpt><trkpt lat="39.078755" lon="-0.6651267"><ele>265.0</ele><time>2026-04-30T15:54:10.387Z</time></trkpt><trkpt lat="39.07891" lon="-0.6650967"><ele>265.0</ele><time>2026-04-30T15:54:11.384Z</time></trkpt><trkpt lat="39.079055" lon="-0.6650767"><ele>265.0</ele><time>2026-04-30T15:54:12.387Z</time></trkpt><trkpt lat="39.0791917" lon="-0.6650633"><ele>265.0</ele><time>2026-04-30T15:54:13.386Z</time></trkpt><trkpt lat="39.0793167" lon="-0.66506"><ele>265.0</ele><time>2026-04-30T15:54:14.389Z</time></trkpt><trkpt lat="39.0794317" lon="-0.6650767"><ele>265.2</ele><time>2026-04-30T15:54:15.394Z</time></trkpt><trkpt lat="39.0795333" lon="-0.6651217"><ele>265.4</ele><time>2026-04-30T15:54:16.387Z</time></trkpt><trkpt lat="39.079615" lon="-0.6652083"><ele>265.6</ele><time>2026-04-30T15:54:17.39Z</time></trkpt><trkpt lat="39.07969" lon="-0.66531"><ele>265.8</ele><time>2026-04-30T15:54:18.386Z</time></trkpt><trkpt lat="39.07977" lon="-0.665395"><ele>266.0</ele><time>2026-04-30T15:54:19.387Z</time></trkpt><trkpt lat="39.0798567" lon="-0.6654417"><ele>266.0</ele><time>2026-04-30T15:54:20.396Z</time></trkpt><trkpt lat="39.0799333" lon="-0.66543"><ele>266.0</ele><time>2026-04-30T15:54:21.385Z</time></trkpt><trkpt lat="39.0800183" lon="-0.665395"><ele>266.0</ele><time>2026-04-30T15:54:22.393Z</time></trkpt><trkpt lat="39.0800867" lon="-0.6652933"><ele>266.0</ele><time>2026-04-30T15:54:23.392Z</time></trkpt><trkpt lat="39.0801633" lon="-0.6651617"><ele>266.0</ele><time>2026-04-30T15:54:24.39Z</time></trkpt><trkpt lat="39.0802417" lon="-0.66502"><ele>265.0</ele><time>2026-04-30T15:54:25.384Z</time></trkpt><trkpt lat="39.080315" lon="-0.6648833"><ele>264.0</ele><time>2026-04-30T15:54:26.388Z</time></trkpt><trkpt lat="39.0803933" lon="-0.6647483"><ele>263.0</ele><time>2026-04-30T15:54:27.391Z</time></trkpt><trkpt lat="39.0804833" lon="-0.6646167"><ele>262.0</ele><time>2026-04-30T15:54:28.395Z</time></trkpt><trkpt lat="39.0805883" lon="-0.6644783"><ele>262.66666666666663</ele><time>2026-04-30T15:54:29.393Z</time></trkpt><trkpt lat="39.0807017" lon="-0.6643383"><ele>263.3333333333333</ele><time>2026-04-30T15:54:30.402Z</time></trkpt><trkpt lat="39.0808133" lon="-0.664205"><ele>264.0</ele><time>2026-04-30T15:54:31.386Z</time></trkpt><trkpt lat="39.0809283" lon="-0.6640867"><ele>261.0</ele><time>2026-04-30T15:54:32.387Z</time></trkpt><trkpt lat="39.0810517" lon="-0.6639833"><ele>258.0</ele><time>2026-04-30T15:54:33.391Z</time></trkpt><trkpt lat="39.0811817" lon="-0.663905"><ele>255.0</ele><time>2026-04-30T15:54:34.388Z</time></trkpt><trkpt lat="39.0813133" lon="-0.6638483"><ele>252.0</ele><time>2026-04-30T15:54:35.393Z</time></trkpt><trkpt lat="39.0814467" lon="-0.6638233"><ele>252.0</ele><time>2026-04-30T15:54:36.387Z</time></trkpt><trkpt lat="39.08158" lon="-0.66381"><ele>252.0</ele><time>2026-04-30T15:54:37.388Z</time></trkpt><trkpt lat="39.08172" lon="-0.6638033"><ele>252.0</ele><time>2026-04-30T15:54:38.388Z</time></trkpt><trkpt lat="39.08187" lon="-0.6637983"><ele>252.0</ele><time>2026-04-30T15:54:39.386Z</time></trkpt><trkpt lat="39.0820333" lon="-0.6637933"><ele>248.33333333333331</ele><time>2026-04-30T15:54:40.388Z</time></trkpt><trkpt lat="39.0822" lon="-0.6637867"><ele>244.66666666666666</ele><time>2026-04-30T15:54:41.388Z</time></trkpt><trkpt lat="39.0823683" lon="-0.6637717"><ele>241.0</ele><time>2026-04-30T15:54:42.388Z</time></trkpt><trkpt lat="39.0825283" lon="-0.6637533"><ele>239.33333333333331</ele><time>2026-04-30T15:54:43.388Z</time></trkpt><trkpt lat="39.0826867" lon="-0.66373"><ele>237.66666666666669</ele><time>2026-04-30T15:54:44.389Z</time></trkpt><trkpt lat="39.0828483" lon="-0.6636983"><ele>236.0</ele><time>2026-04-30T15:54:45.39Z</time></trkpt><trkpt lat="39.0830117" lon="-0.66367"><ele>236.0</ele><time>2026-04-30T15:54:46.388Z</time></trkpt><trkpt lat="39.0831683" lon="-0.66366"><ele>236.0</ele><time>2026-04-30T15:54:47.393Z</time></trkpt><trkpt lat="39.0833217" lon="-0.66366"><ele>236.0</ele><time>2026-04-30T15:54:48.392Z</time></trkpt><trkpt lat="39.083465" lon="-0.6636483"><ele>233.75</ele><time>2026-04-30T15:54:49.392Z</time></trkpt><trkpt lat="39.083605" lon="-0.6636233"><ele>231.5</ele><time>2026-04-30T15:54:50.392Z</time></trkpt><trkpt lat="39.0837367" lon="-0.6635967"><ele>229.25</ele><time>2026-04-30T15:54:51.387Z</time></trkpt><trkpt lat="39.0838533" lon="-0.6635667"><ele>227.0</ele><time>2026-04-30T15:54:52.391Z</time></trkpt><trkpt lat="39.0839533" lon="-0.6635317"><ele>227.0</ele><time>2026-04-30T15:54:53.385Z</time></trkpt><trkpt lat="39.0840367" lon="-0.6634867"><ele>227.0</ele><time>2026-04-30T15:54:54.389Z</time></trkpt><trkpt lat="39.08411" lon="-0.6634333"><ele>227.0</ele><time>2026-04-30T15:54:55.385Z</time></trkpt><trkpt lat="39.084175" lon="-0.6633567"><ele>227.0</ele><time>2026-04-30T15:54:56.39Z</time></trkpt><trkpt lat="39.0842317" lon="-0.66324"><ele>227.0</ele><time>2026-04-30T15:54:57.39Z</time></trkpt><trkpt lat="39.0842717" lon="-0.6630817"><ele>226.66666666666669</ele><time>2026-04-30T15:54:58.387Z</time></trkpt><trkpt lat="39.0843167" lon="-0.6629133"><ele>226.33333333333331</ele><time>2026-04-30T15:54:59.39Z</time></trkpt><trkpt lat="39.0843683" lon="-0.6627267"><ele>226.0</ele><time>2026-04-30T15:55:00.389Z</time></trkpt><trkpt lat="39.084425" lon="-0.662535"><ele>226.0</ele><time>2026-04-30T15:55:01.39Z</time></trkpt><trkpt lat="39.084485" lon="-0.6623383"><ele>226.0</ele><time>2026-04-30T15:55:02.388Z</time></trkpt><trkpt lat="39.0845517" lon="-0.6621433"><ele>226.0</ele><time>2026-04-30T15:55:03.388Z</time></trkpt><trkpt lat="39.0846167" lon="-0.66195"><ele>226.33333333333331</ele><time>2026-04-30T15:55:04.391Z</time></trkpt><trkpt lat="39.0846733" lon="-0.6617583"><ele>226.66666666666669</ele><time>2026-04-30T15:55:05.388Z</time></trkpt><trkpt lat="39.0847083" lon="-0.6615633"><ele>227.0</ele><time>2026-04-30T15:55:06.391Z</time></trkpt><trkpt lat="39.0847333" lon="-0.6613633"><ele>227.0</ele><time>2026-04-30T15:55:07.388Z</time></trkpt><trkpt lat="39.0847633" lon="-0.6611817"><ele>227.0</ele><time>2026-04-30T15:55:08.39Z</time></trkpt><trkpt lat="39.0848133" lon="-0.6610183"><ele>227.0</ele><time>2026-04-30T15:55:09.395Z</time></trkpt><trkpt lat="39.0848967" lon="-0.6608733"><ele>227.0</ele><time>2026-04-30T15:55:10.385Z</time></trkpt><trkpt lat="39.0849983" lon="-0.6607383"><ele>232.0</ele><time>2026-04-30T15:55:11.392Z</time></trkpt><trkpt lat="39.08511" lon="-0.6606083"><ele>237.0</ele><time>2026-04-30T15:55:12.392Z</time></trkpt><trkpt lat="39.08522" lon="-0.6604733"><ele>242.0</ele><time>2026-04-30T15:55:13.397Z</time></trkpt><trkpt lat="39.08533" lon="-0.6603283"><ele>242.75</ele><time>2026-04-30T15:55:14.389Z</time></trkpt><trkpt lat="39.085435" lon="-0.6601833"><ele>243.5</ele><time>2026-04-30T15:55:15.386Z</time></trkpt><trkpt lat="39.0855267" lon="-0.6600367"><ele>244.25</ele><time>2026-04-30T15:55:16.389Z</time></trkpt><trkpt lat="39.0855983" lon="-0.6598867"><ele>245.0</ele><time>2026-04-30T15:55:17.39Z</time></trkpt><trkpt lat="39.0856317" lon="-0.6597333"><ele>245.0</ele><time>2026-04-30T15:55:18.387Z</time></trkpt><trkpt lat="39.0856317" lon="-0.6595833"><ele>245.0</ele><time>2026-04-30T15:55:19.385Z</time></trkpt><trkpt lat="39.085625" lon="-0.6594433"><ele>245.0</ele><time>2026-04-30T15:55:20.386Z</time></trkpt><trkpt lat="39.0856467" lon="-0.65933"><ele>245.0</ele><time>2026-04-30T15:55:21.387Z</time></trkpt><trkpt lat="39.08571" lon="-0.6592267"><ele>245.0</ele><time>2026-04-30T15:55:22.388Z</time></trkpt><trkpt lat="39.0857917" lon="-0.6591233"><ele>248.0</ele><time>2026-04-30T15:55:23.384Z</time></trkpt><trkpt lat="39.085875" lon="-0.6590033"><ele>251.0</ele><time>2026-04-30T15:55:24.388Z</time></trkpt><trkpt lat="39.0859583" lon="-0.6588667"><ele>254.0</ele><time>2026-04-30T15:55:25.389Z</time></trkpt><trkpt lat="39.0860367" lon="-0.658725"><ele>257.0</ele><time>2026-04-30T15:55:26.385Z</time></trkpt><trkpt lat="39.0861183" lon="-0.65859"><ele>257.75</ele><time>2026-04-30T15:55:27.392Z</time></trkpt><trkpt lat="39.0862133" lon="-0.6584583"><ele>258.5</ele><time>2026-04-30T15:55:28.385Z</time></trkpt><trkpt lat="39.08632" lon="-0.6583317"><ele>259.25</ele><time>2026-04-30T15:55:29.388Z</time></trkpt><trkpt lat="39.0864267" lon="-0.658205"><ele>260.0</ele><time>2026-04-30T15:55:30.387Z</time></trkpt><trkpt lat="39.0865283" lon="-0.658085"><ele>260.0</ele><time>2026-04-30T15:55:31.393Z</time></trkpt><trkpt lat="39.0866233" lon="-0.6579733"><ele>260.0</ele><time>2026-04-30T15:55:32.391Z</time></trkpt><trkpt lat="39.0867117" lon="-0.657875"><ele>260.0</ele><time>2026-04-30T15:55:33.386Z</time></trkpt><trkpt lat="39.0867817" lon="-0.6577917"><ele>260.0</ele><time>2026-04-30T15:55:34.384Z</time></trkpt><trkpt lat="39.0868317" lon="-0.6577333"><ele>260.0</ele><time>2026-04-30T15:55:35.391Z</time></trkpt><trkpt lat="39.0868867" lon="-0.6576733"><ele>259.6</ele><time>2026-04-30T15:55:37.387Z</time></trkpt><trkpt lat="39.0869" lon="-0.65759"><ele>259.2</ele><time>2026-04-30T15:55:39.385Z</time></trkpt><trkpt lat="39.086865" lon="-0.6574183"><ele>258.8</ele><time>2026-04-30T15:55:41.392Z</time></trkpt><trkpt lat="39.0868317" lon="-0.6572933"><ele>258.4</ele><time>2026-04-30T15:55:42.389Z</time></trkpt><trkpt lat="39.0867983" lon="-0.6571417"><ele>258.0</ele><time>2026-04-30T15:55:43.39Z</time></trkpt><trkpt lat="39.086765" lon="-0.6569783"><ele>258.0</ele><time>2026-04-30T15:55:44.385Z</time></trkpt><trkpt lat="39.08673" lon="-0.6568067"><ele>258.0</ele><time>2026-04-30T15:55:45.388Z</time></trkpt><trkpt lat="39.086695" lon="-0.6566267"><ele>258.0</ele><time>2026-04-30T15:55:46.397Z</time></trkpt><trkpt lat="39.0866567" lon="-0.656435"><ele>258.0</ele><time>2026-04-30T15:55:47.385Z</time></trkpt><trkpt lat="39.0866167" lon="-0.6562333"><ele>258.0</ele><time>2026-04-30T15:55:48.388Z</time></trkpt><trkpt lat="39.0865717" lon="-0.65602"><ele>258.0</ele><time>2026-04-30T15:55:49.389Z</time></trkpt><trkpt lat="39.086525" lon="-0.6558017"><ele>258.0</ele><time>2026-04-30T15:55:50.39Z</time></trkpt><trkpt lat="39.0864783" lon="-0.6555767"><ele>258.0</ele><time>2026-04-30T15:55:51.389Z</time></trkpt><trkpt lat="39.0864317" lon="-0.65535"><ele>258.0</ele><time>2026-04-30T15:55:52.389Z</time></trkpt><trkpt lat="39.0863883" lon="-0.655125"><ele>258.0</ele><time>2026-04-30T15:55:53.388Z</time></trkpt><trkpt lat="39.0863433" lon="-0.6549017"><ele>258.3333333333333</ele><time>2026-04-30T15:55:54.391Z</time></trkpt><trkpt lat="39.0862967" lon="-0.6546817"><ele>258.66666666666663</ele><time>2026-04-30T15:55:55.385Z</time></trkpt><trkpt lat="39.0862517" lon="-0.6544617"><ele>259.0</ele><time>2026-04-30T15:55:56.389Z</time></trkpt><trkpt lat="39.0862067" lon="-0.6542433"><ele>259.3333333333333</ele><time>2026-04-30T15:55:57.391Z</time></trkpt><trkpt lat="39.0861617" lon="-0.6540267"><ele>259.6666666666667</ele><time>2026-04-30T15:55:58.385Z</time></trkpt><trkpt lat="39.0861167" lon="-0.6538117"><ele>260.0</ele><time>2026-04-30T15:55:59.386Z</time></trkpt><trkpt lat="39.0860733" lon="-0.6535967"><ele>260.33333333333337</ele><time>2026-04-30T15:56:00.391Z</time></trkpt><trkpt lat="39.08603" lon="-0.65338"><ele>260.6666666666667</ele><time>2026-04-30T15:56:01.39Z</time></trkpt><trkpt lat="39.0859883" lon="-0.6531617"><ele>261.0</ele><time>2026-04-30T15:56:02.388Z</time></trkpt><trkpt lat="39.085945" lon="-0.6529517"><ele>261.6666666666667</ele><time>2026-04-30T15:56:03.388Z</time></trkpt><trkpt lat="39.0859033" lon="-0.6527517"><ele>262.33333333333337</ele><time>2026-04-30T15:56:04.389Z</time></trkpt><trkpt lat="39.0858633" lon="-0.6525567"><ele>263.0</ele><time>2026-04-30T15:56:05.386Z</time></trkpt><trkpt lat="39.08582" lon="-0.6523617"><ele>263.0</ele><time>2026-04-30T15:56:06.388Z</time></trkpt><trkpt lat="39.0857733" lon="-0.6521667"><ele>263.0</ele><time>2026-04-30T15:56:07.388Z</time></trkpt><trkpt lat="39.0857133" lon="-0.6519733"><ele>263.0</ele><time>2026-04-30T15:56:08.388Z</time></trkpt><trkpt lat="39.08564" lon="-0.6517833"><ele>262.33333333333337</ele><time>2026-04-30T15:56:09.387Z</time></trkpt><trkpt lat="39.0855633" lon="-0.651595"><ele>261.6666666666667</ele><time>2026-04-30T15:56:10.385Z</time></trkpt><trkpt lat="39.0854817" lon="-0.6514083"><ele>261.0</ele><time>2026-04-30T15:56:11.395Z</time></trkpt><trkpt lat="39.0854017" lon="-0.6512233"><ele>262.0</ele><time>2026-04-30T15:56:12.389Z</time></trkpt><trkpt lat="39.0853217" lon="-0.6510433"><ele>263.0</ele><time>2026-04-30T15:56:13.388Z</time></trkpt><trkpt lat="39.0852417" lon="-0.6508667"><ele>264.0</ele><time>2026-04-30T15:56:14.393Z</time></trkpt><trkpt lat="39.085165" lon="-0.6506883"><ele>264.0</ele><time>2026-04-30T15:56:15.39Z</time></trkpt><trkpt lat="39.0850883" lon="-0.6505133"><ele>264.0</ele><time>2026-04-30T15:56:16.39Z</time></trkpt><trkpt lat="39.0850167" lon="-0.6503333"><ele>264.0</ele><time>2026-04-30T15:56:17.388Z</time></trkpt><trkpt lat="39.0849483" lon="-0.650155"><ele>263.75</ele><time>2026-04-30T15:56:18.388Z</time></trkpt><trkpt lat="39.0848883" lon="-0.6499883"><ele>263.5</ele><time>2026-04-30T15:56:19.387Z</time></trkpt><trkpt lat="39.0848367" lon="-0.6498433"><ele>263.25</ele><time>2026-04-30T15:56:20.387Z</time></trkpt><trkpt lat="39.0847917" lon="-0.6497167"><ele>263.0</ele><time>2026-04-30T15:56:21.387Z</time></trkpt><trkpt lat="39.0847617" lon="-0.6496083"><ele>263.0</ele><time>2026-04-30T15:56:22.386Z</time></trkpt><trkpt lat="39.0847483" lon="-0.649525"><ele>263.0</ele><time>2026-04-30T15:56:23.385Z</time></trkpt><trkpt lat="39.084775" lon="-0.64938"><ele>263.0</ele><time>2026-04-30T15:56:25.392Z</time></trkpt><trkpt lat="39.084835" lon="-0.6493233"><ele>263.0</ele><time>2026-04-30T15:56:26.389Z</time></trkpt><trkpt lat="39.0849117" lon="-0.6492533"><ele>263.0</ele><time>2026-04-30T15:56:27.389Z</time></trkpt><trkpt lat="39.0849967" lon="-0.649165"><ele>264.0</ele><time>2026-04-30T15:56:28.386Z</time></trkpt><trkpt lat="39.0851017" lon="-0.649065"><ele>265.0</ele><time>2026-04-30T15:56:29.388Z</time></trkpt><trkpt lat="39.0852167" lon="-0.6489533"><ele>266.0</ele><time>2026-04-30T15:56:30.393Z</time></trkpt><trkpt lat="39.08533" lon="-0.6488333"><ele>267.0</ele><time>2026-04-30T15:56:31.387Z</time></trkpt><trkpt lat="39.085435" lon="-0.6487117"><ele>267.25</ele><time>2026-04-30T15:56:32.394Z</time></trkpt><trkpt lat="39.0855467" lon="-0.6485933"><ele>267.5</ele><time>2026-04-30T15:56:33.387Z</time></trkpt><trkpt lat="39.08567" lon="-0.64849"><ele>267.75</ele><time>2026-04-30T15:56:34.391Z</time></trkpt><trkpt lat="39.0857917" lon="-0.6483917"><ele>268.0</ele><time>2026-04-30T15:56:35.394Z</time></trkpt><trkpt lat="39.085905" lon="-0.648285"><ele>268.75</ele><time>2026-04-30T15:56:36.387Z</time></trkpt><trkpt lat="39.086005" lon="-0.6481633"><ele>269.5</ele><time>2026-04-30T15:56:37.385Z</time></trkpt><trkpt lat="39.0861083" lon="-0.6480333"><ele>270.25</ele><time>2026-04-30T15:56:38.393Z</time></trkpt><trkpt lat="39.0862183" lon="-0.6479"><ele>271.0</ele><time>2026-04-30T15:56:39.385Z</time></trkpt><trkpt lat="39.0863283" lon="-0.6477583"><ele>272.0</ele><time>2026-04-30T15:56:40.386Z</time></trkpt><trkpt lat="39.0864267" lon="-0.6476117"><ele>273.0</ele><time>2026-04-30T15:56:41.392Z</time></trkpt><trkpt lat="39.08652" lon="-0.6474683"><ele>274.0</ele><time>2026-04-30T15:56:42.387Z</time></trkpt><trkpt lat="39.086615" lon="-0.6473383"><ele>275.0</ele><time>2026-04-30T15:56:43.389Z</time></trkpt><trkpt lat="39.0867017" lon="-0.647205"><ele>276.0</ele><time>2026-04-30T15:56:44.385Z</time></trkpt><trkpt lat="39.0867733" lon="-0.6470667"><ele>277.0</ele><time>2026-04-30T15:56:45.387Z</time></trkpt><trkpt lat="39.086835" lon="-0.6469167"><ele>278.0</ele><time>2026-04-30T15:56:46.387Z</time></trkpt><trkpt lat="39.0868983" lon="-0.6467683"><ele>279.0</ele><time>2026-04-30T15:56:47.385Z</time></trkpt><trkpt lat="39.08696" lon="-0.6466283"><ele>280.0</ele><time>2026-04-30T15:56:48.385Z</time></trkpt><trkpt lat="39.0870233" lon="-0.646485"><ele>281.0</ele><time>2026-04-30T15:56:49.389Z</time></trkpt><trkpt lat="39.0870983" lon="-0.646335"><ele>282.0</ele><time>2026-04-30T15:56:50.388Z</time></trkpt><trkpt lat="39.087175" lon="-0.6461833"><ele>283.0</ele><time>2026-04-30T15:56:51.389Z</time></trkpt><trkpt lat="39.0872567" lon="-0.6460383"><ele>285.0</ele><time>2026-04-30T15:56:52.39Z</time></trkpt><trkpt lat="39.0873283" lon="-0.6458933"><ele>287.0</ele><time>2026-04-30T15:56:53.386Z</time></trkpt><trkpt lat="39.0873667" lon="-0.6457467"><ele>289.0</ele><time>2026-04-30T15:56:54.387Z</time></trkpt><trkpt lat="39.0873683" lon="-0.6455933"><ele>291.0</ele><time>2026-04-30T15:56:55.388Z</time></trkpt><trkpt lat="39.0873333" lon="-0.645455"><ele>291.0</ele><time>2026-04-30T15:56:56.387Z</time></trkpt><trkpt lat="39.0872817" lon="-0.6453433"><ele>291.0</ele><time>2026-04-30T15:56:57.388Z</time></trkpt><trkpt lat="39.0872267" lon="-0.645255"><ele>291.0</ele><time>2026-04-30T15:56:58.386Z</time></trkpt><trkpt lat="39.0871833" lon="-0.64518"><ele>291.0</ele><time>2026-04-30T15:56:59.386Z</time></trkpt><trkpt lat="39.0871683" lon="-0.6450883"><ele>291.0</ele><time>2026-04-30T15:57:01.388Z</time></trkpt><trkpt lat="39.0870917" lon="-0.6450333"><ele>291.0</ele><time>2026-04-30T15:57:09.39Z</time></trkpt><trkpt lat="39.08703" lon="-0.645015"><ele>291.5</ele><time>2026-04-30T15:57:10.387Z</time></trkpt><trkpt lat="39.0869567" lon="-0.6449833"><ele>292.0</ele><time>2026-04-30T15:57:11.388Z</time></trkpt><trkpt lat="39.086885" lon="-0.64495"><ele>292.5</ele><time>2026-04-30T15:57:12.391Z</time></trkpt><trkpt lat="39.086825" lon="-0.6449"><ele>293.0</ele><time>2026-04-30T15:57:13.386Z</time></trkpt><trkpt lat="39.0867833" lon="-0.6448367"><ele>293.5</ele><time>2026-04-30T15:57:14.387Z</time></trkpt><trkpt lat="39.08674" lon="-0.6447033"><ele>294.0</ele><time>2026-04-30T15:57:16.392Z</time></trkpt><trkpt lat="39.0868033" lon="-0.6446683"><ele>294.0</ele><time>2026-04-30T15:58:00.387Z</time></trkpt><trkpt lat="39.0867317" lon="-0.64465"><ele>294.0</ele><time>2026-04-30T15:58:06.392Z</time></trkpt><trkpt lat="39.0866767" lon="-0.6444917"><ele>294.0</ele><time>2026-04-30T15:58:08.39Z</time></trkpt><trkpt lat="39.0866417" lon="-0.6443917"><ele>294.0</ele><time>2026-04-30T15:58:09.392Z</time></trkpt><trkpt lat="39.0865917" lon="-0.6442917"><ele>294.0</ele><time>2026-04-30T15:58:10.388Z</time></trkpt><trkpt lat="39.086525" lon="-0.6441883"><ele>293.4</ele><time>2026-04-30T15:58:11.391Z</time></trkpt><trkpt lat="39.0864483" lon="-0.6440833"><ele>292.79999999999995</ele><time>2026-04-30T15:58:12.391Z</time></trkpt><trkpt lat="39.08637" lon="-0.643995"><ele>292.20000000000005</ele><time>2026-04-30T15:58:13.387Z</time></trkpt><trkpt lat="39.0862833" lon="-0.6439417"><ele>291.6</ele><time>2026-04-30T15:58:14.387Z</time></trkpt><trkpt lat="39.0861867" lon="-0.6439117"><ele>291.0</ele><time>2026-04-30T15:58:15.388Z</time></trkpt><trkpt lat="39.0860867" lon="-0.643885"><ele>291.0</ele><time>2026-04-30T15:58:16.389Z</time></trkpt><trkpt lat="39.0859933" lon="-0.6438467"><ele>291.0</ele><time>2026-04-30T15:58:17.391Z</time></trkpt><trkpt lat="39.0859133" lon="-0.6437917"><ele>291.0</ele><time>2026-04-30T15:58:18.397Z</time></trkpt><trkpt lat="39.0858383" lon="-0.6437217"><ele>291.0</ele><time>2026-04-30T15:58:19.389Z</time></trkpt><trkpt lat="39.0857617" lon="-0.6436317"><ele>291.0</ele><time>2026-04-30T15:58:20.388Z</time></trkpt><trkpt lat="39.0856767" lon="-0.6435267"><ele>288.75</ele><time>2026-04-30T15:58:21.388Z</time></trkpt><trkpt lat="39.0855717" lon="-0.6434233"><ele>286.5</ele><time>2026-04-30T15:58:22.388Z</time></trkpt><trkpt lat="39.0854567" lon="-0.6433183"><ele>284.25</ele><time>2026-04-30T15:58:23.394Z</time></trkpt><trkpt lat="39.0853433" lon="-0.6432117"><ele>282.0</ele><time>2026-04-30T15:58:24.39Z</time></trkpt><trkpt lat="39.0852367" lon="-0.6430983"><ele>282.0</ele><time>2026-04-30T15:58:25.394Z</time></trkpt><trkpt lat="39.08514" lon="-0.64297"><ele>282.0</ele><time>2026-04-30T15:58:26.389Z</time></trkpt><trkpt lat="39.0850467" lon="-0.64283"><ele>282.0</ele><time>2026-04-30T15:58:27.392Z</time></trkpt><trkpt lat="39.0849517" lon="-0.64268"><ele>282.0</ele><time>2026-04-30T15:58:28.392Z</time></trkpt><trkpt lat="39.08485" lon="-0.64253"><ele>281.5</ele><time>2026-04-30T15:58:29.387Z</time></trkpt><trkpt lat="39.0847533" lon="-0.642385"><ele>281.0</ele><time>2026-04-30T15:58:30.388Z</time></trkpt><trkpt lat="39.084665" lon="-0.642235"><ele>280.5</ele><time>2026-04-30T15:58:31.388Z</time></trkpt><trkpt lat="39.084585" lon="-0.64208"><ele>280.0</ele><time>2026-04-30T15:58:32.39Z</time></trkpt><trkpt lat="39.0845083" lon="-0.641925"><ele>281.0</ele><time>2026-04-30T15:58:33.39Z</time></trkpt><trkpt lat="39.084425" lon="-0.6417767"><ele>282.0</ele><time>2026-04-30T15:58:34.389Z</time></trkpt><trkpt lat="39.0843333" lon="-0.641635"><ele>283.0</ele><time>2026-04-30T15:58:35.387Z</time></trkpt><trkpt lat="39.0842417" lon="-0.6414967"><ele>284.0</ele><time>2026-04-30T15:58:36.384Z</time></trkpt><trkpt lat="39.084145" lon="-0.6413633"><ele>283.25</ele><time>2026-04-30T15:58:37.385Z</time></trkpt><trkpt lat="39.084045" lon="-0.6412383"><ele>282.5</ele><time>2026-04-30T15:58:38.388Z</time></trkpt><trkpt lat="39.08394" lon="-0.64112"><ele>281.75</ele><time>2026-04-30T15:58:39.396Z</time></trkpt><trkpt lat="39.0838333" lon="-0.641"><ele>281.0</ele><time>2026-04-30T15:58:40.388Z</time></trkpt><trkpt lat="39.08372" lon="-0.640875"><ele>283.33333333333337</ele><time>2026-04-30T15:58:41.388Z</time></trkpt><trkpt lat="39.0836017" lon="-0.640745"><ele>285.6666666666667</ele><time>2026-04-30T15:58:42.385Z</time></trkpt><trkpt lat="39.08348" lon="-0.6406017"><ele>288.0</ele><time>2026-04-30T15:58:43.389Z</time></trkpt><trkpt lat="39.0833517" lon="-0.6404533"><ele>287.3333333333333</ele><time>2026-04-30T15:58:44.391Z</time></trkpt><trkpt lat="39.0832233" lon="-0.640305"><ele>286.66666666666663</ele><time>2026-04-30T15:58:45.394Z</time></trkpt><trkpt lat="39.0831033" lon="-0.6401667"><ele>286.0</ele><time>2026-04-30T15:58:46.385Z</time></trkpt><trkpt lat="39.08299" lon="-0.6400383"><ele>287.0</ele><time>2026-04-30T15:58:47.387Z</time></trkpt><trkpt lat="39.082885" lon="-0.63992"><ele>288.0</ele><time>2026-04-30T15:58:48.388Z</time></trkpt><trkpt lat="39.0827883" lon="-0.6398183"><ele>289.0</ele><time>2026-04-30T15:58:49.392Z</time></trkpt><trkpt lat="39.0827017" lon="-0.639725"><ele>290.0</ele><time>2026-04-30T15:58:50.387Z</time></trkpt><trkpt lat="39.082625" lon="-0.6396267"><ele>290.0</ele><time>2026-04-30T15:58:51.387Z</time></trkpt><trkpt lat="39.082555" lon="-0.6395117"><ele>290.0</ele><time>2026-04-30T15:58:52.389Z</time></trkpt><trkpt lat="39.0824917" lon="-0.639385"><ele>290.0</ele><time>2026-04-30T15:58:53.395Z</time></trkpt><trkpt lat="39.0824367" lon="-0.63926"><ele>290.0</ele><time>2026-04-30T15:58:54.385Z</time></trkpt><trkpt lat="39.0823833" lon="-0.6391483"><ele>290.0</ele><time>2026-04-30T15:58:55.389Z</time></trkpt><trkpt lat="39.082335" lon="-0.6390483"><ele>288.83333333333337</ele><time>2026-04-30T15:58:56.387Z</time></trkpt><trkpt lat="39.0822867" lon="-0.6389717"><ele>287.6666666666667</ele><time>2026-04-30T15:58:57.387Z</time></trkpt><trkpt lat="39.0822267" lon="-0.6389167"><ele>286.5</ele><time>2026-04-30T15:58:58.386Z</time></trkpt><trkpt lat="39.082155" lon="-0.6388817"><ele>285.3333333333333</ele><time>2026-04-30T15:58:59.389Z</time></trkpt><trkpt lat="39.0820683" lon="-0.6388583"><ele>284.16666666666663</ele><time>2026-04-30T15:59:00.395Z</time></trkpt><trkpt lat="39.081965" lon="-0.6388417"><ele>283.0</ele><time>2026-04-30T15:59:01.387Z</time></trkpt><trkpt lat="39.08184" lon="-0.638825"><ele>283.0</ele><time>2026-04-30T15:59:02.393Z</time></trkpt><trkpt lat="39.0817033" lon="-0.6388"><ele>283.0</ele><time>2026-04-30T15:59:03.388Z</time></trkpt><trkpt lat="39.0815717" lon="-0.6387767"><ele>283.0</ele><time>2026-04-30T15:59:04.386Z</time></trkpt><trkpt lat="39.0814467" lon="-0.6387567"><ele>283.0</ele><time>2026-04-30T15:59:05.387Z</time></trkpt><trkpt lat="39.0813267" lon="-0.6387433"><ele>282.0</ele><time>2026-04-30T15:59:06.384Z</time></trkpt><trkpt lat="39.08122" lon="-0.6387567"><ele>281.0</ele><time>2026-04-30T15:59:07.394Z</time></trkpt><trkpt lat="39.08113" lon="-0.6388083"><ele>280.0</ele><time>2026-04-30T15:59:08.385Z</time></trkpt><trkpt lat="39.0810333" lon="-0.63889"><ele>279.0</ele><time>2026-04-30T15:59:09.389Z</time></trkpt><trkpt lat="39.0809367" lon="-0.6389717"><ele>278.0</ele><time>2026-04-30T15:59:10.385Z</time></trkpt><trkpt lat="39.0808433" lon="-0.6390517"><ele>277.33333333333337</ele><time>2026-04-30T15:59:11.389Z</time></trkpt><trkpt lat="39.0807583" lon="-0.639115"><ele>276.6666666666667</ele><time>2026-04-30T15:59:12.392Z</time></trkpt><trkpt lat="39.0806867" lon="-0.6391667"><ele>276.0</ele><time>2026-04-30T15:59:13.388Z</time></trkpt><trkpt lat="39.0806233" lon="-0.6392017"><ele>275.3333333333333</ele><time>2026-04-30T15:59:14.386Z</time></trkpt><trkpt lat="39.0805483" lon="-0.6392333"><ele>274.66666666666663</ele><time>2026-04-30T15:59:16.386Z</time></trkpt><trkpt lat="39.0804517" lon="-0.639175"><ele>274.0</ele><time>2026-04-30T15:59:19.39Z</time></trkpt><trkpt lat="39.0804" lon="-0.6391167"><ele>274.0</ele><time>2026-04-30T15:59:20.391Z</time></trkpt><trkpt lat="39.0803433" lon="-0.6390317"><ele>274.0</ele><time>2026-04-30T15:59:21.391Z</time></trkpt><trkpt lat="39.0802767" lon="-0.6389267"><ele>274.0</ele><time>2026-04-30T15:59:22.389Z</time></trkpt><trkpt lat="39.0801983" lon="-0.6388"><ele>274.0</ele><time>2026-04-30T15:59:23.391Z</time></trkpt><trkpt lat="39.0801067" lon="-0.6386683"><ele>274.0</ele><time>2026-04-30T15:59:24.39Z</time></trkpt><trkpt lat="39.0800067" lon="-0.638525"><ele>274.0</ele><time>2026-04-30T15:59:25.385Z</time></trkpt><trkpt lat="39.079905" lon="-0.6383767"><ele>274.0</ele><time>2026-04-30T15:59:26.386Z</time></trkpt><trkpt lat="39.0798033" lon="-0.6382333"><ele>272.75</ele><time>2026-04-30T15:59:27.39Z</time></trkpt><trkpt lat="39.0797033" lon="-0.6381017"><ele>271.5</ele><time>2026-04-30T15:59:28.384Z</time></trkpt><trkpt lat="39.0796133" lon="-0.6379617"><ele>270.25</ele><time>2026-04-30T15:59:29.391Z</time></trkpt><trkpt lat="39.0795467" lon="-0.6378033"><ele>269.0</ele><time>2026-04-30T15:59:30.391Z</time></trkpt><trkpt lat="39.0795117" lon="-0.637625"><ele>266.5</ele><time>2026-04-30T15:59:31.39Z</time></trkpt><trkpt lat="39.0795217" lon="-0.63744"><ele>264.0</ele><time>2026-04-30T15:59:32.385Z</time></trkpt><trkpt lat="39.0795667" lon="-0.6372767"><ele>261.5</ele><time>2026-04-30T15:59:33.386Z</time></trkpt><trkpt lat="39.0796533" lon="-0.6371433"><ele>259.0</ele><time>2026-04-30T15:59:34.384Z</time></trkpt><trkpt lat="39.0797717" lon="-0.6370617"><ele>259.0</ele><time>2026-04-30T15:59:35.39Z</time></trkpt><trkpt lat="39.0799083" lon="-0.6370317"><ele>259.0</ele><time>2026-04-30T15:59:36.386Z</time></trkpt><trkpt lat="39.0800633" lon="-0.6369967"><ele>259.0</ele><time>2026-04-30T15:59:37.389Z</time></trkpt><trkpt lat="39.0802067" lon="-0.6369167"><ele>256.5</ele><time>2026-04-30T15:59:38.386Z</time></trkpt><trkpt lat="39.0803383" lon="-0.6368133"><ele>254.0</ele><time>2026-04-30T15:59:39.391Z</time></trkpt><trkpt lat="39.080455" lon="-0.6366917"><ele>251.5</ele><time>2026-04-30T15:59:40.387Z</time></trkpt><trkpt lat="39.0805583" lon="-0.6365683"><ele>249.0</ele><time>2026-04-30T15:59:41.385Z</time></trkpt><trkpt lat="39.0806517" lon="-0.6364667"><ele>249.0</ele><time>2026-04-30T15:59:42.387Z</time></trkpt><trkpt lat="39.08075" lon="-0.636405"><ele>249.0</ele><time>2026-04-30T15:59:43.385Z</time></trkpt><trkpt lat="39.0808383" lon="-0.6363867"><ele>249.0</ele><time>2026-04-30T15:59:44.384Z</time></trkpt><trkpt lat="39.080935" lon="-0.6364817"><ele>249.0</ele><time>2026-04-30T15:59:45.39Z</time></trkpt><trkpt lat="39.0810167" lon="-0.6366117"><ele>249.0</ele><time>2026-04-30T15:59:46.386Z</time></trkpt><trkpt lat="39.0811183" lon="-0.6367383"><ele>249.0</ele><time>2026-04-30T15:59:47.387Z</time></trkpt><trkpt lat="39.0812583" lon="-0.6368233"><ele>249.0</ele><time>2026-04-30T15:59:48.384Z</time></trkpt><trkpt lat="39.0814067" lon="-0.6368783"><ele>249.0</ele><time>2026-04-30T15:59:49.383Z</time></trkpt><trkpt lat="39.0815433" lon="-0.6369033"><ele>249.0</ele><time>2026-04-30T15:59:50.386Z</time></trkpt><trkpt lat="39.0816717" lon="-0.6368883"><ele>249.0</ele><time>2026-04-30T15:59:51.386Z</time></trkpt><trkpt lat="39.0817733" lon="-0.636815"><ele>249.0</ele><time>2026-04-30T15:59:52.388Z</time></trkpt><trkpt lat="39.08184" lon="-0.6366833"><ele>248.66666666666669</ele><time>2026-04-30T15:59:53.387Z</time></trkpt><trkpt lat="39.0818683" lon="-0.6364933"><ele>248.33333333333334</ele><time>2026-04-30T15:59:54.385Z</time></trkpt><trkpt lat="39.081885" lon="-0.6362633"><ele>248.0</ele><time>2026-04-30T15:59:55.386Z</time></trkpt><trkpt lat="39.0819183" lon="-0.63604"><ele>243.0</ele><time>2026-04-30T15:59:56.391Z</time></trkpt><trkpt lat="39.0819433" lon="-0.6358117"><ele>238.0</ele><time>2026-04-30T15:59:57.384Z</time></trkpt><trkpt lat="39.081935" lon="-0.6355933"><ele>233.0</ele><time>2026-04-30T15:59:58.391Z</time></trkpt><trkpt lat="39.08191" lon="-0.6353817"><ele>229.0</ele><time>2026-04-30T15:59:59.39Z</time></trkpt><trkpt lat="39.0819017" lon="-0.6351767"><ele>225.0</ele><time>2026-04-30T16:00:00.388Z</time></trkpt><trkpt lat="39.081925" lon="-0.6349867"><ele>221.0</ele><time>2026-04-30T16:00:01.389Z</time></trkpt><trkpt lat="39.0819767" lon="-0.63483"><ele>217.0</ele><time>2026-04-30T16:00:02.387Z</time></trkpt><trkpt lat="39.08205" lon="-0.6347217"><ele>217.0</ele><time>2026-04-30T16:00:03.389Z</time></trkpt><trkpt lat="39.082145" lon="-0.634675"><ele>217.0</ele><time>2026-04-30T16:00:04.385Z</time></trkpt><trkpt lat="39.0822617" lon="-0.6347"><ele>217.0</ele><time>2026-04-30T16:00:05.387Z</time></trkpt><trkpt lat="39.0823917" lon="-0.6347983"><ele>217.0</ele><time>2026-04-30T16:00:06.387Z</time></trkpt><trkpt lat="39.0825283" lon="-0.6348567"><ele>221.33333333333331</ele><time>2026-04-30T16:00:07.387Z</time></trkpt><trkpt lat="39.0826833" lon="-0.63487"><ele>225.66666666666669</ele><time>2026-04-30T16:00:08.389Z</time></trkpt><trkpt lat="39.08283" lon="-0.63483"><ele>230.0</ele><time>2026-04-30T16:00:09.387Z</time></trkpt><trkpt lat="39.0829683" lon="-0.6347417"><ele>230.0</ele><time>2026-04-30T16:00:10.385Z</time></trkpt><trkpt lat="39.0830967" lon="-0.6346567"><ele>230.0</ele><time>2026-04-30T16:00:11.39Z</time></trkpt><trkpt lat="39.08322" lon="-0.6345917"><ele>230.0</ele><time>2026-04-30T16:00:12.391Z</time></trkpt><trkpt lat="39.0833333" lon="-0.6345767"><ele>230.0</ele><time>2026-04-30T16:00:13.387Z</time></trkpt><trkpt lat="39.08344" lon="-0.6346133"><ele>227.75</ele><time>2026-04-30T16:00:14.387Z</time></trkpt><trkpt lat="39.0835417" lon="-0.6346833"><ele>225.5</ele><time>2026-04-30T16:00:15.386Z</time></trkpt><trkpt lat="39.0836367" lon="-0.6347683"><ele>223.25</ele><time>2026-04-30T16:00:16.386Z</time></trkpt><trkpt lat="39.0836983" lon="-0.63488"><ele>221.0</ele><time>2026-04-30T16:00:17.388Z</time></trkpt><trkpt lat="39.0837067" lon="-0.63504"><ele>221.0</ele><time>2026-04-30T16:00:18.391Z</time></trkpt><trkpt lat="39.0836883" lon="-0.6352233"><ele>221.0</ele><time>2026-04-30T16:00:19.386Z</time></trkpt><trkpt lat="39.0836617" lon="-0.6354183"><ele>221.0</ele><time>2026-04-30T16:00:20.391Z</time></trkpt><trkpt lat="39.0836367" lon="-0.6356067"><ele>221.0</ele><time>2026-04-30T16:00:21.391Z</time></trkpt><trkpt lat="39.08361" lon="-0.6357667"><ele>222.60000000000002</ele><time>2026-04-30T16:00:22.391Z</time></trkpt><trkpt lat="39.0835983" lon="-0.6359133"><ele>224.20000000000002</ele><time>2026-04-30T16:00:23.396Z</time></trkpt><trkpt lat="39.0836067" lon="-0.6360417"><ele>225.79999999999998</ele><time>2026-04-30T16:00:24.387Z</time></trkpt><trkpt lat="39.08365" lon="-0.6361367"><ele>227.39999999999998</ele><time>2026-04-30T16:00:25.386Z</time></trkpt><trkpt lat="39.0837383" lon="-0.636145"><ele>229.0</ele><time>2026-04-30T16:00:26.388Z</time></trkpt><trkpt lat="39.0838267" lon="-0.6360833"><ele>229.0</ele><time>2026-04-30T16:00:27.387Z</time></trkpt><trkpt lat="39.0838717" lon="-0.6359767"><ele>229.0</ele><time>2026-04-30T16:00:28.394Z</time></trkpt><trkpt lat="39.083875" lon="-0.6358267"><ele>229.0</ele><time>2026-04-30T16:00:29.388Z</time></trkpt><trkpt lat="39.0838717" lon="-0.6356517"><ele>229.0</ele><time>2026-04-30T16:00:30.388Z</time></trkpt><trkpt lat="39.0839" lon="-0.6354933"><ele>229.0</ele><time>2026-04-30T16:00:31.39Z</time></trkpt><trkpt lat="39.083975" lon="-0.63533"><ele>229.0</ele><time>2026-04-30T16:00:32.393Z</time></trkpt><trkpt lat="39.0840617" lon="-0.6351817"><ele>229.0</ele><time>2026-04-30T16:00:33.39Z</time></trkpt><trkpt lat="39.084145" lon="-0.6350217"><ele>229.0</ele><time>2026-04-30T16:00:34.387Z</time></trkpt><trkpt lat="39.0842" lon="-0.63484"><ele>221.33333333333331</ele><time>2026-04-30T16:00:35.399Z</time></trkpt><trkpt lat="39.0842067" lon="-0.634635"><ele>213.66666666666669</ele><time>2026-04-30T16:00:36.385Z</time></trkpt><trkpt lat="39.0841783" lon="-0.63444"><ele>206.0</ele><time>2026-04-30T16:00:37.386Z</time></trkpt><trkpt lat="39.084115" lon="-0.6342617"><ele>205.5</ele><time>2026-04-30T16:00:38.389Z</time></trkpt><trkpt lat="39.0840233" lon="-0.634115"><ele>205.0</ele><time>2026-04-30T16:00:39.385Z</time></trkpt><trkpt lat="39.0839167" lon="-0.6340017"><ele>204.5</ele><time>2026-04-30T16:00:40.392Z</time></trkpt><trkpt lat="39.0838167" lon="-0.63389"><ele>204.0</ele><time>2026-04-30T16:00:41.389Z</time></trkpt><trkpt lat="39.0837517" lon="-0.6337683"><ele>198.39999999999998</ele><time>2026-04-30T16:00:42.39Z</time></trkpt><trkpt lat="39.0837183" lon="-0.6336383"><ele>192.8</ele><time>2026-04-30T16:00:43.388Z</time></trkpt><trkpt lat="39.0837467" lon="-0.63351"><ele>187.2</ele><time>2026-04-30T16:00:44.388Z</time></trkpt><trkpt lat="39.0838333" lon="-0.6334417"><ele>181.60000000000002</ele><time>2026-04-30T16:00:45.387Z</time></trkpt><trkpt lat="39.0839467" lon="-0.6334183"><ele>176.0</ele><time>2026-04-30T16:00:46.387Z</time></trkpt><trkpt lat="39.0840867" lon="-0.6334467"><ele>175.75</ele><time>2026-04-30T16:00:47.387Z</time></trkpt><trkpt lat="39.0842167" lon="-0.6334783"><ele>175.5</ele><time>2026-04-30T16:00:48.393Z</time></trkpt><trkpt lat="39.08434" lon="-0.6335083"><ele>175.25</ele><time>2026-04-30T16:00:49.387Z</time></trkpt><trkpt lat="39.084465" lon="-0.6335333"><ele>175.0</ele><time>2026-04-30T16:00:50.389Z</time></trkpt><trkpt lat="39.084575" lon="-0.63358"><ele>178.2</ele><time>2026-04-30T16:00:51.39Z</time></trkpt><trkpt lat="39.0846633" lon="-0.6336667"><ele>181.4</ele><time>2026-04-30T16:00:52.387Z</time></trkpt><trkpt lat="39.0847183" lon="-0.6337783"><ele>184.60000000000002</ele><time>2026-04-30T16:00:53.389Z</time></trkpt><trkpt lat="39.0847533" lon="-0.6339"><ele>187.8</ele><time>2026-04-30T16:00:54.388Z</time></trkpt><trkpt lat="39.08478" lon="-0.6340167"><ele>191.0</ele><time>2026-04-30T16:00:55.389Z</time></trkpt><trkpt lat="39.0847967" lon="-0.6341383"><ele>191.0</ele><time>2026-04-30T16:00:56.387Z</time></trkpt><trkpt lat="39.08483" lon="-0.6342467"><ele>191.0</ele><time>2026-04-30T16:00:57.389Z</time></trkpt><trkpt lat="39.0848867" lon="-0.63434"><ele>191.0</ele><time>2026-04-30T16:00:58.387Z</time></trkpt><trkpt lat="39.0849633" lon="-0.6344033"><ele>191.0</ele><time>2026-04-30T16:00:59.391Z</time></trkpt><trkpt lat="39.0850633" lon="-0.634415"><ele>191.0</ele><time>2026-04-30T16:01:00.385Z</time></trkpt><trkpt lat="39.085165" lon="-0.634385"><ele>187.5</ele><time>2026-04-30T16:01:01.388Z</time></trkpt><trkpt lat="39.0852733" lon="-0.6343283"><ele>184.0</ele><time>2026-04-30T16:01:02.39Z</time></trkpt><trkpt lat="39.085385" lon="-0.634275"><ele>180.5</ele><time>2026-04-30T16:01:03.393Z</time></trkpt><trkpt lat="39.0855" lon="-0.6342267"><ele>177.0</ele><time>2026-04-30T16:01:04.385Z</time></trkpt><trkpt lat="39.0856083" lon="-0.6341583"><ele>177.0</ele><time>2026-04-30T16:01:05.386Z</time></trkpt><trkpt lat="39.0857083" lon="-0.6340567"><ele>177.0</ele><time>2026-04-30T16:01:06.383Z</time></trkpt><trkpt lat="39.0857767" lon="-0.63391"><ele>177.0</ele><time>2026-04-30T16:01:07.388Z</time></trkpt><trkpt lat="39.0858383" lon="-0.63375"><ele>177.0</ele><time>2026-04-30T16:01:08.389Z</time></trkpt><trkpt lat="39.0859017" lon="-0.63359"><ele>172.5</ele><time>2026-04-30T16:01:09.388Z</time></trkpt><trkpt lat="39.0859733" lon="-0.6334317"><ele>168.0</ele><time>2026-04-30T16:01:10.393Z</time></trkpt><trkpt lat="39.0860467" lon="-0.6332817"><ele>163.5</ele><time>2026-04-30T16:01:11.385Z</time></trkpt><trkpt lat="39.08612" lon="-0.6331383"><ele>159.0</ele><time>2026-04-30T16:01:12.39Z</time></trkpt><trkpt lat="39.0861933" lon="-0.633005"><ele>159.0</ele><time>2026-04-30T16:01:13.389Z</time></trkpt><trkpt lat="39.08627" lon="-0.6328933"><ele>159.0</ele><time>2026-04-30T16:01:14.387Z</time></trkpt><trkpt lat="39.0863667" lon="-0.6328"><ele>159.0</ele><time>2026-04-30T16:01:15.39Z</time></trkpt><trkpt lat="39.0864717" lon="-0.6327217"><ele>159.0</ele><time>2026-04-30T16:01:16.387Z</time></trkpt><trkpt lat="39.0865833" lon="-0.6326467"><ele>157.25</ele><time>2026-04-30T16:01:17.387Z</time></trkpt><trkpt lat="39.0866983" lon="-0.6325733"><ele>155.5</ele><time>2026-04-30T16:01:18.388Z</time></trkpt><trkpt lat="39.086815" lon="-0.6325083"><ele>153.75</ele><time>2026-04-30T16:01:19.389Z</time></trkpt><trkpt lat="39.0869367" lon="-0.6324633"><ele>152.0</ele><time>2026-04-30T16:01:20.386Z</time></trkpt><trkpt lat="39.0870617" lon="-0.6324383"><ele>152.0</ele><time>2026-04-30T16:01:21.391Z</time></trkpt><trkpt lat="39.0871883" lon="-0.63243"><ele>152.0</ele><time>2026-04-30T16:01:22.389Z</time></trkpt><trkpt lat="39.0873117" lon="-0.63244"><ele>152.0</ele><time>2026-04-30T16:01:23.385Z</time></trkpt><trkpt lat="39.0874367" lon="-0.6324767"><ele>152.0</ele><time>2026-04-30T16:01:24.386Z</time></trkpt><trkpt lat="39.0875467" lon="-0.6325483"><ele>150.75</ele><time>2026-04-30T16:01:25.387Z</time></trkpt><trkpt lat="39.087625" lon="-0.63265"><ele>149.5</ele><time>2026-04-30T16:01:26.389Z</time></trkpt><trkpt lat="39.0876683" lon="-0.6327817"><ele>148.25</ele><time>2026-04-30T16:01:27.386Z</time></trkpt><trkpt lat="39.0876967" lon="-0.6329283"><ele>147.0</ele><time>2026-04-30T16:01:28.387Z</time></trkpt><trkpt lat="39.087755" lon="-0.63307"><ele>153.0</ele><time>2026-04-30T16:01:29.387Z</time></trkpt><trkpt lat="39.087845" lon="-0.6331983"><ele>159.0</ele><time>2026-04-30T16:01:30.388Z</time></trkpt><trkpt lat="39.0879383" lon="-0.6333367"><ele>165.0</ele><time>2026-04-30T16:01:31.385Z</time></trkpt><trkpt lat="39.0880083" lon="-0.633485"><ele>171.0</ele><time>2026-04-30T16:01:32.389Z</time></trkpt><trkpt lat="39.08806" lon="-0.63365"><ele>175.0</ele><time>2026-04-30T16:01:33.39Z</time></trkpt><trkpt lat="39.0881017" lon="-0.63381"><ele>179.0</ele><time>2026-04-30T16:01:34.386Z</time></trkpt><trkpt lat="39.0881333" lon="-0.633965"><ele>183.0</ele><time>2026-04-30T16:01:35.385Z</time></trkpt><trkpt lat="39.088165" lon="-0.6341133"><ele>187.0</ele><time>2026-04-30T16:01:36.387Z</time></trkpt><trkpt lat="39.0881867" lon="-0.634255"><ele>187.0</ele><time>2026-04-30T16:01:37.386Z</time></trkpt><trkpt lat="39.088195" lon="-0.63439"><ele>187.0</ele><time>2026-04-30T16:01:38.388Z</time></trkpt><trkpt lat="39.0882283" lon="-0.6345"><ele>187.0</ele><time>2026-04-30T16:01:39.384Z</time></trkpt><trkpt lat="39.08827" lon="-0.6345767"><ele>187.0</ele><time>2026-04-30T16:01:40.388Z</time></trkpt><trkpt lat="39.0883567" lon="-0.6346067"><ele>187.0</ele><time>2026-04-30T16:01:41.387Z</time></trkpt><trkpt lat="39.088435" lon="-0.6346033"><ele>187.0</ele><time>2026-04-30T16:01:42.388Z</time></trkpt><trkpt lat="39.0885083" lon="-0.63455"><ele>175.25</ele><time>2026-04-30T16:01:43.383Z</time></trkpt><trkpt lat="39.0885533" lon="-0.6344067"><ele>163.5</ele><time>2026-04-30T16:01:44.385Z</time></trkpt><trkpt lat="39.0885983" lon="-0.6342517"><ele>151.75</ele><time>2026-04-30T16:01:45.389Z</time></trkpt><trkpt lat="39.0886483" lon="-0.6340867"><ele>140.0</ele><time>2026-04-30T16:01:46.389Z</time></trkpt><trkpt lat="39.0887067" lon="-0.6339167"><ele>140.0</ele><time>2026-04-30T16:01:47.386Z</time></trkpt><trkpt lat="39.0887567" lon="-0.6337683"><ele>140.0</ele><time>2026-04-30T16:01:48.383Z</time></trkpt><trkpt lat="39.0888083" lon="-0.63361"><ele>140.0</ele><time>2026-04-30T16:01:49.387Z</time></trkpt><trkpt lat="39.0888633" lon="-0.6334417"><ele>140.0</ele><time>2026-04-30T16:01:50.386Z</time></trkpt><trkpt lat="39.0889183" lon="-0.63327"><ele>137.0</ele><time>2026-04-30T16:01:51.387Z</time></trkpt><trkpt lat="39.0889617" lon="-0.6330917"><ele>134.0</ele><time>2026-04-30T16:01:52.385Z</time></trkpt><trkpt lat="39.0889967" lon="-0.6329117"><ele>131.0</ele><time>2026-04-30T16:01:53.386Z</time></trkpt><trkpt lat="39.08903" lon="-0.6327283"><ele>128.0</ele><time>2026-04-30T16:01:54.386Z</time></trkpt><trkpt lat="39.0890683" lon="-0.632555"><ele>128.75</ele><time>2026-04-30T16:01:55.388Z</time></trkpt><trkpt lat="39.0891067" lon="-0.6323933"><ele>129.5</ele><time>2026-04-30T16:01:56.387Z</time></trkpt><trkpt lat="39.0891467" lon="-0.6322317"><ele>130.25</ele><time>2026-04-30T16:01:57.389Z</time></trkpt><trkpt lat="39.0892083" lon="-0.6320783"><ele>131.0</ele><time>2026-04-30T16:01:58.389Z</time></trkpt><trkpt lat="39.0892983" lon="-0.6319417"><ele>124.5</ele><time>2026-04-30T16:01:59.389Z</time></trkpt><trkpt lat="39.0894033" lon="-0.6318233"><ele>118.0</ele><time>2026-04-30T16:02:00.389Z</time></trkpt><trkpt lat="39.0895117" lon="-0.6317167"><ele>111.5</ele><time>2026-04-30T16:02:01.385Z</time></trkpt><trkpt lat="39.0896317" lon="-0.6316317"><ele>105.0</ele><time>2026-04-30T16:02:02.39Z</time></trkpt><trkpt lat="39.0897583" lon="-0.631565"><ele>105.0</ele><time>2026-04-30T16:02:03.389Z</time></trkpt><trkpt lat="39.0898967" lon="-0.6315033"><ele>105.0</ele><time>2026-04-30T16:02:04.39Z</time></trkpt><trkpt lat="39.0900433" lon="-0.631435"><ele>105.0</ele><time>2026-04-30T16:02:05.391Z</time></trkpt><trkpt lat="39.0901867" lon="-0.6313667"><ele>110.75</ele><time>2026-04-30T16:02:06.387Z</time></trkpt><trkpt lat="39.0903283" lon="-0.6313017"><ele>116.5</ele><time>2026-04-30T16:02:07.387Z</time></trkpt><trkpt lat="39.090465" lon="-0.6312433"><ele>122.25</ele><time>2026-04-30T16:02:08.389Z</time></trkpt><trkpt lat="39.0905967" lon="-0.6311933"><ele>128.0</ele><time>2026-04-30T16:02:09.387Z</time></trkpt><trkpt lat="39.09073" lon="-0.6311583"><ele>127.5</ele><time>2026-04-30T16:02:10.39Z</time></trkpt><trkpt lat="39.0908583" lon="-0.6311517"><ele>127.0</ele><time>2026-04-30T16:02:11.384Z</time></trkpt><trkpt lat="39.0909767" lon="-0.6311767"><ele>126.5</ele><time>2026-04-30T16:02:12.388Z</time></trkpt><trkpt lat="39.0910867" lon="-0.6312383"><ele>126.0</ele><time>2026-04-30T16:02:13.392Z</time></trkpt><trkpt lat="39.0911783" lon="-0.6313233"><ele>126.0</ele><time>2026-04-30T16:02:14.386Z</time></trkpt><trkpt lat="39.09126" lon="-0.63141"><ele>126.0</ele><time>2026-04-30T16:02:15.385Z</time></trkpt><trkpt lat="39.091365" lon="-0.63148"><ele>126.0</ele><time>2026-04-30T16:02:16.388Z</time></trkpt><trkpt lat="39.091485" lon="-0.6315017"><ele>126.0</ele><time>2026-04-30T16:02:17.385Z</time></trkpt><trkpt lat="39.091605" lon="-0.631475"><ele>124.0</ele><time>2026-04-30T16:02:18.392Z</time></trkpt><trkpt lat="39.091725" lon="-0.6314117"><ele>122.0</ele><time>2026-04-30T16:02:19.387Z</time></trkpt><trkpt lat="39.0918333" lon="-0.63134"><ele>120.0</ele><time>2026-04-30T16:02:20.387Z</time></trkpt><trkpt lat="39.0919367" lon="-0.63126"><ele>118.0</ele><time>2026-04-30T16:02:21.387Z</time></trkpt><trkpt lat="39.0920267" lon="-0.6311767"><ele>111.80000000000001</ele><time>2026-04-30T16:02:22.385Z</time></trkpt><trkpt lat="39.092105" lon="-0.63109"><ele>105.60000000000001</ele><time>2026-04-30T16:02:23.388Z</time></trkpt><trkpt lat="39.0921767" lon="-0.6310017"><ele>99.4</ele><time>2026-04-30T16:02:24.388Z</time></trkpt><trkpt lat="39.0922433" lon="-0.6309117"><ele>93.19999999999999</ele><time>2026-04-30T16:02:25.394Z</time></trkpt><trkpt lat="39.092325" lon="-0.6308317"><ele>87.0</ele><time>2026-04-30T16:02:26.385Z</time></trkpt><trkpt lat="39.0924117" lon="-0.6307717"><ele>88.6</ele><time>2026-04-30T16:02:27.388Z</time></trkpt><trkpt lat="39.0924983" lon="-0.63075"><ele>90.19999999999999</ele><time>2026-04-30T16:02:28.388Z</time></trkpt><trkpt lat="39.09258" lon="-0.6307867"><ele>91.8</ele><time>2026-04-30T16:02:29.387Z</time></trkpt><trkpt lat="39.092655" lon="-0.630895"><ele>93.4</ele><time>2026-04-30T16:02:30.392Z</time></trkpt><trkpt lat="39.0927167" lon="-0.63104"><ele>95.0</ele><time>2026-04-30T16:02:31.386Z</time></trkpt><trkpt lat="39.0927733" lon="-0.6311767"><ele>97.5</ele><time>2026-04-30T16:02:32.386Z</time></trkpt><trkpt lat="39.09282" lon="-0.6313217"><ele>100.0</ele><time>2026-04-30T16:02:33.388Z</time></trkpt><trkpt lat="39.0928583" lon="-0.6314617"><ele>102.5</ele><time>2026-04-30T16:02:34.387Z</time></trkpt><trkpt lat="39.09288" lon="-0.63161"><ele>105.0</ele><time>2026-04-30T16:02:35.386Z</time></trkpt><trkpt lat="39.0928783" lon="-0.6317717"><ele>105.0</ele><time>2026-04-30T16:02:36.396Z</time></trkpt><trkpt lat="39.092885" lon="-0.6319183"><ele>105.0</ele><time>2026-04-30T16:02:37.388Z</time></trkpt><trkpt lat="39.0929217" lon="-0.6320433"><ele>105.0</ele><time>2026-04-30T16:02:38.389Z</time></trkpt><trkpt lat="39.09299" lon="-0.6321233"><ele>105.0</ele><time>2026-04-30T16:02:39.388Z</time></trkpt><trkpt lat="39.0930783" lon="-0.6321367"><ele>105.0</ele><time>2026-04-30T16:02:40.388Z</time></trkpt><trkpt lat="39.09318" lon="-0.6321083"><ele>107.0</ele><time>2026-04-30T16:02:41.393Z</time></trkpt><trkpt lat="39.0932883" lon="-0.6320217"><ele>109.0</ele><time>2026-04-30T16:02:42.386Z</time></trkpt><trkpt lat="39.0933833" lon="-0.63193"><ele>111.0</ele><time>2026-04-30T16:02:43.386Z</time></trkpt><trkpt lat="39.09347" lon="-0.63182"><ele>113.0</ele><time>2026-04-30T16:02:44.391Z</time></trkpt><trkpt lat="39.09355" lon="-0.6316933"><ele>107.80000000000001</ele><time>2026-04-30T16:02:45.388Z</time></trkpt><trkpt lat="39.0936217" lon="-0.6315767"><ele>102.60000000000001</ele><time>2026-04-30T16:02:46.39Z</time></trkpt><trkpt lat="39.0936967" lon="-0.6314717"><ele>97.4</ele><time>2026-04-30T16:02:47.388Z</time></trkpt><trkpt lat="39.0937683" lon="-0.6313717"><ele>92.19999999999999</ele><time>2026-04-30T16:02:48.384Z</time></trkpt><trkpt lat="39.09384" lon="-0.6312767"><ele>87.0</ele><time>2026-04-30T16:02:49.383Z</time></trkpt><trkpt lat="39.0939083" lon="-0.63118"><ele>84.8</ele><time>2026-04-30T16:02:50.391Z</time></trkpt><trkpt lat="39.0939767" lon="-0.6310967"><ele>82.6</ele><time>2026-04-30T16:02:51.385Z</time></trkpt><trkpt lat="39.094055" lon="-0.6310333"><ele>80.39999999999999</ele><time>2026-04-30T16:02:52.383Z</time></trkpt><trkpt lat="39.0941483" lon="-0.630995"><ele>78.19999999999999</ele><time>2026-04-30T16:02:53.383Z</time></trkpt><trkpt lat="39.094245" lon="-0.6309783"><ele>76.0</ele><time>2026-04-30T16:02:54.389Z</time></trkpt><trkpt lat="39.0943367" lon="-0.6309867"><ele>76.0</ele><time>2026-04-30T16:02:55.386Z</time></trkpt><trkpt lat="39.0944233" lon="-0.6310233"><ele>76.0</ele><time>2026-04-30T16:02:56.386Z</time></trkpt><trkpt lat="39.0945083" lon="-0.6310667"><ele>76.0</ele><time>2026-04-30T16:02:57.39Z</time></trkpt><trkpt lat="39.09459" lon="-0.6310917"><ele>76.0</ele><time>2026-04-30T16:02:58.384Z</time></trkpt><trkpt lat="39.0946733" lon="-0.631085"><ele>76.0</ele><time>2026-04-30T16:02:59.388Z</time></trkpt><trkpt lat="39.0947183" lon="-0.6310133"><ele>76.0</ele><time>2026-04-30T16:03:00.385Z</time></trkpt><trkpt lat="39.0947233" lon="-0.6309"><ele>76.0</ele><time>2026-04-30T16:03:01.385Z</time></trkpt><trkpt lat="39.0946783" lon="-0.6308"><ele>76.0</ele><time>2026-04-30T16:03:02.385Z</time></trkpt><trkpt lat="39.09459" lon="-0.630725"><ele>76.0</ele><time>2026-04-30T16:03:03.386Z</time></trkpt><trkpt lat="39.09448" lon="-0.6306817"><ele>76.0</ele><time>2026-04-30T16:03:04.386Z</time></trkpt><trkpt lat="39.0943717" lon="-0.6306617"><ele>76.0</ele><time>2026-04-30T16:03:05.388Z</time></trkpt><trkpt lat="39.0942683" lon="-0.6306567"><ele>76.0</ele><time>2026-04-30T16:03:06.385Z</time></trkpt><trkpt lat="39.09417" lon="-0.630665"><ele>76.0</ele><time>2026-04-30T16:03:07.384Z</time></trkpt><trkpt lat="39.0940633" lon="-0.6306883"><ele>76.0</ele><time>2026-04-30T16:03:08.387Z</time></trkpt><trkpt lat="39.0939683" lon="-0.630725"><ele>76.0</ele><time>2026-04-30T16:03:09.385Z</time></trkpt><trkpt lat="39.0938733" lon="-0.63077"><ele>76.0</ele><time>2026-04-30T16:03:10.387Z</time></trkpt><trkpt lat="39.0937767" lon="-0.6308183"><ele>75.83333333333333</ele><time>2026-04-30T16:03:11.385Z</time></trkpt><trkpt lat="39.09369" lon="-0.630865"><ele>75.66666666666666</ele><time>2026-04-30T16:03:12.386Z</time></trkpt><trkpt lat="39.09361" lon="-0.6309083"><ele>75.5</ele><time>2026-04-30T16:03:13.388Z</time></trkpt><trkpt lat="39.09353" lon="-0.630935"><ele>75.33333333333333</ele><time>2026-04-30T16:03:14.386Z</time></trkpt><trkpt lat="39.09345" lon="-0.6309333"><ele>75.16666666666667</ele><time>2026-04-30T16:03:15.385Z</time></trkpt><trkpt lat="39.0933733" lon="-0.6309"><ele>75.0</ele><time>2026-04-30T16:03:16.389Z</time></trkpt><trkpt lat="39.0933067" lon="-0.630845"><ele>75.0</ele><time>2026-04-30T16:03:17.386Z</time></trkpt><trkpt lat="39.0932483" lon="-0.630775"><ele>75.0</ele><time>2026-04-30T16:03:18.384Z</time></trkpt><trkpt lat="39.0932133" lon="-0.6306833"><ele>75.0</ele><time>2026-04-30T16:03:19.383Z</time></trkpt><trkpt lat="39.0931983" lon="-0.6305867"><ele>75.0</ele><time>2026-04-30T16:03:20.388Z</time></trkpt><trkpt lat="39.0932333" lon="-0.6304567"><ele>75.0</ele><time>2026-04-30T16:03:21.382Z</time></trkpt><trkpt lat="39.0932783" lon="-0.6303367"><ele>75.0</ele><time>2026-04-30T16:03:22.387Z</time></trkpt><trkpt lat="39.0933333" lon="-0.63022"><ele>74.16666666666667</ele><time>2026-04-30T16:03:23.383Z</time></trkpt><trkpt lat="39.0933783" lon="-0.6301217"><ele>73.33333333333333</ele><time>2026-04-30T16:03:24.387Z</time></trkpt><trkpt lat="39.0934117" lon="-0.6300317"><ele>72.5</ele><time>2026-04-30T16:03:25.384Z</time></trkpt><trkpt lat="39.0934367" lon="-0.629935"><ele>71.66666666666666</ele><time>2026-04-30T16:03:26.39Z</time></trkpt><trkpt lat="39.0934417" lon="-0.6298317"><ele>70.83333333333333</ele><time>2026-04-30T16:03:27.385Z</time></trkpt><trkpt lat="39.09343" lon="-0.6297083"><ele>70.0</ele><time>2026-04-30T16:03:28.385Z</time></trkpt><trkpt lat="39.0933933" lon="-0.62958"><ele>70.25</ele><time>2026-04-30T16:03:29.386Z</time></trkpt><trkpt lat="39.09331" lon="-0.6294583"><ele>70.5</ele><time>2026-04-30T16:03:30.387Z</time></trkpt><trkpt lat="39.0932133" lon="-0.629345"><ele>70.75</ele><time>2026-04-30T16:03:31.388Z</time></trkpt><trkpt lat="39.09311" lon="-0.6292417"><ele>71.0</ele><time>2026-04-30T16:03:32.393Z</time></trkpt><trkpt lat="39.0930083" lon="-0.6291467"><ele>71.0</ele><time>2026-04-30T16:03:33.387Z</time></trkpt><trkpt lat="39.0929117" lon="-0.62906"><ele>71.0</ele><time>2026-04-30T16:03:34.388Z</time></trkpt><trkpt lat="39.092815" lon="-0.6289817"><ele>71.0</ele><time>2026-04-30T16:03:35.39Z</time></trkpt><trkpt lat="39.0927183" lon="-0.628905"><ele>71.0</ele><time>2026-04-30T16:03:36.395Z</time></trkpt><trkpt lat="39.092625" lon="-0.6288283"><ele>71.0</ele><time>2026-04-30T16:03:37.388Z</time></trkpt><trkpt lat="39.0925317" lon="-0.628765"><ele>71.0</ele><time>2026-04-30T16:03:38.39Z</time></trkpt><trkpt lat="39.0924333" lon="-0.62872"><ele>71.0</ele><time>2026-04-30T16:03:39.389Z</time></trkpt><trkpt lat="39.092335" lon="-0.6286917"><ele>71.0</ele><time>2026-04-30T16:03:40.389Z</time></trkpt><trkpt lat="39.0922417" lon="-0.6286683"><ele>71.0</ele><time>2026-04-30T16:03:41.39Z</time></trkpt><trkpt lat="39.09216" lon="-0.6286517"><ele>68.16666666666667</ele><time>2026-04-30T16:03:42.387Z</time></trkpt><trkpt lat="39.09209" lon="-0.628635"><ele>65.33333333333334</ele><time>2026-04-30T16:03:43.388Z</time></trkpt><trkpt lat="39.091995" lon="-0.628615"><ele>62.5</ele><time>2026-04-30T16:03:45.389Z</time></trkpt><trkpt lat="39.0919367" lon="-0.628565"><ele>59.66666666666667</ele><time>2026-04-30T16:03:48.388Z</time></trkpt><trkpt lat="39.0920317" lon="-0.6285317"><ele>56.833333333333336</ele><time>2026-04-30T16:03:51.389Z</time></trkpt><trkpt lat="39.0921033" lon="-0.628525"><ele>54.0</ele><time>2026-04-30T16:03:52.389Z</time></trkpt><trkpt lat="39.0922117" lon="-0.628545"><ele>54.0</ele><time>2026-04-30T16:03:53.387Z</time></trkpt><trkpt lat="39.0923167" lon="-0.62857"><ele>54.00000000000001</ele><time>2026-04-30T16:03:54.392Z</time></trkpt><trkpt lat="39.092425" lon="-0.628605"><ele>54.00000000000001</ele><time>2026-04-30T16:03:55.39Z</time></trkpt><trkpt lat="39.09252" lon="-0.628645"><ele>54.0</ele><time>2026-04-30T16:03:56.387Z</time></trkpt><trkpt lat="39.0926167" lon="-0.6286817"><ele>54.0</ele><time>2026-04-30T16:03:57.384Z</time></trkpt><trkpt lat="39.0927133" lon="-0.6287167"><ele>57.400000000000006</ele><time>2026-04-30T16:03:58.393Z</time></trkpt><trkpt lat="39.0928067" lon="-0.62875"><ele>60.800000000000004</ele><time>2026-04-30T16:03:59.388Z</time></trkpt><trkpt lat="39.0929033" lon="-0.628785"><ele>64.19999999999999</ele><time>2026-04-30T16:04:00.388Z</time></trkpt><trkpt lat="39.0929983" lon="-0.6288167"><ele>67.6</ele><time>2026-04-30T16:04:01.386Z</time></trkpt><trkpt lat="39.0930933" lon="-0.628845"><ele>71.0</ele><time>2026-04-30T16:04:02.388Z</time></trkpt><trkpt lat="39.0931883" lon="-0.62887"><ele>69.33333333333334</ele><time>2026-04-30T16:04:03.387Z</time></trkpt><trkpt lat="39.093275" lon="-0.628895"><ele>67.66666666666667</ele><time>2026-04-30T16:04:04.387Z</time></trkpt><trkpt lat="39.0933583" lon="-0.6289167"><ele>66.0</ele><time>2026-04-30T16:04:05.387Z</time></trkpt><trkpt lat="39.0934317" lon="-0.6289283"><ele>64.33333333333333</ele><time>2026-04-30T16:04:06.387Z</time></trkpt><trkpt lat="39.093505" lon="-0.6289533"><ele>62.666666666666664</ele><time>2026-04-30T16:04:07.384Z</time></trkpt><trkpt lat="39.0935667" lon="-0.6289883"><ele>61.0</ele><time>2026-04-30T16:04:08.387Z</time></trkpt><trkpt lat="39.0936233" lon="-0.62903"><ele>61.0</ele><time>2026-04-30T16:04:09.386Z</time></trkpt><trkpt lat="39.0937333" lon="-0.6290883"><ele>61.0</ele><time>2026-04-30T16:04:11.385Z</time></trkpt><trkpt lat="39.0938383" lon="-0.6290883"><ele>61.0</ele><time>2026-04-30T16:04:13.384Z</time></trkpt><trkpt lat="39.0939417" lon="-0.629035"><ele>61.0</ele><time>2026-04-30T16:04:15.385Z</time></trkpt><trkpt lat="39.0940467" lon="-0.6289467"><ele>59.99999999999999</ele><time>2026-04-30T16:04:17.386Z</time></trkpt><trkpt lat="39.0941083" lon="-0.6288883"><ele>59.0</ele><time>2026-04-30T16:04:18.384Z</time></trkpt><trkpt lat="39.0941633" lon="-0.6288267"><ele>58.0</ele><time>2026-04-30T16:04:19.385Z</time></trkpt><trkpt lat="39.0942317" lon="-0.6287717"><ele>57.0</ele><time>2026-04-30T16:04:20.389Z</time></trkpt><trkpt lat="39.0942933" lon="-0.6287217"><ele>55.99999999999999</ele><time>2026-04-30T16:04:21.383Z</time></trkpt><trkpt lat="39.0943983" lon="-0.62865"><ele>55.0</ele><time>2026-04-30T16:04:23.384Z</time></trkpt><trkpt lat="39.0944717" lon="-0.62856"><ele>53.6</ele><time>2026-04-30T16:04:25.388Z</time></trkpt><trkpt lat="39.0944583" lon="-0.6284117"><ele>52.2</ele><time>2026-04-30T16:04:27.389Z</time></trkpt><trkpt lat="39.0944183" lon="-0.6283233"><ele>50.8</ele><time>2026-04-30T16:04:28.387Z</time></trkpt><trkpt lat="39.0943833" lon="-0.628205"><ele>49.4</ele><time>2026-04-30T16:04:29.391Z</time></trkpt><trkpt lat="39.094345" lon="-0.6280783"><ele>48.0</ele><time>2026-04-30T16:04:30.388Z</time></trkpt><trkpt lat="39.0943033" lon="-0.627945"><ele>48.0</ele><time>2026-04-30T16:04:31.394Z</time></trkpt><trkpt lat="39.094265" lon="-0.6278133"><ele>48.0</ele><time>2026-04-30T16:04:32.387Z</time></trkpt><trkpt lat="39.09423" lon="-0.627685"><ele>48.0</ele><time>2026-04-30T16:04:33.391Z</time></trkpt><trkpt lat="39.0941933" lon="-0.6275583"><ele>48.0</ele><time>2026-04-30T16:04:34.388Z</time></trkpt><trkpt lat="39.0941517" lon="-0.6274217"><ele>48.0</ele><time>2026-04-30T16:04:35.394Z</time></trkpt><trkpt lat="39.0940983" lon="-0.6272833"><ele>48.25</ele><time>2026-04-30T16:04:36.385Z</time></trkpt><trkpt lat="39.09403" lon="-0.6271467"><ele>48.5</ele><time>2026-04-30T16:04:37.388Z</time></trkpt><trkpt lat="39.0939433" lon="-0.627025"><ele>48.75</ele><time>2026-04-30T16:04:38.385Z</time></trkpt><trkpt lat="39.093825" lon="-0.626925"><ele>49.0</ele><time>2026-04-30T16:04:39.384Z</time></trkpt><trkpt lat="39.0936783" lon="-0.6268617"><ele>48.33333333333333</ele><time>2026-04-30T16:04:40.39Z</time></trkpt><trkpt lat="39.0935117" lon="-0.6268383"><ele>47.666666666666664</ele><time>2026-04-30T16:04:41.387Z</time></trkpt><trkpt lat="39.09333" lon="-0.6268433"><ele>47.0</ele><time>2026-04-30T16:04:42.388Z</time></trkpt><trkpt lat="39.0931417" lon="-0.6268517"><ele>47.0</ele><time>2026-04-30T16:04:43.396Z</time></trkpt><trkpt lat="39.092955" lon="-0.6268483"><ele>47.0</ele><time>2026-04-30T16:04:44.389Z</time></trkpt><trkpt lat="39.09277" lon="-0.6268233"><ele>47.0</ele><time>2026-04-30T16:04:45.391Z</time></trkpt><trkpt lat="39.0925967" lon="-0.6267667"><ele>47.0</ele><time>2026-04-30T16:04:46.388Z</time></trkpt><trkpt lat="39.0924367" lon="-0.6266783"><ele>47.0</ele><time>2026-04-30T16:04:47.388Z</time></trkpt><trkpt lat="39.0922817" lon="-0.6265567"><ele>47.0</ele><time>2026-04-30T16:04:48.389Z</time></trkpt><trkpt lat="39.092125" lon="-0.6264133"><ele>47.33333333333333</ele><time>2026-04-30T16:04:49.388Z</time></trkpt><trkpt lat="39.0919633" lon="-0.6262567"><ele>47.666666666666664</ele><time>2026-04-30T16:04:50.39Z</time></trkpt><trkpt lat="39.0917983" lon="-0.6260967"><ele>48.0</ele><time>2026-04-30T16:04:51.387Z</time></trkpt><trkpt lat="39.0916333" lon="-0.6259417"><ele>47.0</ele><time>2026-04-30T16:04:52.391Z</time></trkpt><trkpt lat="39.0914667" lon="-0.6257867"><ele>46.0</ele><time>2026-04-30T16:04:53.393Z</time></trkpt><trkpt lat="39.0913083" lon="-0.6256233"><ele>45.0</ele><time>2026-04-30T16:04:54.388Z</time></trkpt><trkpt lat="39.09116" lon="-0.6254617"><ele>44.666666666666664</ele><time>2026-04-30T16:04:55.394Z</time></trkpt><trkpt lat="39.091035" lon="-0.625295"><ele>44.33333333333333</ele><time>2026-04-30T16:04:56.389Z</time></trkpt><trkpt lat="39.0909433" lon="-0.6251167"><ele>44.0</ele><time>2026-04-30T16:04:57.386Z</time></trkpt><trkpt lat="39.090885" lon="-0.6249117"><ele>44.0</ele><time>2026-04-30T16:04:58.386Z</time></trkpt><trkpt lat="39.0908633" lon="-0.6246917"><ele>44.0</ele><time>2026-04-30T16:04:59.387Z</time></trkpt><trkpt lat="39.0908783" lon="-0.6244733"><ele>44.0</ele><time>2026-04-30T16:05:00.397Z</time></trkpt><trkpt lat="39.0909283" lon="-0.6242567"><ele>45.33333333333333</ele><time>2026-04-30T16:05:01.388Z</time></trkpt><trkpt lat="39.09098" lon="-0.6240467"><ele>46.666666666666664</ele><time>2026-04-30T16:05:02.387Z</time></trkpt><trkpt lat="39.0910083" lon="-0.6238383"><ele>48.0</ele><time>2026-04-30T16:05:03.387Z</time></trkpt><trkpt lat="39.091005" lon="-0.6236283"><ele>48.33333333333333</ele><time>2026-04-30T16:05:04.387Z</time></trkpt><trkpt lat="39.0909767" lon="-0.62341"><ele>48.666666666666664</ele><time>2026-04-30T16:05:05.39Z</time></trkpt><trkpt lat="39.0909417" lon="-0.6231833"><ele>49.0</ele><time>2026-04-30T16:05:06.389Z</time></trkpt><trkpt lat="39.0909033" lon="-0.6229633"><ele>48.666666666666664</ele><time>2026-04-30T16:05:07.388Z</time></trkpt><trkpt lat="39.0908533" lon="-0.6227533"><ele>48.33333333333333</ele><time>2026-04-30T16:05:08.388Z</time></trkpt><trkpt lat="39.0907867" lon="-0.6225633"><ele>48.0</ele><time>2026-04-30T16:05:09.386Z</time></trkpt><trkpt lat="39.09071" lon="-0.6223833"><ele>48.0</ele><time>2026-04-30T16:05:10.389Z</time></trkpt><trkpt lat="39.090645" lon="-0.622215"><ele>48.0</ele><time>2026-04-30T16:05:11.385Z</time></trkpt><trkpt lat="39.0906017" lon="-0.6220433"><ele>48.0</ele><time>2026-04-30T16:05:12.389Z</time></trkpt><trkpt lat="39.090595" lon="-0.6218617"><ele>48.0</ele><time>2026-04-30T16:05:13.392Z</time></trkpt><trkpt lat="39.09062" lon="-0.6216867"><ele>48.0</ele><time>2026-04-30T16:05:14.386Z</time></trkpt><trkpt lat="39.090665" lon="-0.62151"><ele>48.0</ele><time>2026-04-30T16:05:15.386Z</time></trkpt><trkpt lat="39.0906833" lon="-0.6213333"><ele>48.0</ele><time>2026-04-30T16:05:16.389Z</time></trkpt><trkpt lat="39.0906717" lon="-0.6211567"><ele>48.0</ele><time>2026-04-30T16:05:17.386Z</time></trkpt><trkpt lat="39.09065" lon="-0.6209883"><ele>48.25</ele><time>2026-04-30T16:05:18.39Z</time></trkpt><trkpt lat="39.0906617" lon="-0.620815"><ele>48.5</ele><time>2026-04-30T16:05:19.39Z</time></trkpt><trkpt lat="39.0907067" lon="-0.6206367"><ele>48.75</ele><time>2026-04-30T16:05:20.386Z</time></trkpt><trkpt lat="39.0907617" lon="-0.6204517"><ele>49.0</ele><time>2026-04-30T16:05:21.39Z</time></trkpt><trkpt lat="39.0908283" lon="-0.6202617"><ele>50.33333333333333</ele><time>2026-04-30T16:05:22.385Z</time></trkpt><trkpt lat="39.090905" lon="-0.6200683"><ele>51.66666666666667</ele><time>2026-04-30T16:05:23.395Z</time></trkpt><trkpt lat="39.09099" lon="-0.61988"><ele>53.0</ele><time>2026-04-30T16:05:24.388Z</time></trkpt><trkpt lat="39.0910917" lon="-0.6196933"><ele>53.0</ele><time>2026-04-30T16:05:25.385Z</time></trkpt><trkpt lat="39.0912" lon="-0.619505"><ele>53.0</ele><time>2026-04-30T16:05:26.388Z</time></trkpt><trkpt lat="39.09131" lon="-0.6193183"><ele>53.0</ele><time>2026-04-30T16:05:27.391Z</time></trkpt><trkpt lat="39.091415" lon="-0.6191433"><ele>52.333333333333336</ele><time>2026-04-30T16:05:28.386Z</time></trkpt><trkpt lat="39.0915033" lon="-0.618975"><ele>51.66666666666667</ele><time>2026-04-30T16:05:29.39Z</time></trkpt><trkpt lat="39.091585" lon="-0.6187983"><ele>51.0</ele><time>2026-04-30T16:05:30.392Z</time></trkpt><trkpt lat="39.0916533" lon="-0.6186067"><ele>51.0</ele><time>2026-04-30T16:05:31.389Z</time></trkpt><trkpt lat="39.091725" lon="-0.6184033"><ele>51.0</ele><time>2026-04-30T16:05:32.396Z</time></trkpt><trkpt lat="39.0918" lon="-0.61819"><ele>51.0</ele><time>2026-04-30T16:05:33.388Z</time></trkpt><trkpt lat="39.0918667" lon="-0.6179783"><ele>51.0</ele><time>2026-04-30T16:05:34.387Z</time></trkpt><trkpt lat="39.091925" lon="-0.61778"><ele>51.0</ele><time>2026-04-30T16:05:35.387Z</time></trkpt><trkpt lat="39.0919817" lon="-0.6175867"><ele>51.0</ele><time>2026-04-30T16:05:36.387Z</time></trkpt><trkpt lat="39.0920383" lon="-0.61739"><ele>51.0</ele><time>2026-04-30T16:05:37.387Z</time></trkpt><trkpt lat="39.0920933" lon="-0.6171817"><ele>51.0</ele><time>2026-04-30T16:05:38.388Z</time></trkpt><trkpt lat="39.09214" lon="-0.6169783"><ele>51.0</ele><time>2026-04-30T16:05:39.392Z</time></trkpt><trkpt lat="39.0921867" lon="-0.6167883"><ele>51.25</ele><time>2026-04-30T16:05:40.385Z</time></trkpt><trkpt lat="39.0922283" lon="-0.616615"><ele>51.5</ele><time>2026-04-30T16:05:41.386Z</time></trkpt><trkpt lat="39.0922683" lon="-0.6164533"><ele>51.75</ele><time>2026-04-30T16:05:42.386Z</time></trkpt><trkpt lat="39.092305" lon="-0.6162917"><ele>52.0</ele><time>2026-04-30T16:05:43.386Z</time></trkpt><trkpt lat="39.092315" lon="-0.6161317"><ele>52.25</ele><time>2026-04-30T16:05:44.393Z</time></trkpt><trkpt lat="39.0922867" lon="-0.615975"><ele>52.5</ele><time>2026-04-30T16:05:45.387Z</time></trkpt><trkpt lat="39.0922383" lon="-0.6158167"><ele>52.75</ele><time>2026-04-30T16:05:46.388Z</time></trkpt><trkpt lat="39.0921833" lon="-0.61565"><ele>53.0</ele><time>2026-04-30T16:05:47.391Z</time></trkpt><trkpt lat="39.0921267" lon="-0.6154817"><ele>53.0</ele><time>2026-04-30T16:05:48.387Z</time></trkpt><trkpt lat="39.092075" lon="-0.615325"><ele>53.0</ele><time>2026-04-30T16:05:49.388Z</time></trkpt><trkpt lat="39.0920333" lon="-0.6151767"><ele>53.0</ele><time>2026-04-30T16:05:50.39Z</time></trkpt><trkpt lat="39.0920133" lon="-0.6150283"><ele>53.0</ele><time>2026-04-30T16:05:51.387Z</time></trkpt><trkpt lat="39.0920083" lon="-0.614885"><ele>52.75</ele><time>2026-04-30T16:05:52.385Z</time></trkpt><trkpt lat="39.0920017" lon="-0.6147517"><ele>52.5</ele><time>2026-04-30T16:05:53.389Z</time></trkpt><trkpt lat="39.0919817" lon="-0.614615"><ele>52.25</ele><time>2026-04-30T16:05:54.388Z</time></trkpt><trkpt lat="39.09194" lon="-0.61447"><ele>52.0</ele><time>2026-04-30T16:05:55.386Z</time></trkpt><trkpt lat="39.0918933" lon="-0.6143217"><ele>52.0</ele><time>2026-04-30T16:05:56.39Z</time></trkpt><trkpt lat="39.09186" lon="-0.614185"><ele>52.0</ele><time>2026-04-30T16:05:57.389Z</time></trkpt><trkpt lat="39.09185" lon="-0.614055"><ele>52.0</ele><time>2026-04-30T16:05:58.387Z</time></trkpt><trkpt lat="39.091885" lon="-0.6139367"><ele>52.0</ele><time>2026-04-30T16:05:59.388Z</time></trkpt><trkpt lat="39.09196" lon="-0.6138183"><ele>52.0</ele><time>2026-04-30T16:06:00.382Z</time></trkpt><trkpt lat="39.0920533" lon="-0.6136933"><ele>52.5</ele><time>2026-04-30T16:06:01.388Z</time></trkpt><trkpt lat="39.09216" lon="-0.6135667"><ele>53.0</ele><time>2026-04-30T16:06:02.387Z</time></trkpt><trkpt lat="39.0922833" lon="-0.6134533"><ele>53.5</ele><time>2026-04-30T16:06:03.408Z</time></trkpt><trkpt lat="39.092405" lon="-0.6133483"><ele>54.0</ele><time>2026-04-30T16:06:04.384Z</time></trkpt><trkpt lat="39.0925117" lon="-0.61324"><ele>54.666666666666664</ele><time>2026-04-30T16:06:05.387Z</time></trkpt><trkpt lat="39.0925933" lon="-0.6131383"><ele>55.33333333333333</ele><time>2026-04-30T16:06:06.384Z</time></trkpt><trkpt lat="39.0926633" lon="-0.6130417"><ele>56.0</ele><time>2026-04-30T16:06:07.385Z</time></trkpt><trkpt lat="39.092715" lon="-0.6129617"><ele>56.666666666666664</ele><time>2026-04-30T16:06:08.389Z</time></trkpt><trkpt lat="39.092755" lon="-0.6128917"><ele>57.33333333333333</ele><time>2026-04-30T16:06:09.385Z</time></trkpt><trkpt lat="39.0928083" lon="-0.6128167"><ele>58.0</ele><time>2026-04-30T16:06:11.385Z</time></trkpt><trkpt lat="39.0928433" lon="-0.6127283"><ele>58.599999999999994</ele><time>2026-04-30T16:06:17.386Z</time></trkpt><trkpt lat="39.0929283" lon="-0.6126067"><ele>59.199999999999996</ele><time>2026-04-30T16:06:19.392Z</time></trkpt><trkpt lat="39.0929883" lon="-0.6125167"><ele>59.8</ele><time>2026-04-30T16:06:20.384Z</time></trkpt><trkpt lat="39.0930567" lon="-0.6124117"><ele>60.4</ele><time>2026-04-30T16:06:21.388Z</time></trkpt><trkpt lat="39.0931317" lon="-0.6122933"><ele>61.0</ele><time>2026-04-30T16:06:22.386Z</time></trkpt><trkpt lat="39.0932033" lon="-0.6121683"><ele>61.75</ele><time>2026-04-30T16:06:23.386Z</time></trkpt><trkpt lat="39.0932667" lon="-0.6120417"><ele>62.5</ele><time>2026-04-30T16:06:24.387Z</time></trkpt><trkpt lat="39.09332" lon="-0.611915"><ele>63.25</ele><time>2026-04-30T16:06:25.388Z</time></trkpt><trkpt lat="39.0933667" lon="-0.61178"><ele>64.0</ele><time>2026-04-30T16:06:26.398Z</time></trkpt><trkpt lat="39.0934017" lon="-0.611625"><ele>64.0</ele><time>2026-04-30T16:06:27.389Z</time></trkpt><trkpt lat="39.0934333" lon="-0.6114517"><ele>64.0</ele><time>2026-04-30T16:06:28.384Z</time></trkpt><trkpt lat="39.0934817" lon="-0.6112767"><ele>64.0</ele><time>2026-04-30T16:06:29.39Z</time></trkpt><trkpt lat="39.0935467" lon="-0.6111"><ele>64.0</ele><time>2026-04-30T16:06:30.392Z</time></trkpt><trkpt lat="39.0936267" lon="-0.6109267"><ele>64.75</ele><time>2026-04-30T16:06:31.39Z</time></trkpt><trkpt lat="39.0937033" lon="-0.6107583"><ele>65.5</ele><time>2026-04-30T16:06:32.386Z</time></trkpt><trkpt lat="39.0937733" lon="-0.6105983"><ele>66.25</ele><time>2026-04-30T16:06:33.386Z</time></trkpt><trkpt lat="39.0938367" lon="-0.6104483"><ele>67.0</ele><time>2026-04-30T16:06:34.386Z</time></trkpt><trkpt lat="39.0938883" lon="-0.610305"><ele>69.75</ele><time>2026-04-30T16:06:35.385Z</time></trkpt><trkpt lat="39.09392" lon="-0.61015"><ele>72.5</ele><time>2026-04-30T16:06:36.388Z</time></trkpt><trkpt lat="39.0939233" lon="-0.6099783"><ele>75.25</ele><time>2026-04-30T16:06:37.388Z</time></trkpt><trkpt lat="39.0939317" lon="-0.609805"><ele>78.0</ele><time>2026-04-30T16:06:38.389Z</time></trkpt><trkpt lat="39.0939583" lon="-0.6096283"><ele>81.25</ele><time>2026-04-30T16:06:39.387Z</time></trkpt><trkpt lat="39.093985" lon="-0.6094467"><ele>84.5</ele><time>2026-04-30T16:06:40.387Z</time></trkpt><trkpt lat="39.0940017" lon="-0.6092617"><ele>87.75</ele><time>2026-04-30T16:06:41.391Z</time></trkpt><trkpt lat="39.0940117" lon="-0.6090817"><ele>91.0</ele><time>2026-04-30T16:06:42.385Z</time></trkpt><trkpt lat="39.094015" lon="-0.6089167"><ele>91.0</ele><time>2026-04-30T16:06:43.388Z</time></trkpt><trkpt lat="39.0940133" lon="-0.6087667"><ele>91.0</ele><time>2026-04-30T16:06:44.388Z</time></trkpt><trkpt lat="39.09399" lon="-0.6086217"><ele>91.0</ele><time>2026-04-30T16:06:45.384Z</time></trkpt><trkpt lat="39.0939683" lon="-0.60848"><ele>91.0</ele><time>2026-04-30T16:06:46.388Z</time></trkpt><trkpt lat="39.0939733" lon="-0.6083317"><ele>89.5</ele><time>2026-04-30T16:06:47.387Z</time></trkpt><trkpt lat="39.094005" lon="-0.6081717"><ele>88.0</ele><time>2026-04-30T16:06:48.394Z</time></trkpt><trkpt lat="39.094045" lon="-0.6079967"><ele>86.5</ele><time>2026-04-30T16:06:49.39Z</time></trkpt><trkpt lat="39.0940917" lon="-0.6078033"><ele>85.0</ele><time>2026-04-30T16:06:50.387Z</time></trkpt><trkpt lat="39.0941383" lon="-0.6076083"><ele>85.0</ele><time>2026-04-30T16:06:51.388Z</time></trkpt><trkpt lat="39.0941717" lon="-0.6074217"><ele>85.0</ele><time>2026-04-30T16:06:52.385Z</time></trkpt><trkpt lat="39.0941967" lon="-0.60724"><ele>85.0</ele><time>2026-04-30T16:06:53.389Z</time></trkpt><trkpt lat="39.0942117" lon="-0.6070533"><ele>85.0</ele><time>2026-04-30T16:06:54.387Z</time></trkpt><trkpt lat="39.09422" lon="-0.6068533"><ele>85.33333333333333</ele><time>2026-04-30T16:06:55.39Z</time></trkpt><trkpt lat="39.0942217" lon="-0.6066383"><ele>85.66666666666667</ele><time>2026-04-30T16:06:56.388Z</time></trkpt><trkpt lat="39.0942083" lon="-0.6064133"><ele>86.0</ele><time>2026-04-30T16:06:57.389Z</time></trkpt><trkpt lat="39.0941833" lon="-0.6061967"><ele>86.33333333333334</ele><time>2026-04-30T16:06:58.389Z</time></trkpt><trkpt lat="39.09415" lon="-0.60599"><ele>86.66666666666667</ele><time>2026-04-30T16:06:59.389Z</time></trkpt><trkpt lat="39.0941033" lon="-0.60579"><ele>87.0</ele><time>2026-04-30T16:07:00.391Z</time></trkpt><trkpt lat="39.0940433" lon="-0.6055933"><ele>91.33333333333334</ele><time>2026-04-30T16:07:01.384Z</time></trkpt><trkpt lat="39.0939717" lon="-0.6053917"><ele>95.66666666666667</ele><time>2026-04-30T16:07:02.389Z</time></trkpt><trkpt lat="39.0939" lon="-0.6051983"><ele>100.0</ele><time>2026-04-30T16:07:03.387Z</time></trkpt><trkpt lat="39.09384" lon="-0.605005"><ele>100.0</ele><time>2026-04-30T16:07:04.386Z</time></trkpt><trkpt lat="39.093805" lon="-0.60481"><ele>100.0</ele><time>2026-04-30T16:07:05.384Z</time></trkpt><trkpt lat="39.0937917" lon="-0.6046133"><ele>100.0</ele><time>2026-04-30T16:07:06.384Z</time></trkpt><trkpt lat="39.0937783" lon="-0.6044317"><ele>99.25</ele><time>2026-04-30T16:07:07.386Z</time></trkpt><trkpt lat="39.0937917" lon="-0.6042617"><ele>98.5</ele><time>2026-04-30T16:07:08.388Z</time></trkpt><trkpt lat="39.09384" lon="-0.6040983"><ele>97.75</ele><time>2026-04-30T16:07:09.382Z</time></trkpt><trkpt lat="39.093905" lon="-0.6039317"><ele>97.0</ele><time>2026-04-30T16:07:10.386Z</time></trkpt><trkpt lat="39.0939467" lon="-0.6037567"><ele>100.0</ele><time>2026-04-30T16:07:11.389Z</time></trkpt><trkpt lat="39.0939633" lon="-0.603565"><ele>103.0</ele><time>2026-04-30T16:07:12.387Z</time></trkpt><trkpt lat="39.0939767" lon="-0.60336"><ele>106.0</ele><time>2026-04-30T16:07:13.39Z</time></trkpt><trkpt lat="39.0939983" lon="-0.6031433"><ele>106.0</ele><time>2026-04-30T16:07:14.387Z</time></trkpt><trkpt lat="39.09403" lon="-0.6029333"><ele>106.0</ele><time>2026-04-30T16:07:15.391Z</time></trkpt><trkpt lat="39.0940517" lon="-0.60272"><ele>106.0</ele><time>2026-04-30T16:07:16.39Z</time></trkpt><trkpt lat="39.0940483" lon="-0.602515"><ele>110.0</ele><time>2026-04-30T16:07:17.388Z</time></trkpt><trkpt lat="39.0940217" lon="-0.6022983"><ele>114.0</ele><time>2026-04-30T16:07:18.384Z</time></trkpt><trkpt lat="39.0939767" lon="-0.60209"><ele>118.0</ele><time>2026-04-30T16:07:19.387Z</time></trkpt><trkpt lat="39.09394" lon="-0.6018733"><ele>120.66666666666667</ele><time>2026-04-30T16:07:20.387Z</time></trkpt><trkpt lat="39.0939217" lon="-0.6016617"><ele>123.33333333333334</ele><time>2026-04-30T16:07:21.386Z</time></trkpt><trkpt lat="39.0939367" lon="-0.6014633"><ele>126.0</ele><time>2026-04-30T16:07:22.389Z</time></trkpt><trkpt lat="39.093985" lon="-0.601295"><ele>124.66666666666666</ele><time>2026-04-30T16:07:23.391Z</time></trkpt><trkpt lat="39.0940717" lon="-0.601135"><ele>123.33333333333333</ele><time>2026-04-30T16:07:24.388Z</time></trkpt><trkpt lat="39.0941683" lon="-0.6009833"><ele>122.0</ele><time>2026-04-30T16:07:25.393Z</time></trkpt><trkpt lat="39.0942567" lon="-0.60083"><ele>122.0</ele><time>2026-04-30T16:07:26.39Z</time></trkpt><trkpt lat="39.09434" lon="-0.6006717"><ele>122.0</ele><time>2026-04-30T16:07:27.389Z</time></trkpt><trkpt lat="39.09442" lon="-0.6005017"><ele>122.0</ele><time>2026-04-30T16:07:28.39Z</time></trkpt><trkpt lat="39.0944883" lon="-0.60032"><ele>124.5</ele><time>2026-04-30T16:07:29.388Z</time></trkpt><trkpt lat="39.0945283" lon="-0.6001283"><ele>127.0</ele><time>2026-04-30T16:07:30.396Z</time></trkpt><trkpt lat="39.0945483" lon="-0.5999467"><ele>129.5</ele><time>2026-04-30T16:07:31.39Z</time></trkpt><trkpt lat="39.0945433" lon="-0.599795"><ele>132.0</ele><time>2026-04-30T16:07:32.388Z</time></trkpt><trkpt lat="39.0944917" lon="-0.5996783"><ele>132.0</ele><time>2026-04-30T16:07:33.385Z</time></trkpt><trkpt lat="39.0944183" lon="-0.599595"><ele>132.0</ele><time>2026-04-30T16:07:34.389Z</time></trkpt><trkpt lat="39.09434" lon="-0.5995183"><ele>132.0</ele><time>2026-04-30T16:07:35.387Z</time></trkpt><trkpt lat="39.0942783" lon="-0.5994183"><ele>132.0</ele><time>2026-04-30T16:07:36.386Z</time></trkpt><trkpt lat="39.0942467" lon="-0.599285"><ele>132.0</ele><time>2026-04-30T16:07:37.389Z</time></trkpt><trkpt lat="39.09425" lon="-0.5991367"><ele>131.79999999999998</ele><time>2026-04-30T16:07:38.387Z</time></trkpt><trkpt lat="39.0942733" lon="-0.5989917"><ele>131.6</ele><time>2026-04-30T16:07:39.386Z</time></trkpt><trkpt lat="39.094305" lon="-0.59886"><ele>131.39999999999998</ele><time>2026-04-30T16:07:40.387Z</time></trkpt><trkpt lat="39.0943567" lon="-0.598745"><ele>131.2</ele><time>2026-04-30T16:07:41.387Z</time></trkpt><trkpt lat="39.09443" lon="-0.5986533"><ele>131.0</ele><time>2026-04-30T16:07:42.388Z</time></trkpt><trkpt lat="39.0945167" lon="-0.598575"><ele>131.0</ele><time>2026-04-30T16:07:43.394Z</time></trkpt><trkpt lat="39.0946017" lon="-0.598505"><ele>131.0</ele><time>2026-04-30T16:07:44.386Z</time></trkpt><trkpt lat="39.0946883" lon="-0.5984217"><ele>131.0</ele><time>2026-04-30T16:07:45.387Z</time></trkpt><trkpt lat="39.0947633" lon="-0.5983133"><ele>131.0</ele><time>2026-04-30T16:07:46.392Z</time></trkpt><trkpt lat="39.09481" lon="-0.59818"><ele>131.0</ele><time>2026-04-30T16:07:47.389Z</time></trkpt><trkpt lat="39.09484" lon="-0.5980383"><ele>131.0</ele><time>2026-04-30T16:07:48.388Z</time></trkpt><trkpt lat="39.0948833" lon="-0.5979133"><ele>131.0</ele><time>2026-04-30T16:07:49.39Z</time></trkpt><trkpt lat="39.094955" lon="-0.597785"><ele>131.0</ele><time>2026-04-30T16:07:50.386Z</time></trkpt><trkpt lat="39.0950467" lon="-0.5976467"><ele>131.0</ele><time>2026-04-30T16:07:51.393Z</time></trkpt><trkpt lat="39.09515" lon="-0.597495"><ele>129.0</ele><time>2026-04-30T16:07:52.386Z</time></trkpt><trkpt lat="39.095255" lon="-0.5973367"><ele>127.0</ele><time>2026-04-30T16:07:53.387Z</time></trkpt><trkpt lat="39.0953617" lon="-0.59718"><ele>125.0</ele><time>2026-04-30T16:07:54.388Z</time></trkpt><trkpt lat="39.09547" lon="-0.597025"><ele>126.0</ele><time>2026-04-30T16:07:55.389Z</time></trkpt><trkpt lat="39.095565" lon="-0.5968567"><ele>127.0</ele><time>2026-04-30T16:07:56.39Z</time></trkpt><trkpt lat="39.095655" lon="-0.5967033"><ele>128.0</ele><time>2026-04-30T16:07:57.388Z</time></trkpt><trkpt lat="39.09571" lon="-0.5965633"><ele>129.0</ele><time>2026-04-30T16:07:58.387Z</time></trkpt><trkpt lat="39.095735" lon="-0.5964167"><ele>129.0</ele><time>2026-04-30T16:07:59.387Z</time></trkpt><trkpt lat="39.0957317" lon="-0.596265"><ele>129.0</ele><time>2026-04-30T16:08:00.393Z</time></trkpt><trkpt lat="39.0957467" lon="-0.5961"><ele>129.0</ele><time>2026-04-30T16:08:01.385Z</time></trkpt><trkpt lat="39.0958" lon="-0.5959217"><ele>129.0</ele><time>2026-04-30T16:08:02.389Z</time></trkpt><trkpt lat="39.0958467" lon="-0.5957367"><ele>121.0</ele><time>2026-04-30T16:08:03.386Z</time></trkpt><trkpt lat="39.0958867" lon="-0.5955467"><ele>113.0</ele><time>2026-04-30T16:08:04.387Z</time></trkpt><trkpt lat="39.0959433" lon="-0.595355"><ele>105.0</ele><time>2026-04-30T16:08:05.392Z</time></trkpt><trkpt lat="39.0960167" lon="-0.5951817"><ele>103.5</ele><time>2026-04-30T16:08:06.389Z</time></trkpt><trkpt lat="39.09611" lon="-0.5950183"><ele>102.0</ele><time>2026-04-30T16:08:07.387Z</time></trkpt><trkpt lat="39.0961917" lon="-0.594885"><ele>100.5</ele><time>2026-04-30T16:08:08.388Z</time></trkpt><trkpt lat="39.0962867" lon="-0.5947617"><ele>99.0</ele><time>2026-04-30T16:08:09.387Z</time></trkpt><trkpt lat="39.09637" lon="-0.5946433"><ele>99.0</ele><time>2026-04-30T16:08:10.387Z</time></trkpt><trkpt lat="39.096455" lon="-0.5945367"><ele>99.0</ele><time>2026-04-30T16:08:11.386Z</time></trkpt><trkpt lat="39.0965067" lon="-0.594405"><ele>99.0</ele><time>2026-04-30T16:08:12.387Z</time></trkpt><trkpt lat="39.096535" lon="-0.5942467"><ele>99.0</ele><time>2026-04-30T16:08:13.393Z</time></trkpt><trkpt lat="39.096545" lon="-0.594075"><ele>99.25</ele><time>2026-04-30T16:08:14.387Z</time></trkpt><trkpt lat="39.0965483" lon="-0.5939033"><ele>99.5</ele><time>2026-04-30T16:08:15.386Z</time></trkpt><trkpt lat="39.0965367" lon="-0.5937417"><ele>99.75</ele><time>2026-04-30T16:08:16.387Z</time></trkpt><trkpt lat="39.0965183" lon="-0.5935933"><ele>100.0</ele><time>2026-04-30T16:08:17.388Z</time></trkpt><trkpt lat="39.0965033" lon="-0.5934383"><ele>101.25</ele><time>2026-04-30T16:08:18.392Z</time></trkpt><trkpt lat="39.0965117" lon="-0.5932683"><ele>102.5</ele><time>2026-04-30T16:08:19.39Z</time></trkpt><trkpt lat="39.0965317" lon="-0.593075"><ele>103.75</ele><time>2026-04-30T16:08:20.39Z</time></trkpt><trkpt lat="39.0965567" lon="-0.592865"><ele>105.0</ele><time>2026-04-30T16:08:21.39Z</time></trkpt><trkpt lat="39.0965817" lon="-0.592655"><ele>101.25</ele><time>2026-04-30T16:08:22.388Z</time></trkpt><trkpt lat="39.0966067" lon="-0.5924583"><ele>97.5</ele><time>2026-04-30T16:08:23.388Z</time></trkpt><trkpt lat="39.0966317" lon="-0.5922717"><ele>93.75</ele><time>2026-04-30T16:08:24.387Z</time></trkpt><trkpt lat="39.096655" lon="-0.5920917"><ele>90.0</ele><time>2026-04-30T16:08:25.385Z</time></trkpt><trkpt lat="39.09667" lon="-0.59192"><ele>89.75</ele><time>2026-04-30T16:08:26.387Z</time></trkpt><trkpt lat="39.09668" lon="-0.5917617"><ele>89.5</ele><time>2026-04-30T16:08:27.385Z</time></trkpt><trkpt lat="39.0966933" lon="-0.5916"><ele>89.25</ele><time>2026-04-30T16:08:28.385Z</time></trkpt><trkpt lat="39.0967083" lon="-0.5914367"><ele>89.0</ele><time>2026-04-30T16:08:29.383Z</time></trkpt><trkpt lat="39.0967233" lon="-0.5912833"><ele>88.4</ele><time>2026-04-30T16:08:30.391Z</time></trkpt><trkpt lat="39.0967367" lon="-0.5911433"><ele>87.80000000000001</ele><time>2026-04-30T16:08:31.389Z</time></trkpt><trkpt lat="39.0967417" lon="-0.5910117"><ele>87.19999999999999</ele><time>2026-04-30T16:08:32.385Z</time></trkpt><trkpt lat="39.0967417" lon="-0.5908717"><ele>86.6</ele><time>2026-04-30T16:08:33.387Z</time></trkpt><trkpt lat="39.0967333" lon="-0.5907283"><ele>86.0</ele><time>2026-04-30T16:08:34.388Z</time></trkpt><trkpt lat="39.0967117" lon="-0.59059"><ele>86.0</ele><time>2026-04-30T16:08:35.383Z</time></trkpt><trkpt lat="39.0966833" lon="-0.5904517"><ele>86.0</ele><time>2026-04-30T16:08:36.385Z</time></trkpt><trkpt lat="39.0966617" lon="-0.5903067"><ele>86.0</ele><time>2026-04-30T16:08:37.385Z</time></trkpt><trkpt lat="39.0966467" lon="-0.5901583"><ele>86.0</ele><time>2026-04-30T16:08:38.388Z</time></trkpt><trkpt lat="39.0966367" lon="-0.59001"><ele>85.6</ele><time>2026-04-30T16:08:39.386Z</time></trkpt><trkpt lat="39.0966283" lon="-0.5898783"><ele>85.19999999999999</ele><time>2026-04-30T16:08:40.385Z</time></trkpt><trkpt lat="39.0966217" lon="-0.5897533"><ele>84.80000000000001</ele><time>2026-04-30T16:08:41.391Z</time></trkpt><trkpt lat="39.0966167" lon="-0.58965"><ele>84.4</ele><time>2026-04-30T16:08:42.383Z</time></trkpt><trkpt lat="39.0966267" lon="-0.5895067"><ele>84.0</ele><time>2026-04-30T16:08:44.392Z</time></trkpt><trkpt lat="39.0967183" lon="-0.5894283"><ele>84.0</ele><time>2026-04-30T16:08:46.387Z</time></trkpt><trkpt lat="39.0967917" lon="-0.5894"><ele>84.0</ele><time>2026-04-30T16:08:47.388Z</time></trkpt><trkpt lat="39.096875" lon="-0.5893667"><ele>84.0</ele><time>2026-04-30T16:08:48.386Z</time></trkpt><trkpt lat="39.09695" lon="-0.589325"><ele>84.0</ele><time>2026-04-30T16:08:49.387Z</time></trkpt><trkpt lat="39.097015" lon="-0.589265"><ele>84.0</ele><time>2026-04-30T16:08:50.391Z</time></trkpt><trkpt lat="39.0970733" lon="-0.5891767"><ele>84.0</ele><time>2026-04-30T16:08:51.387Z</time></trkpt><trkpt lat="39.0971167" lon="-0.589065"><ele>84.0</ele><time>2026-04-30T16:08:52.384Z</time></trkpt><trkpt lat="39.0971383" lon="-0.5889317"><ele>84.0</ele><time>2026-04-30T16:08:53.386Z</time></trkpt><trkpt lat="39.0971633" lon="-0.588785"><ele>84.0</ele><time>2026-04-30T16:08:54.392Z</time></trkpt><trkpt lat="39.0971983" lon="-0.588655"><ele>84.0</ele><time>2026-04-30T16:08:55.385Z</time></trkpt><trkpt lat="39.0972417" lon="-0.5885467"><ele>84.0</ele><time>2026-04-30T16:08:56.386Z</time></trkpt><trkpt lat="39.09729" lon="-0.58846"><ele>83.2</ele><time>2026-04-30T16:08:57.387Z</time></trkpt><trkpt lat="39.0973267" lon="-0.5883867"><ele>82.4</ele><time>2026-04-30T16:08:58.386Z</time></trkpt><trkpt lat="39.09735" lon="-0.58823"><ele>81.6</ele><time>2026-04-30T16:09:00.385Z</time></trkpt><trkpt lat="39.0973483" lon="-0.588125"><ele>80.8</ele><time>2026-04-30T16:09:01.39Z</time></trkpt><trkpt lat="39.0973483" lon="-0.5880117"><ele>80.0</ele><time>2026-04-30T16:09:02.385Z</time></trkpt><trkpt lat="39.0973533" lon="-0.5878967"><ele>79.4</ele><time>2026-04-30T16:09:03.386Z</time></trkpt><trkpt lat="39.09735" lon="-0.5877683"><ele>78.8</ele><time>2026-04-30T16:09:04.391Z</time></trkpt><trkpt lat="39.09734" lon="-0.5876267"><ele>78.2</ele><time>2026-04-30T16:09:05.386Z</time></trkpt><trkpt lat="39.0973283" lon="-0.5874833"><ele>77.6</ele><time>2026-04-30T16:09:06.39Z</time></trkpt><trkpt lat="39.0973183" lon="-0.587335"><ele>77.0</ele><time>2026-04-30T16:09:07.391Z</time></trkpt><trkpt lat="39.097305" lon="-0.5871967"><ele>77.0</ele><time>2026-04-30T16:09:08.387Z</time></trkpt><trkpt lat="39.0972967" lon="-0.5870633"><ele>77.0</ele><time>2026-04-30T16:09:09.387Z</time></trkpt><trkpt lat="39.0972883" lon="-0.5869383"><ele>77.0</ele><time>2026-04-30T16:09:10.388Z</time></trkpt><trkpt lat="39.0972783" lon="-0.58682"><ele>77.0</ele><time>2026-04-30T16:09:11.392Z</time></trkpt><trkpt lat="39.0972683" lon="-0.5867"><ele>77.0</ele><time>2026-04-30T16:09:12.394Z</time></trkpt><trkpt lat="39.0972533" lon="-0.5865767"><ele>76.5</ele><time>2026-04-30T16:09:13.389Z</time></trkpt><trkpt lat="39.09724" lon="-0.5864517"><ele>76.0</ele><time>2026-04-30T16:09:14.391Z</time></trkpt><trkpt lat="39.0972233" lon="-0.5863333"><ele>75.5</ele><time>2026-04-30T16:09:15.391Z</time></trkpt><trkpt lat="39.0972067" lon="-0.5862217"><ele>75.0</ele><time>2026-04-30T16:09:16.385Z</time></trkpt><trkpt lat="39.09719" lon="-0.5861133"><ele>74.5</ele><time>2026-04-30T16:09:17.388Z</time></trkpt><trkpt lat="39.097175" lon="-0.586015"><ele>74.0</ele><time>2026-04-30T16:09:18.386Z</time></trkpt><trkpt lat="39.09716" lon="-0.585925"><ele>73.4</ele><time>2026-04-30T16:09:19.39Z</time></trkpt><trkpt lat="39.0971433" lon="-0.5858467"><ele>72.80000000000001</ele><time>2026-04-30T16:09:20.387Z</time></trkpt><trkpt lat="39.0970817" lon="-0.5857417"><ele>72.19999999999999</ele><time>2026-04-30T16:09:22.388Z</time></trkpt><trkpt lat="39.096965" lon="-0.5857067"><ele>71.6</ele><time>2026-04-30T16:09:24.391Z</time></trkpt><trkpt lat="39.0968833" lon="-0.5857"><ele>71.0</ele><time>2026-04-30T16:09:25.391Z</time></trkpt><trkpt lat="39.09679" lon="-0.5856867"><ele>71.0</ele><time>2026-04-30T16:09:26.391Z</time></trkpt><trkpt lat="39.0966967" lon="-0.5856767"><ele>71.0</ele><time>2026-04-30T16:09:27.39Z</time></trkpt><trkpt lat="39.0966133" lon="-0.5856733"><ele>71.0</ele><time>2026-04-30T16:09:28.39Z</time></trkpt><trkpt lat="39.0965467" lon="-0.5856633"><ele>71.0</ele><time>2026-04-30T16:09:29.388Z</time></trkpt><trkpt lat="39.0964667" lon="-0.5856483"><ele>71.0</ele><time>2026-04-30T16:09:31.387Z</time></trkpt><trkpt lat="39.0965417" lon="-0.5856433"><ele>71.0</ele><time>2026-04-30T16:09:45.388Z</time></trkpt><trkpt lat="39.096585" lon="-0.5855283"><ele>71.0</ele><time>2026-04-30T16:09:47.389Z</time></trkpt><trkpt lat="39.0965867" lon="-0.5854233"><ele>71.0</ele><time>2026-04-30T16:09:48.39Z</time></trkpt><trkpt lat="39.0965867" lon="-0.585305"><ele>71.0</ele><time>2026-04-30T16:09:49.389Z</time></trkpt><trkpt lat="39.09658" lon="-0.58516"><ele>71.0</ele><time>2026-04-30T16:09:50.385Z</time></trkpt><trkpt lat="39.096575" lon="-0.5850083"><ele>71.0</ele><time>2026-04-30T16:09:51.388Z</time></trkpt><trkpt lat="39.096575" lon="-0.5848583"><ele>71.39999999999999</ele><time>2026-04-30T16:09:52.388Z</time></trkpt><trkpt lat="39.0965717" lon="-0.584725"><ele>71.8</ele><time>2026-04-30T16:09:53.391Z</time></trkpt><trkpt lat="39.0965733" lon="-0.5845933"><ele>72.19999999999999</ele><time>2026-04-30T16:09:54.396Z</time></trkpt><trkpt lat="39.09657" lon="-0.5844633"><ele>72.6</ele><time>2026-04-30T16:09:55.395Z</time></trkpt><trkpt lat="39.0965667" lon="-0.5843217"><ele>73.0</ele><time>2026-04-30T16:09:56.39Z</time></trkpt><trkpt lat="39.09656" lon="-0.5841817"><ele>72.16666666666666</ele><time>2026-04-30T16:09:57.392Z</time></trkpt><trkpt lat="39.0965483" lon="-0.58405"><ele>71.33333333333333</ele><time>2026-04-30T16:09:58.387Z</time></trkpt><trkpt lat="39.0965367" lon="-0.5839267"><ele>70.5</ele><time>2026-04-30T16:09:59.388Z</time></trkpt><trkpt lat="39.09653" lon="-0.5838083"><ele>69.66666666666667</ele><time>2026-04-30T16:10:00.388Z</time></trkpt><trkpt lat="39.09653" lon="-0.5836967"><ele>68.83333333333334</ele><time>2026-04-30T16:10:01.386Z</time></trkpt><trkpt lat="39.096525" lon="-0.5836067"><ele>68.0</ele><time>2026-04-30T16:10:02.397Z</time></trkpt><trkpt lat="39.096525" lon="-0.583495"><ele>67.0</ele><time>2026-04-30T16:10:04.386Z</time></trkpt><trkpt lat="39.09659" lon="-0.58347"><ele>66.0</ele><time>2026-04-30T16:10:10.386Z</time></trkpt><trkpt lat="39.0967067" lon="-0.5834767"><ele>65.0</ele><time>2026-04-30T16:10:12.39Z</time></trkpt><trkpt lat="39.0968033" lon="-0.5834783"><ele>64.0</ele><time>2026-04-30T16:10:13.385Z</time></trkpt><trkpt lat="39.0969133" lon="-0.58348"><ele>63.0</ele><time>2026-04-30T16:10:14.387Z</time></trkpt><trkpt lat="39.0970233" lon="-0.583475"><ele>63.0</ele><time>2026-04-30T16:10:15.388Z</time></trkpt><trkpt lat="39.0971367" lon="-0.5834717"><ele>63.0</ele><time>2026-04-30T16:10:16.385Z</time></trkpt><trkpt lat="39.0972583" lon="-0.5834717"><ele>63.0</ele><time>2026-04-30T16:10:17.387Z</time></trkpt><trkpt lat="39.0973817" lon="-0.5834733"><ele>63.0</ele><time>2026-04-30T16:10:18.387Z</time></trkpt><trkpt lat="39.09751" lon="-0.5834883"><ele>63.5</ele><time>2026-04-30T16:10:19.388Z</time></trkpt><trkpt lat="39.0976383" lon="-0.5835117"><ele>64.0</ele><time>2026-04-30T16:10:20.397Z</time></trkpt><trkpt lat="39.0977717" lon="-0.5835367"><ele>64.5</ele><time>2026-04-30T16:10:21.389Z</time></trkpt><trkpt lat="39.0979033" lon="-0.58356"><ele>65.0</ele><time>2026-04-30T16:10:22.394Z</time></trkpt><trkpt lat="39.0980333" lon="-0.58358"><ele>65.0</ele><time>2026-04-30T16:10:23.391Z</time></trkpt><trkpt lat="39.0981617" lon="-0.5835933"><ele>65.0</ele><time>2026-04-30T16:10:24.391Z</time></trkpt><trkpt lat="39.0982883" lon="-0.583605"><ele>65.0</ele><time>2026-04-30T16:10:25.39Z</time></trkpt><trkpt lat="39.098415" lon="-0.5836133"><ele>65.0</ele><time>2026-04-30T16:10:26.401Z</time></trkpt><trkpt lat="39.0985417" lon="-0.58362"><ele>65.5</ele><time>2026-04-30T16:10:27.389Z</time></trkpt><trkpt lat="39.0986717" lon="-0.583625"><ele>66.0</ele><time>2026-04-30T16:10:28.385Z</time></trkpt><trkpt lat="39.0988" lon="-0.583625"><ele>66.5</ele><time>2026-04-30T16:10:29.389Z</time></trkpt><trkpt lat="39.0989333" lon="-0.5836267"><ele>67.0</ele><time>2026-04-30T16:10:30.395Z</time></trkpt><trkpt lat="39.0990717" lon="-0.5836267"><ele>67.75</ele><time>2026-04-30T16:10:31.391Z</time></trkpt><trkpt lat="39.0992117" lon="-0.5836267"><ele>68.5</ele><time>2026-04-30T16:10:32.389Z</time></trkpt><trkpt lat="39.099355" lon="-0.5836333"><ele>69.25</ele><time>2026-04-30T16:10:33.388Z</time></trkpt><trkpt lat="39.099495" lon="-0.5836417"><ele>70.0</ele><time>2026-04-30T16:10:34.389Z</time></trkpt><trkpt lat="39.09963" lon="-0.5836517"><ele>70.0</ele><time>2026-04-30T16:10:35.391Z</time></trkpt><trkpt lat="39.0997617" lon="-0.583665"><ele>70.0</ele><time>2026-04-30T16:10:36.387Z</time></trkpt><trkpt lat="39.099895" lon="-0.58368"><ele>70.0</ele><time>2026-04-30T16:10:37.388Z</time></trkpt><trkpt lat="39.1000317" lon="-0.5836867"><ele>70.0</ele><time>2026-04-30T16:10:38.391Z</time></trkpt><trkpt lat="39.1001683" lon="-0.5836883"><ele>70.75</ele><time>2026-04-30T16:10:39.392Z</time></trkpt><trkpt lat="39.10031" lon="-0.583685"><ele>71.5</ele><time>2026-04-30T16:10:40.388Z</time></trkpt><trkpt lat="39.1004517" lon="-0.583675"><ele>72.25</ele><time>2026-04-30T16:10:41.424Z</time></trkpt><trkpt lat="39.10059" lon="-0.5836683"><ele>73.0</ele><time>2026-04-30T16:10:42.386Z</time></trkpt><trkpt lat="39.1007267" lon="-0.5836533"><ele>73.5</ele><time>2026-04-30T16:10:43.386Z</time></trkpt><trkpt lat="39.1008583" lon="-0.58363"><ele>74.0</ele><time>2026-04-30T16:10:44.385Z</time></trkpt><trkpt lat="39.1009733" lon="-0.5835967"><ele>74.5</ele><time>2026-04-30T16:10:45.387Z</time></trkpt><trkpt lat="39.1010883" lon="-0.5835533"><ele>75.0</ele><time>2026-04-30T16:10:46.386Z</time></trkpt><trkpt lat="39.1012033" lon="-0.5835033"><ele>75.0</ele><time>2026-04-30T16:10:47.394Z</time></trkpt><trkpt lat="39.1013167" lon="-0.5834417"><ele>75.0</ele><time>2026-04-30T16:10:48.388Z</time></trkpt><trkpt lat="39.101425" lon="-0.583365"><ele>75.0</ele><time>2026-04-30T16:10:49.388Z</time></trkpt><trkpt lat="39.1015383" lon="-0.5832817"><ele>75.0</ele><time>2026-04-30T16:10:50.394Z</time></trkpt><trkpt lat="39.1016517" lon="-0.583195"><ele>75.5</ele><time>2026-04-30T16:10:51.388Z</time></trkpt><trkpt lat="39.1017717" lon="-0.58312"><ele>76.0</ele><time>2026-04-30T16:10:52.391Z</time></trkpt><trkpt lat="39.1019067" lon="-0.58308"><ele>76.5</ele><time>2026-04-30T16:10:53.392Z</time></trkpt><trkpt lat="39.10205" lon="-0.5830533"><ele>77.0</ele><time>2026-04-30T16:10:54.389Z</time></trkpt><trkpt lat="39.1021917" lon="-0.5830233"><ele>77.0</ele><time>2026-04-30T16:10:55.391Z</time></trkpt><trkpt lat="39.1023383" lon="-0.5829867"><ele>77.0</ele><time>2026-04-30T16:10:56.392Z</time></trkpt><trkpt lat="39.1024833" lon="-0.58295"><ele>77.0</ele><time>2026-04-30T16:10:57.391Z</time></trkpt><trkpt lat="39.1026283" lon="-0.582915"><ele>77.0</ele><time>2026-04-30T16:10:58.386Z</time></trkpt><trkpt lat="39.1027733" lon="-0.5828733"><ele>77.0</ele><time>2026-04-30T16:10:59.387Z</time></trkpt><trkpt lat="39.102915" lon="-0.58282"><ele>77.0</ele><time>2026-04-30T16:11:00.388Z</time></trkpt><trkpt lat="39.1030467" lon="-0.5827633"><ele>77.0</ele><time>2026-04-30T16:11:01.385Z</time></trkpt><trkpt lat="39.1031717" lon="-0.5827067"><ele>77.0</ele><time>2026-04-30T16:11:02.399Z</time></trkpt><trkpt lat="39.1032967" lon="-0.5826517"><ele>77.75</ele><time>2026-04-30T16:11:03.385Z</time></trkpt><trkpt lat="39.1034367" lon="-0.582625"><ele>78.5</ele><time>2026-04-30T16:11:04.391Z</time></trkpt><trkpt lat="39.1035833" lon="-0.582615"><ele>79.25</ele><time>2026-04-30T16:11:05.386Z</time></trkpt><trkpt lat="39.10374" lon="-0.5826083"><ele>80.0</ele><time>2026-04-30T16:11:06.386Z</time></trkpt><trkpt lat="39.1039017" lon="-0.5826"><ele>80.0</ele><time>2026-04-30T16:11:07.388Z</time></trkpt><trkpt lat="39.1040683" lon="-0.5825833"><ele>80.0</ele><time>2026-04-30T16:11:08.402Z</time></trkpt><trkpt lat="39.1042383" lon="-0.5825717"><ele>80.0</ele><time>2026-04-30T16:11:09.389Z</time></trkpt><trkpt lat="39.104405" lon="-0.5825617"><ele>80.33333333333334</ele><time>2026-04-30T16:11:10.386Z</time></trkpt><trkpt lat="39.104565" lon="-0.5825483"><ele>80.66666666666667</ele><time>2026-04-30T16:11:11.389Z</time></trkpt><trkpt lat="39.1047233" lon="-0.5825283"><ele>81.0</ele><time>2026-04-30T16:11:12.389Z</time></trkpt><trkpt lat="39.10488" lon="-0.582495"><ele>82.0</ele><time>2026-04-30T16:11:13.391Z</time></trkpt><trkpt lat="39.1050333" lon="-0.5824483"><ele>83.0</ele><time>2026-04-30T16:11:14.393Z</time></trkpt><trkpt lat="39.10519" lon="-0.5824017"><ele>84.0</ele><time>2026-04-30T16:11:15.391Z</time></trkpt><trkpt lat="39.1053417" lon="-0.58236"><ele>84.0</ele><time>2026-04-30T16:11:16.387Z</time></trkpt><trkpt lat="39.105495" lon="-0.5823283"><ele>84.0</ele><time>2026-04-30T16:11:17.386Z</time></trkpt><trkpt lat="39.1056467" lon="-0.5823"><ele>84.0</ele><time>2026-04-30T16:11:18.387Z</time></trkpt><trkpt lat="39.1057983" lon="-0.58228"><ele>85.75</ele><time>2026-04-30T16:11:19.388Z</time></trkpt><trkpt lat="39.1059433" lon="-0.5822667"><ele>87.5</ele><time>2026-04-30T16:11:20.39Z</time></trkpt><trkpt lat="39.1060867" lon="-0.58226"><ele>89.25</ele><time>2026-04-30T16:11:21.387Z</time></trkpt><trkpt lat="39.1062233" lon="-0.58225"><ele>91.0</ele><time>2026-04-30T16:11:22.386Z</time></trkpt><trkpt lat="39.1063567" lon="-0.58224"><ele>91.0</ele><time>2026-04-30T16:11:23.391Z</time></trkpt><trkpt lat="39.106485" lon="-0.5822267"><ele>91.0</ele><time>2026-04-30T16:11:24.388Z</time></trkpt><trkpt lat="39.1066117" lon="-0.5822133"><ele>91.0</ele><time>2026-04-30T16:11:25.393Z</time></trkpt><trkpt lat="39.106735" lon="-0.5821933"><ele>91.0</ele><time>2026-04-30T16:11:26.395Z</time></trkpt><trkpt lat="39.106865" lon="-0.5821733"><ele>91.25</ele><time>2026-04-30T16:11:27.385Z</time></trkpt><trkpt lat="39.1069933" lon="-0.5821533"><ele>91.5</ele><time>2026-04-30T16:11:28.39Z</time></trkpt><trkpt lat="39.1071283" lon="-0.582145"><ele>91.75</ele><time>2026-04-30T16:11:29.385Z</time></trkpt><trkpt lat="39.1072667" lon="-0.582155"><ele>92.0</ele><time>2026-04-30T16:11:30.396Z</time></trkpt><trkpt lat="39.1074183" lon="-0.5821783"><ele>93.0</ele><time>2026-04-30T16:11:31.385Z</time></trkpt><trkpt lat="39.1075733" lon="-0.582205"><ele>94.0</ele><time>2026-04-30T16:11:32.388Z</time></trkpt><trkpt lat="39.107735" lon="-0.58223"><ele>95.0</ele><time>2026-04-30T16:11:33.391Z</time></trkpt><trkpt lat="39.1078967" lon="-0.5822533"><ele>95.0</ele><time>2026-04-30T16:11:34.388Z</time></trkpt><trkpt lat="39.1080633" lon="-0.5822783"><ele>95.0</ele><time>2026-04-30T16:11:35.386Z</time></trkpt><trkpt lat="39.1082317" lon="-0.5823017"><ele>95.0</ele><time>2026-04-30T16:11:36.386Z</time></trkpt><trkpt lat="39.1083933" lon="-0.5823183"><ele>94.66666666666667</ele><time>2026-04-30T16:11:37.389Z</time></trkpt><trkpt lat="39.1085567" lon="-0.5823367"><ele>94.33333333333333</ele><time>2026-04-30T16:11:38.388Z</time></trkpt><trkpt lat="39.1087167" lon="-0.5823567"><ele>94.0</ele><time>2026-04-30T16:11:39.39Z</time></trkpt><trkpt lat="39.1088817" lon="-0.5823817"><ele>94.0</ele><time>2026-04-30T16:11:40.389Z</time></trkpt><trkpt lat="39.1090433" lon="-0.582405"><ele>94.0</ele><time>2026-04-30T16:11:41.387Z</time></trkpt><trkpt lat="39.109205" lon="-0.5824267"><ele>94.0</ele><time>2026-04-30T16:11:42.388Z</time></trkpt><trkpt lat="39.1093683" lon="-0.58245"><ele>94.33333333333333</ele><time>2026-04-30T16:11:43.389Z</time></trkpt><trkpt lat="39.1095283" lon="-0.582465"><ele>94.66666666666667</ele><time>2026-04-30T16:11:44.398Z</time></trkpt><trkpt lat="39.1096817" lon="-0.5824683"><ele>95.0</ele><time>2026-04-30T16:11:45.388Z</time></trkpt><trkpt lat="39.1098317" lon="-0.582465"><ele>94.75</ele><time>2026-04-30T16:11:46.389Z</time></trkpt><trkpt lat="39.109975" lon="-0.5824583"><ele>94.5</ele><time>2026-04-30T16:11:47.385Z</time></trkpt><trkpt lat="39.1101183" lon="-0.5824533"><ele>94.25</ele><time>2026-04-30T16:11:48.388Z</time></trkpt><trkpt lat="39.11026" lon="-0.58245"><ele>94.0</ele><time>2026-04-30T16:11:49.39Z</time></trkpt><trkpt lat="39.110405" lon="-0.582445"><ele>94.0</ele><time>2026-04-30T16:11:50.393Z</time></trkpt><trkpt lat="39.11055" lon="-0.5824383"><ele>94.0</ele><time>2026-04-30T16:11:51.392Z</time></trkpt><trkpt lat="39.1107" lon="-0.5824333"><ele>94.0</ele><time>2026-04-30T16:11:52.39Z</time></trkpt><trkpt lat="39.1108517" lon="-0.5824283"><ele>94.0</ele><time>2026-04-30T16:11:53.389Z</time></trkpt><trkpt lat="39.1110017" lon="-0.58242"><ele>95.66666666666666</ele><time>2026-04-30T16:11:54.388Z</time></trkpt><trkpt lat="39.1111517" lon="-0.5824033"><ele>97.33333333333333</ele><time>2026-04-30T16:11:55.389Z</time></trkpt><trkpt lat="39.1112983" lon="-0.5823833"><ele>99.0</ele><time>2026-04-30T16:11:56.396Z</time></trkpt><trkpt lat="39.1114517" lon="-0.58237"><ele>100.33333333333334</ele><time>2026-04-30T16:11:57.388Z</time></trkpt><trkpt lat="39.1116117" lon="-0.582365"><ele>101.66666666666667</ele><time>2026-04-30T16:11:58.389Z</time></trkpt><trkpt lat="39.1117767" lon="-0.582365"><ele>103.0</ele><time>2026-04-30T16:11:59.389Z</time></trkpt><trkpt lat="39.1119433" lon="-0.5823617"><ele>103.0</ele><time>2026-04-30T16:12:00.389Z</time></trkpt><trkpt lat="39.11211" lon="-0.582355"><ele>103.0</ele><time>2026-04-30T16:12:01.392Z</time></trkpt><trkpt lat="39.11228" lon="-0.582355"><ele>103.0</ele><time>2026-04-30T16:12:02.389Z</time></trkpt><trkpt lat="39.11245" lon="-0.5823583"><ele>104.33333333333334</ele><time>2026-04-30T16:12:03.386Z</time></trkpt><trkpt lat="39.11262" lon="-0.5823683"><ele>105.66666666666666</ele><time>2026-04-30T16:12:04.39Z</time></trkpt><trkpt lat="39.1127867" lon="-0.5823817"><ele>107.0</ele><time>2026-04-30T16:12:05.389Z</time></trkpt><trkpt lat="39.1129433" lon="-0.5823983"><ele>107.0</ele><time>2026-04-30T16:12:06.385Z</time></trkpt><trkpt lat="39.1130933" lon="-0.5824233"><ele>107.0</ele><time>2026-04-30T16:12:07.389Z</time></trkpt><trkpt lat="39.1132417" lon="-0.58246"><ele>107.0</ele><time>2026-04-30T16:12:08.388Z</time></trkpt><trkpt lat="39.1133917" lon="-0.5825017"><ele>107.66666666666666</ele><time>2026-04-30T16:12:09.385Z</time></trkpt><trkpt lat="39.1135433" lon="-0.5825517"><ele>108.33333333333334</ele><time>2026-04-30T16:12:10.383Z</time></trkpt><trkpt lat="39.1136933" lon="-0.5825983"><ele>109.0</ele><time>2026-04-30T16:12:11.39Z</time></trkpt><trkpt lat="39.1138383" lon="-0.5826467"><ele>109.0</ele><time>2026-04-30T16:12:12.387Z</time></trkpt><trkpt lat="39.1139767" lon="-0.5826883"><ele>109.0</ele><time>2026-04-30T16:12:13.386Z</time></trkpt><trkpt lat="39.1141067" lon="-0.5827267"><ele>109.0</ele><time>2026-04-30T16:12:14.388Z</time></trkpt><trkpt lat="39.11423" lon="-0.58277"><ele>109.0</ele><time>2026-04-30T16:12:15.387Z</time></trkpt><trkpt lat="39.1143467" lon="-0.5828117"><ele>109.80000000000001</ele><time>2026-04-30T16:12:16.387Z</time></trkpt><trkpt lat="39.11446" lon="-0.58285"><ele>110.60000000000001</ele><time>2026-04-30T16:12:17.387Z</time></trkpt><trkpt lat="39.114565" lon="-0.5828883"><ele>111.4</ele><time>2026-04-30T16:12:18.386Z</time></trkpt><trkpt lat="39.1146633" lon="-0.5829217"><ele>112.2</ele><time>2026-04-30T16:12:19.389Z</time></trkpt><trkpt lat="39.1147583" lon="-0.58296"><ele>113.0</ele><time>2026-04-30T16:12:20.387Z</time></trkpt><trkpt lat="39.114845" lon="-0.5830017"><ele>112.33333333333333</ele><time>2026-04-30T16:12:21.386Z</time></trkpt><trkpt lat="39.1149267" lon="-0.583045"><ele>111.66666666666666</ele><time>2026-04-30T16:12:22.387Z</time></trkpt><trkpt lat="39.11501" lon="-0.5830883"><ele>111.0</ele><time>2026-04-30T16:12:23.39Z</time></trkpt><trkpt lat="39.11509" lon="-0.58313"><ele>110.33333333333334</ele><time>2026-04-30T16:12:24.388Z</time></trkpt><trkpt lat="39.115165" lon="-0.583175"><ele>109.66666666666667</ele><time>2026-04-30T16:12:25.385Z</time></trkpt><trkpt lat="39.1152367" lon="-0.583215"><ele>109.0</ele><time>2026-04-30T16:12:26.386Z</time></trkpt><trkpt lat="39.115305" lon="-0.5832417"><ele>109.0</ele><time>2026-04-30T16:12:27.391Z</time></trkpt><trkpt lat="39.11542" lon="-0.58322"><ele>109.0</ele><time>2026-04-30T16:12:29.385Z</time></trkpt><trkpt lat="39.115475" lon="-0.5830883"><ele>109.0</ele><time>2026-04-30T16:12:31.386Z</time></trkpt><trkpt lat="39.115485" lon="-0.58299"><ele>109.0</ele><time>2026-04-30T16:12:32.387Z</time></trkpt><trkpt lat="39.1154983" lon="-0.5828817"><ele>109.0</ele><time>2026-04-30T16:12:33.385Z</time></trkpt><trkpt lat="39.1155167" lon="-0.5827583"><ele>108.6</ele><time>2026-04-30T16:12:34.386Z</time></trkpt><trkpt lat="39.11554" lon="-0.58264"><ele>108.2</ele><time>2026-04-30T16:12:35.388Z</time></trkpt><trkpt lat="39.1155667" lon="-0.5825133"><ele>107.79999999999998</ele><time>2026-04-30T16:12:36.389Z</time></trkpt><trkpt lat="39.1155967" lon="-0.58239"><ele>107.39999999999999</ele><time>2026-04-30T16:12:37.387Z</time></trkpt><trkpt lat="39.1156317" lon="-0.58227"><ele>107.0</ele><time>2026-04-30T16:12:38.388Z</time></trkpt><trkpt lat="39.115665" lon="-0.5821617"><ele>106.99999999999999</ele><time>2026-04-30T16:12:39.385Z</time></trkpt><trkpt lat="39.1157017" lon="-0.5820683"><ele>107.0</ele><time>2026-04-30T16:12:40.386Z</time></trkpt><trkpt lat="39.115735" lon="-0.581985"><ele>107.0</ele><time>2026-04-30T16:12:41.388Z</time></trkpt><trkpt lat="39.115775" lon="-0.581845"><ele>107.0</ele><time>2026-04-30T16:12:43.39Z</time></trkpt><trkpt lat="39.1158067" lon="-0.581755"><ele>106.99999999999999</ele><time>2026-04-30T16:12:45.392Z</time></trkpt><trkpt lat="39.1158717" lon="-0.5817283"><ele>107.0</ele><time>2026-04-30T16:12:47.39Z</time></trkpt><trkpt lat="39.1159983" lon="-0.5817367"><ele>107.6</ele><time>2026-04-30T16:12:49.388Z</time></trkpt><trkpt lat="39.1160933" lon="-0.5817517"><ele>108.19999999999999</ele><time>2026-04-30T16:12:50.39Z</time></trkpt><trkpt lat="39.116195" lon="-0.5817567"><ele>108.8</ele><time>2026-04-30T16:12:51.391Z</time></trkpt><trkpt lat="39.1163017" lon="-0.581755"><ele>109.4</ele><time>2026-04-30T16:12:52.392Z</time></trkpt><trkpt lat="39.1164083" lon="-0.5817467"><ele>110.0</ele><time>2026-04-30T16:12:53.393Z</time></trkpt><trkpt lat="39.1165183" lon="-0.5817283"><ele>109.8</ele><time>2026-04-30T16:12:54.389Z</time></trkpt><trkpt lat="39.1166183" lon="-0.5817067"><ele>109.6</ele><time>2026-04-30T16:12:55.391Z</time></trkpt><trkpt lat="39.1167" lon="-0.5816817"><ele>109.4</ele><time>2026-04-30T16:12:56.389Z</time></trkpt><trkpt lat="39.1167683" lon="-0.5816617"><ele>109.2</ele><time>2026-04-30T16:12:57.386Z</time></trkpt><trkpt lat="39.1168617" lon="-0.5816017"><ele>109.0</ele><time>2026-04-30T16:12:59.388Z</time></trkpt><trkpt lat="39.1169617" lon="-0.5815167"><ele>109.0</ele><time>2026-04-30T16:13:01.387Z</time></trkpt><trkpt lat="39.1170217" lon="-0.5814667"><ele>109.0</ele><time>2026-04-30T16:13:02.391Z</time></trkpt><trkpt lat="39.11709" lon="-0.5814083"><ele>109.0</ele><time>2026-04-30T16:13:03.388Z</time></trkpt><trkpt lat="39.1171717" lon="-0.5813467"><ele>109.0</ele><time>2026-04-30T16:13:04.387Z</time></trkpt><trkpt lat="39.1172733" lon="-0.58127"><ele>109.0</ele><time>2026-04-30T16:13:05.39Z</time></trkpt><trkpt lat="39.1173717" lon="-0.5811783"><ele>109.25</ele><time>2026-04-30T16:13:06.388Z</time></trkpt><trkpt lat="39.1174717" lon="-0.5810833"><ele>109.5</ele><time>2026-04-30T16:13:07.387Z</time></trkpt><trkpt lat="39.1175683" lon="-0.5809817"><ele>109.75</ele><time>2026-04-30T16:13:08.39Z</time></trkpt><trkpt lat="39.117665" lon="-0.5808817"><ele>110.0</ele><time>2026-04-30T16:13:09.387Z</time></trkpt><trkpt lat="39.1177583" lon="-0.580785"><ele>110.0</ele><time>2026-04-30T16:13:10.387Z</time></trkpt><trkpt lat="39.11785" lon="-0.5806967"><ele>110.0</ele><time>2026-04-30T16:13:11.384Z</time></trkpt><trkpt lat="39.1179383" lon="-0.5806183"><ele>110.0</ele><time>2026-04-30T16:13:12.391Z</time></trkpt><trkpt lat="39.1180317" lon="-0.5805433"><ele>110.0</ele><time>2026-04-30T16:13:13.393Z</time></trkpt><trkpt lat="39.11813" lon="-0.5804717"><ele>110.0</ele><time>2026-04-30T16:13:14.386Z</time></trkpt><trkpt lat="39.1182283" lon="-0.5803967"><ele>110.25</ele><time>2026-04-30T16:13:15.389Z</time></trkpt><trkpt lat="39.1183317" lon="-0.58032"><ele>110.5</ele><time>2026-04-30T16:13:16.393Z</time></trkpt><trkpt lat="39.1184383" lon="-0.5802367"><ele>110.75</ele><time>2026-04-30T16:13:17.385Z</time></trkpt><trkpt lat="39.1185483" lon="-0.5801533"><ele>111.0</ele><time>2026-04-30T16:13:18.392Z</time></trkpt><trkpt lat="39.11866" lon="-0.580065"><ele>111.0</ele><time>2026-04-30T16:13:19.389Z</time></trkpt><trkpt lat="39.1187717" lon="-0.57998"><ele>111.0</ele><time>2026-04-30T16:13:20.386Z</time></trkpt><trkpt lat="39.1188817" lon="-0.5798967"><ele>111.0</ele><time>2026-04-30T16:13:21.388Z</time></trkpt><trkpt lat="39.118985" lon="-0.579815"><ele>111.0</ele><time>2026-04-30T16:13:22.391Z</time></trkpt><trkpt lat="39.1190817" lon="-0.5797317"><ele>110.25</ele><time>2026-04-30T16:13:23.387Z</time></trkpt><trkpt lat="39.11918" lon="-0.5796483"><ele>109.5</ele><time>2026-04-30T16:13:24.39Z</time></trkpt><trkpt lat="39.1192833" lon="-0.579555"><ele>108.75</ele><time>2026-04-30T16:13:25.392Z</time></trkpt><trkpt lat="39.1193917" lon="-0.5794467"><ele>108.0</ele><time>2026-04-30T16:13:26.386Z</time></trkpt><trkpt lat="39.1194983" lon="-0.5793367"><ele>106.75</ele><time>2026-04-30T16:13:27.386Z</time></trkpt><trkpt lat="39.1196083" lon="-0.5792167"><ele>105.5</ele><time>2026-04-30T16:13:28.384Z</time></trkpt><trkpt lat="39.1197217" lon="-0.5790933"><ele>104.25</ele><time>2026-04-30T16:13:29.389Z</time></trkpt><trkpt lat="39.1198317" lon="-0.57897"><ele>103.0</ele><time>2026-04-30T16:13:30.394Z</time></trkpt><trkpt lat="39.1199417" lon="-0.578835"><ele>100.66666666666667</ele><time>2026-04-30T16:13:31.387Z</time></trkpt><trkpt lat="39.1200617" lon="-0.5786967"><ele>98.33333333333334</ele><time>2026-04-30T16:13:32.386Z</time></trkpt><trkpt lat="39.1201767" lon="-0.5785633"><ele>96.0</ele><time>2026-04-30T16:13:33.393Z</time></trkpt><trkpt lat="39.1202967" lon="-0.5784283"><ele>95.5</ele><time>2026-04-30T16:13:34.392Z</time></trkpt><trkpt lat="39.1204" lon="-0.5783017"><ele>95.0</ele><time>2026-04-30T16:13:35.386Z</time></trkpt><trkpt lat="39.1205067" lon="-0.5781767"><ele>94.5</ele><time>2026-04-30T16:13:36.383Z</time></trkpt><trkpt lat="39.1206083" lon="-0.5780583"><ele>94.0</ele><time>2026-04-30T16:13:37.388Z</time></trkpt><trkpt lat="39.1206933" lon="-0.577945"><ele>92.75</ele><time>2026-04-30T16:13:38.387Z</time></trkpt><trkpt lat="39.12079" lon="-0.5778367"><ele>91.5</ele><time>2026-04-30T16:13:39.387Z</time></trkpt><trkpt lat="39.1208883" lon="-0.5777267"><ele>90.25</ele><time>2026-04-30T16:13:40.386Z</time></trkpt><trkpt lat="39.1209783" lon="-0.5776117"><ele>89.0</ele><time>2026-04-30T16:13:41.385Z</time></trkpt><trkpt lat="39.1210717" lon="-0.5774983"><ele>89.0</ele><time>2026-04-30T16:13:42.388Z</time></trkpt><trkpt lat="39.1211583" lon="-0.5773917"><ele>89.0</ele><time>2026-04-30T16:13:43.389Z</time></trkpt><trkpt lat="39.1212417" lon="-0.577295"><ele>89.0</ele><time>2026-04-30T16:13:44.389Z</time></trkpt><trkpt lat="39.1213183" lon="-0.5772067"><ele>89.0</ele><time>2026-04-30T16:13:45.382Z</time></trkpt><trkpt lat="39.1213967" lon="-0.5771083"><ele>89.0</ele><time>2026-04-30T16:13:46.384Z</time></trkpt><trkpt lat="39.1214783" lon="-0.5770033"><ele>88.83333333333334</ele><time>2026-04-30T16:13:47.384Z</time></trkpt><trkpt lat="39.1215583" lon="-0.576915"><ele>88.66666666666667</ele><time>2026-04-30T16:13:48.384Z</time></trkpt><trkpt lat="39.121635" lon="-0.576835"><ele>88.5</ele><time>2026-04-30T16:13:49.387Z</time></trkpt><trkpt lat="39.1216867" lon="-0.5767533"><ele>88.33333333333333</ele><time>2026-04-30T16:13:50.388Z</time></trkpt><trkpt lat="39.121725" lon="-0.576655"><ele>88.16666666666666</ele><time>2026-04-30T16:13:51.388Z</time></trkpt><trkpt lat="39.1217067" lon="-0.5765767"><ele>88.0</ele><time>2026-04-30T16:13:52.389Z</time></trkpt><trkpt lat="39.12165" lon="-0.5765317"><ele>88.0</ele><time>2026-04-30T16:13:53.389Z</time></trkpt><trkpt lat="39.1215783" lon="-0.576505"><ele>88.0</ele><time>2026-04-30T16:13:54.388Z</time></trkpt><trkpt lat="39.1214817" lon="-0.5764967"><ele>88.0</ele><time>2026-04-30T16:13:55.391Z</time></trkpt><trkpt lat="39.121375" lon="-0.5764883"><ele>88.0</ele><time>2026-04-30T16:13:56.387Z</time></trkpt><trkpt lat="39.1212467" lon="-0.576475"><ele>88.0</ele><time>2026-04-30T16:13:57.388Z</time></trkpt><trkpt lat="39.1211233" lon="-0.57646"><ele>88.0</ele><time>2026-04-30T16:13:58.394Z</time></trkpt><trkpt lat="39.1209967" lon="-0.5764417"><ele>88.0</ele><time>2026-04-30T16:13:59.386Z</time></trkpt><trkpt lat="39.12086" lon="-0.5764233"><ele>88.0</ele><time>2026-04-30T16:14:00.387Z</time></trkpt><trkpt lat="39.120725" lon="-0.576405"><ele>88.0</ele><time>2026-04-30T16:14:01.386Z</time></trkpt><trkpt lat="39.120585" lon="-0.5763817"><ele>88.0</ele><time>2026-04-30T16:14:02.388Z</time></trkpt><trkpt lat="39.1204583" lon="-0.5763667"><ele>88.0</ele><time>2026-04-30T16:14:03.388Z</time></trkpt><trkpt lat="39.1203333" lon="-0.5763467"><ele>88.0</ele><time>2026-04-30T16:14:04.386Z</time></trkpt><trkpt lat="39.1202067" lon="-0.576325"><ele>88.0</ele><time>2026-04-30T16:14:05.388Z</time></trkpt><trkpt lat="39.1200883" lon="-0.5763033"><ele>88.0</ele><time>2026-04-30T16:14:06.391Z</time></trkpt><trkpt lat="39.119975" lon="-0.57629"><ele>88.0</ele><time>2026-04-30T16:14:07.387Z</time></trkpt><trkpt lat="39.1198633" lon="-0.5762867"><ele>88.0</ele><time>2026-04-30T16:14:08.385Z</time></trkpt><trkpt lat="39.119755" lon="-0.576285"><ele>88.0</ele><time>2026-04-30T16:14:09.389Z</time></trkpt><trkpt lat="39.1196583" lon="-0.5762817"><ele>88.0</ele><time>2026-04-30T16:14:10.388Z</time></trkpt><trkpt lat="39.1195683" lon="-0.5762767"><ele>88.80000000000001</ele><time>2026-04-30T16:14:11.389Z</time></trkpt><trkpt lat="39.1194883" lon="-0.5762683"><ele>89.6</ele><time>2026-04-30T16:14:12.39Z</time></trkpt><trkpt lat="39.11942" lon="-0.57626"><ele>90.4</ele><time>2026-04-30T16:14:13.386Z</time></trkpt><trkpt lat="39.1193167" lon="-0.5763133"><ele>91.19999999999999</ele><time>2026-04-30T16:14:15.39Z</time></trkpt><trkpt lat="39.1192667" lon="-0.5764417"><ele>92.0</ele><time>2026-04-30T16:14:17.386Z</time></trkpt><trkpt lat="39.119265" lon="-0.5765467"><ele>92.0</ele><time>2026-04-30T16:14:18.387Z</time></trkpt><trkpt lat="39.119265" lon="-0.576655"><ele>92.0</ele><time>2026-04-30T16:14:19.385Z</time></trkpt><trkpt lat="39.1192633" lon="-0.57676"><ele>92.0</ele><time>2026-04-30T16:14:20.39Z</time></trkpt><trkpt lat="39.1192667" lon="-0.5768567"><ele>92.0</ele><time>2026-04-30T16:14:21.39Z</time></trkpt><trkpt lat="39.119275" lon="-0.5769517"><ele>92.0</ele><time>2026-04-30T16:14:22.389Z</time></trkpt><trkpt lat="39.1192833" lon="-0.57705"><ele>92.0</ele><time>2026-04-30T16:14:23.39Z</time></trkpt><trkpt lat="39.1192883" lon="-0.577145"><ele>92.83333333333334</ele><time>2026-04-30T16:14:24.389Z</time></trkpt><trkpt lat="39.1192967" lon="-0.5772817"><ele>93.66666666666667</ele><time>2026-04-30T16:14:26.388Z</time></trkpt><trkpt lat="39.1192633" lon="-0.5773667"><ele>94.5</ele><time>2026-04-30T16:14:29.388Z</time></trkpt><trkpt lat="39.119195" lon="-0.57733"><ele>95.33333333333334</ele><time>2026-04-30T16:14:55.385Z</time></trkpt><trkpt lat="39.1191183" lon="-0.577345"><ele>96.16666666666667</ele><time>2026-04-30T16:14:58.387Z</time></trkpt><trkpt lat="39.1190267" lon="-0.5773517"><ele>97.0</ele><time>2026-04-30T16:15:00.387Z</time></trkpt><trkpt lat="39.1189483" lon="-0.5773433"><ele>108.0</ele><time>2026-04-30T16:15:02.389Z</time></trkpt><trkpt lat="39.1188867" lon="-0.5773233"><ele>108.0</ele><time>2026-04-30T16:15:04.387Z</time></trkpt><trkpt lat="39.1188317" lon="-0.5772333"><ele>108.0</ele><time>2026-04-30T16:15:07.39Z</time></trkpt></trkseg></trk></gpx>